Provisional Data: Sangerfield River near Poolville, NY


Please select a monitoring station.
Please select start date.
Please select start date.

Toggle Unit: C/F Toggle Unit: C/F
Sample Time Temperature (C) Temperature (F) Specific Conductivity (mS/cm) pH   Turbidity (NTU+) DO (mg/L)
12/23/2022 12:00:00 AM 0.05 32.09 0.313 7.96 12.58 13.47
12/23/2022 12:15:00 AM 0.09 32.162 0.308 7.97 8.18 13.46
12/23/2022 12:30:00 AM 0.13 32.234 0.308 7.98 8.27 13.44
12/23/2022 12:45:00 AM 0.18 32.324 0.306 7.97 8.58 13.43
12/23/2022 1:00:00 AM 0.21 32.378 0.306 7.98 8.34 13.42
12/23/2022 1:15:00 AM 0.25 32.45 0.306 7.99 9.53 13.4
12/23/2022 1:30:00 AM 0.27 32.486 0.306 7.99 9.58 13.38
12/23/2022 1:45:00 AM 0.28 32.504 0.305 7.99 8.4 13.37
12/23/2022 2:00:00 AM 0.3 32.54 0.306 7.99 8.34 13.35
12/23/2022 2:15:00 AM 0.33 32.594 0.306 7.98 8.73 13.33
12/23/2022 2:30:00 AM 0.34 32.612 0.306 7.99 9.59 13.31
12/23/2022 2:45:00 AM 0.35 32.63 0.305 7.98 9.02 13.29
12/23/2022 3:00:00 AM 0.41 32.738 0.305 7.98 9.07 13.28
12/23/2022 3:15:00 AM 0.48 32.864 0.304 7.98 8.95 13.27
12/23/2022 3:30:00 AM 0.47 32.846 0.304 7.97 11.75 13.25
12/23/2022 3:45:00 AM 0.49 32.882 0.304 7.96 12.03 13.23
12/23/2022 4:00:00 AM 0.47 32.846 0.303 7.96 16.41 13.21
12/23/2022 4:15:00 AM 0.47 32.846 0.302 7.95 16.81 13.19
12/23/2022 4:30:00 AM 0.45 32.81 0.301 7.94 13.68 13.17
12/23/2022 4:45:00 AM 0.45 32.81 0.299 7.94 19.5 13.16
12/23/2022 5:00:00 AM 0.43 32.774 0.297 7.93 19.44 13.14
12/23/2022 5:15:00 AM 0.41 32.738 0.295 7.92 22.18 13.13
12/23/2022 5:30:00 AM 0.4 32.72 0.292 7.91 24.67 13.11
12/23/2022 5:45:00 AM 0.36 32.648 0.284 7.91 28.22 13.1
12/23/2022 6:00:00 AM 0.34 32.612 0.284 7.9 28.87 13.08
12/23/2022 6:15:00 AM 0.33 32.594 0.281 7.89 46.86 13.07
12/23/2022 6:30:00 AM 0.32 32.576 0.275 7.86 80.5 13.05
12/23/2022 6:45:00 AM 0.31 32.558 0.271 7.85 43.8 13.06
12/23/2022 7:00:00 AM 0.3 32.54 0.268 7.8 46.99 13.04
12/23/2022 7:15:00 AM 0.31 32.558 0.263 7.79 51.43 13.03
12/23/2022 7:30:00 AM 0.31 32.558 0.261 7.78 56.09 13.03
12/23/2022 7:45:00 AM 0.3 32.54 0.262 7.75 58.24 13.02
12/23/2022 8:00:00 AM 0.31 32.558 0.256 7.76 58.22 13.01
12/23/2022 8:15:00 AM 0.33 32.594 0.254 7.75 58.48 13
12/23/2022 8:30:00 AM 0.34 32.612 0.251 7.74 59.84 13
12/23/2022 8:45:00 AM 0.35 32.63 0.247 7.73 62.55 12.99
12/23/2022 9:00:00 AM 0.36 32.648 0.244 7.72 61.48 12.99
12/23/2022 9:15:00 AM 0.38 32.684 0.241 7.72 58.07 13
12/23/2022 9:30:00 AM 0.4 32.72 0.24 7.71 56.32 12.99
12/23/2022 9:45:00 AM 0.41 32.738 0.239 7.69 54.45 12.98
12/23/2022 10:00:00 AM 0.43 32.774 0.236 7.68 54.19 12.98
12/23/2022 10:15:00 AM 0.46 32.828 0.234 7.68 50.82 12.98
12/23/2022 10:30:00 AM 0.48 32.864 0.23 7.69 48.25 12.97
12/23/2022 10:45:00 AM 0.51 32.918 0.231 7.67 51.73 12.97
12/23/2022 11:00:00 AM 0.54 32.972 0.228 7.67 52.17 12.97
12/23/2022 11:15:00 AM 0.57 33.026 0.225 7.69 49.74 12.96
12/23/2022 11:30:00 AM 0.6 33.08 0.225 7.68 51.91 12.95
12/23/2022 11:45:00 AM 0.63 33.134 0.225 7.68 49.25 12.93
12/23/2022 12:00:00 PM 0.66 33.188 0.225 7.69 47.16 12.92
12/23/2022 12:15:00 PM 0.67 33.206 0.226 7.68 45.95 12.91
12/23/2022 12:30:00 PM 0.64 33.152 0.227 7.67 48.87 12.9
12/23/2022 12:45:00 PM 0.58 33.044 0.224 7.68 47.95 12.89
12/23/2022 1:00:00 PM 0.52 32.936 0.225 7.68 50.13 12.89
12/23/2022 1:15:00 PM 0.54 32.972 0.225 7.67 50.44 12.89
12/23/2022 1:30:00 PM 0.55 32.99 0.198 7.68 44.88 12.9
12/23/2022 1:45:00 PM 0.52 32.936 0.226 7.65 57.27 12.89
12/23/2022 2:00:00 PM 0.51 32.918 0.223 7.66 53.3 12.88
12/23/2022 2:15:00 PM 0.49 32.882 0.222 7.66 52.39 12.89
12/23/2022 2:30:00 PM 0.47 32.846 0.222 7.65 55.78 12.89
12/23/2022 2:45:00 PM 0.45 32.81 0.221 7.65 55.52 12.89
12/23/2022 3:00:00 PM 0.43 32.774 0.218 7.66 57.23 12.9
12/23/2022 3:15:00 PM 0.39 32.702 0.218 7.64 61.42 12.91
12/23/2022 3:30:00 PM 0.33 32.594 0.217 7.65 65.53 12.92
12/23/2022 3:45:00 PM 0.27 32.486 0.218 7.62 66.95 12.93
12/23/2022 4:00:00 PM 0.22 32.396 0.215 7.64 69.69 12.93
12/23/2022 4:15:00 PM 0.17 32.306 0.216 7.63 65.53 12.94
12/23/2022 4:30:00 PM 0.14 32.252 0.217 7.62 66.83 12.95
12/23/2022 4:45:00 PM 0.09 32.162 0.215 7.63 58.03 12.96
12/23/2022 5:00:00 PM 0.04 32.072 0.216 7.63 58.14 12.98
12/23/2022 5:15:00 PM 0 32 0.215 7.63 49.48 13
12/23/2022 5:30:00 PM -0.06 31.892 0.215 7.62 51.63 13.02
12/23/2022 5:45:00 PM -0.06 31.892 0.216 7.63 47.45 13.04
12/23/2022 6:00:00 PM -0.06 31.892 0.216 7.62 44.96 13.04
12/23/2022 6:15:00 PM -0.06 31.892 0.217 7.62 42.61 13.06
12/23/2022 6:30:00 PM -0.06 31.892 0.217 7.62 37.53 13.06
12/23/2022 6:45:00 PM -0.06 31.892 0.216 7.64 33.2 13.08
12/23/2022 7:00:00 PM -0.06 31.892 0.22 7.62 31.96 13.11
12/23/2022 7:15:00 PM -0.06 31.892 0.218 7.63 31.32 13.12
12/23/2022 7:30:00 PM -0.06 31.892 0.221 7.62 27.66 13.14
12/23/2022 7:45:00 PM -0.06 31.892 0.221 7.62 26.48 13.16
12/23/2022 8:00:00 PM -0.06 31.892 0.221 7.64 27.18 13.16
12/23/2022 8:15:00 PM -0.06 31.892 0.223 7.63 26.77 13.17
12/23/2022 8:30:00 PM -0.06 31.892 0.222 7.64 26.79 13.17
12/23/2022 8:45:00 PM -0.06 31.892 0.224 7.62 26.24 13.17
12/23/2022 9:00:00 PM -0.06 31.892 0.225 7.63 24.98 13.18
12/23/2022 9:15:00 PM -0.06 31.892 0.226 7.63 23.71 13.16
12/23/2022 9:30:00 PM -0.06 31.892 0.226 7.63 23.87 13.19
12/23/2022 9:45:00 PM -0.06 31.892 0.226 7.65 22.64 13.13
12/23/2022 10:00:00 PM -0.06 31.892 0.231 7.63 20.59 13.14
12/23/2022 10:15:00 PM -0.06 31.892 0.227 7.63 43.54 13.2
12/23/2022 10:30:00 PM -0.06 31.892 0.232 7.63 19.64 13.19
12/23/2022 10:45:00 PM -0.06 31.892 0.231 7.66 20.97 13.21
12/23/2022 11:00:00 PM -0.06 31.892 0.235 7.64 17.93 13.21
12/23/2022 11:15:00 PM -0.05 31.91 0.234 7.65 17.34 13.21
12/23/2022 11:30:00 PM -0.06 31.892 0.236 7.65 17.41 13.2
12/23/2022 11:45:00 PM -0.05 31.91 0.238 7.63 16.86 13.2
12/24/2022 12:00:00 AM -0.06 31.892 0.238 7.65 16.54 13.2
12/24/2022 12:15:00 AM -0.05 31.91 0.239 7.66 16.41 13.19
12/24/2022 12:30:00 AM -0.05 31.91 0.24 7.65 15.82 13.19
12/24/2022 12:45:00 AM -0.05 31.91 0.24 7.66 15.04 13.19
12/24/2022 1:00:00 AM -0.06 31.892 0.241 7.65 14.67 13.19
12/24/2022 1:15:00 AM -0.06 31.892 0.244 7.62 14.82 13.18
12/24/2022 1:30:00 AM -0.06 31.892 0.241 7.65 14.14 13.17
12/24/2022 1:45:00 AM -0.06 31.892 0.243 7.65 14.14 13.16
12/24/2022 2:00:00 AM -0.06 31.892 0.245 7.63 14.62 13.17
12/24/2022 2:15:00 AM -0.06 31.892 0.243 7.65 14.48 13.16
12/24/2022 2:30:00 AM -0.06 31.892 0.244 7.65 15.49 13.18
12/24/2022 2:45:00 AM -0.06 31.892 0.248 7.62 14.21 13.17
12/24/2022 3:00:00 AM -0.06 31.892 0.246 7.63 16.28 13.17
12/24/2022 3:15:00 AM -0.06 31.892 0.244 7.65 14.69 13.17
12/24/2022 3:30:00 AM -0.06 31.892 0.246 7.64 13.78 13.15
12/24/2022 3:45:00 AM -0.06 31.892 0.245 7.65 13.96 13.14
12/24/2022 4:00:00 AM -0.06 31.892 0.245 7.65 13.71 13.15
12/24/2022 4:15:00 AM -0.06 31.892 0.246 7.65 13.69 13.14
12/24/2022 4:30:00 AM -0.06 31.892 0.246 7.65 13.57 13.15
12/24/2022 4:45:00 AM -0.06 31.892 0.246 7.65 13.5 13.14
12/24/2022 5:00:00 AM -0.06 31.892 0.246 7.64 14.29 13.13
12/24/2022 5:15:00 AM -0.06 31.892 0.247 7.63 12.37 13.12
12/24/2022 5:30:00 AM -0.06 31.892 0.247 7.62 12.59 13.1
12/24/2022 5:45:00 AM -0.05 31.91 0.245 7.65 13.03 13.08
12/24/2022 6:00:00 AM -0.06 31.892 0.246 7.64 12.94 13.12
12/24/2022 6:15:00 AM -0.06 31.892 0.246 7.63 13.53 13.13
12/24/2022 6:30:00 AM -0.06 31.892 0.248 7.61 12.96 13.13
12/24/2022 6:45:00 AM -0.06 31.892 0.246 7.62 13.41 13.13
12/24/2022 7:00:00 AM -0.06 31.892 0.245 7.63 14.21 13.08
12/24/2022 7:15:00 AM -0.06 31.892 0.245 7.63 13.11 13.1
12/24/2022 7:30:00 AM -0.05 31.91 0.245 7.63 13.2 13.08
12/24/2022 7:45:00 AM -0.05 31.91 0.245 7.63 13.77 13.08
12/24/2022 8:00:00 AM -0.05 31.91 0.245 7.63 12.65 13.07
12/24/2022 8:15:00 AM -0.05 31.91 0.245 7.62 15.7 13.06
12/24/2022 8:30:00 AM -0.05 31.91 0.245 7.62 14.01 13.06
12/24/2022 8:45:00 AM -0.05 31.91 0.244 7.62 14.8 13.06
12/24/2022 9:00:00 AM -0.05 31.91 0.244 7.62 13.73 13.07
12/24/2022 9:15:00 AM -0.05 31.91 0.246 7.6 16.06 13.06
12/24/2022 9:30:00 AM -0.05 31.91 0.243 7.61 14.29 13.05
12/24/2022 9:45:00 AM -0.05 31.91 0.243 7.61 14.3 13.04
12/24/2022 10:00:00 AM -0.05 31.91 0.244 7.61 14.61 13.03
12/24/2022 10:15:00 AM -0.05 31.91 0.245 7.58 18.15 13.03
12/24/2022 10:30:00 AM -0.05 31.91 0.243 7.61 18.69 13.03
12/24/2022 10:45:00 AM -0.05 31.91 0.244 7.6 17.57 13.02
12/24/2022 11:00:00 AM -0.06 31.892 0.243 7.6 16.98 13.02
12/24/2022 11:15:00 AM -0.05 31.91 0.243 7.6 19.07 13.02
12/24/2022 11:30:00 AM -0.06 31.892 0.242 7.59 15.05 13.01
12/24/2022 11:45:00 AM -0.05 31.91 0.243 7.59 17.7 13
12/24/2022 12:00:00 PM -0.05 31.91 0.243 7.59 18.79 12.99
12/24/2022 12:15:00 PM -0.05 31.91 0.242 7.59 22.53 12.96
12/24/2022 12:30:00 PM -0.05 31.91 0.242 7.58 27.85 12.95
12/24/2022 12:45:00 PM -0.05 31.91 0.242 7.58 16.04 12.95
12/24/2022 1:00:00 PM -0.05 31.91 0.241 7.58 15.87 12.94
12/24/2022 1:15:00 PM -0.05 31.91 0.241 7.58 15.72 12.93
12/24/2022 1:30:00 PM -0.05 31.91 0.24 7.58 16.64 12.92
12/24/2022 1:45:00 PM -0.05 31.91 0.24 7.57 16.56 12.9
12/24/2022 2:00:00 PM -0.05 31.91 0.242 7.54 16.87 12.89
12/24/2022 2:15:00 PM -0.05 31.91 0.241 7.54 16.9 12.88
12/24/2022 2:30:00 PM -0.05 31.91 0.239 7.56 17.4 12.87
12/24/2022 2:45:00 PM -0.05 31.91 0.24 7.55 16.85 12.87
12/24/2022 3:00:00 PM -0.05 31.91 0.238 7.55 16.52 12.85
12/24/2022 3:15:00 PM -0.05 31.91 0.24 7.53 16.85 12.84
12/24/2022 3:30:00 PM -0.05 31.91 0.237 7.55 16.57 12.83
12/24/2022 3:45:00 PM -0.05 31.91 0.239 7.52 16.84 12.81
12/24/2022 4:00:00 PM -0.05 31.91 0.238 7.52 16.15 12.81
12/24/2022 4:15:00 PM -0.05 31.91 0.236 7.54 17 12.8
12/24/2022 4:30:00 PM -0.05 31.91 0.237 7.52 16.16 12.79
12/24/2022 4:45:00 PM -0.05 31.91 0.236 7.52 16.62 12.78
12/24/2022 5:00:00 PM -0.06 31.892 0.237 7.51 17 12.77
12/24/2022 5:15:00 PM -0.06 31.892 0.236 7.52 22.23 12.75
12/24/2022 5:30:00 PM -0.05 31.91 0.237 7.51 16.66 12.75
12/24/2022 5:45:00 PM -0.05 31.91 0.238 7.49 16.42 12.75
12/24/2022 6:00:00 PM -0.05 31.91 0.236 7.5 16.44 12.74
12/24/2022 6:15:00 PM -0.05 31.91 0.235 7.51 16.65 12.73
12/24/2022 6:30:00 PM -0.05 31.91 0.236 7.5 17.98 12.73
12/24/2022 6:45:00 PM -0.05 31.91 0.236 7.51 16.89 12.73
12/24/2022 7:00:00 PM -0.05 31.91 0.238 7.48 17.01 12.73
12/24/2022 7:15:00 PM -0.05 31.91 0.236 7.51 17.1 12.73
12/24/2022 7:30:00 PM -0.05 31.91 0.237 7.49 17.71 12.73
12/24/2022 7:45:00 PM -0.05 31.91 0.238 7.48 18.13 12.73
12/24/2022 8:00:00 PM -0.05 31.91 0.236 7.5 17.67 12.72
12/24/2022 8:15:00 PM -0.05 31.91 0.237 7.5 17.32 12.72
12/24/2022 8:30:00 PM -0.05 31.91 0.237 7.51 18.08 12.72
12/24/2022 8:45:00 PM -0.05 31.91 0.239 7.49 17.98 12.73
12/24/2022 9:00:00 PM -0.05 31.91 0.237 7.51 18.2 12.72
12/24/2022 9:15:00 PM -0.05 31.91 0.238 7.51 17.68 12.73
12/24/2022 9:30:00 PM -0.05 31.91 0.237 7.51 18.08 12.73
12/24/2022 9:45:00 PM -0.05 31.91 0.238 7.51 17.62 12.71
12/24/2022 10:00:00 PM -0.05 31.91 0.237 7.51 18.09 12.7
12/24/2022 10:15:00 PM -0.05 31.91 0.237 7.51 17.75 12.73
12/24/2022 10:30:00 PM -0.05 31.91 0.238 7.51 17.34 12.75
12/24/2022 10:45:00 PM -0.05 31.91 0.237 7.51 17.35 12.74
12/24/2022 11:00:00 PM -0.05 31.91 0.237 7.51 17.08 12.74
12/24/2022 11:15:00 PM -0.05 31.91 0.238 7.51 17.22 12.75
12/24/2022 11:30:00 PM -0.05 31.91 0.238 7.5 16.66 12.76
12/24/2022 11:45:00 PM -0.05 31.91 0.238 7.51 16.74 12.76
12/25/2022 12:00:00 AM -0.05 31.91 0.238 7.51 17.21 12.75
12/25/2022 12:15:00 AM -0.05 31.91 0.238 7.5 16.3 12.76
12/25/2022 12:30:00 AM -0.05 31.91 0.238 7.5 16.06 12.77
12/25/2022 12:45:00 AM -0.05 31.91 0.241 7.46 16.25 12.76
12/25/2022 1:00:00 AM -0.05 31.91 0.237 7.5 15.96 12.76
12/25/2022 1:15:00 AM -0.05 31.91 0.238 7.5 15.64 12.76
12/25/2022 1:30:00 AM -0.05 31.91 0.238 7.5 15.48 12.76
12/25/2022 1:45:00 AM -0.05 31.91 0.238 7.5 15.46 12.76
12/25/2022 2:00:00 AM -0.05 31.91 0.238 7.49 15.08 12.76
12/25/2022 2:15:00 AM -0.05 31.91 0.238 7.49 15.05 12.76
12/25/2022 2:30:00 AM -0.05 31.91 0.238 7.49 15.03 12.75
12/25/2022 2:45:00 AM -0.05 31.91 0.238 7.49 15.09 12.75
12/25/2022 3:00:00 AM -0.05 31.91 0.241 7.46 14.9 12.75
12/25/2022 3:15:00 AM -0.05 31.91 0.238 7.49 14.75 12.75
12/25/2022 3:30:00 AM -0.05 31.91 0.239 7.49 14.91 12.75
12/25/2022 3:45:00 AM -0.05 31.91 0.238 7.49 15.01 12.74
12/25/2022 4:00:00 AM -0.05 31.91 0.239 7.48 19.96 12.74
12/25/2022 4:15:00 AM -0.05 31.91 0.239 7.48 15.55 12.74
12/25/2022 4:30:00 AM -0.05 31.91 0.239 7.47 14.65 12.74
12/25/2022 4:45:00 AM -0.05 31.91 0.238 7.47 16.47 12.74
12/25/2022 5:00:00 AM -0.05 31.91 0.24 7.46 16.56 12.73
12/25/2022 5:15:00 AM -0.05 31.91 0.239 7.46 15.91 12.73
12/25/2022 5:30:00 AM -0.05 31.91 0.239 7.47 15.81 12.73
12/25/2022 5:45:00 AM -0.05 31.91 0.24 7.45 15.4 12.72
12/25/2022 6:00:00 AM -0.05 31.91 0.239 7.47 15.45 12.7
12/25/2022 6:15:00 AM -0.05 31.91 0.239 7.47 14.88 12.71
12/25/2022 6:30:00 AM -0.05 31.91 0.24 7.47 14.75 12.7
12/25/2022 6:45:00 AM -0.05 31.91 0.241 7.46 14.92 12.7
12/25/2022 7:00:00 AM -0.05 31.91 0.24 7.47 14.61 12.69
12/25/2022 7:15:00 AM -0.05 31.91 0.243 7.43 14.75 12.69
12/25/2022 7:30:00 AM -0.05 31.91 0.24 7.47 14.63 12.68
12/25/2022 7:45:00 AM -0.05 31.91 0.241 7.47 15.02 12.67
12/25/2022 8:00:00 AM -0.05 31.91 0.243 7.44 15.05 12.67
12/25/2022 8:15:00 AM -0.05 31.91 0.24 7.47 15 12.67
12/25/2022 8:30:00 AM -0.05 31.91 0.241 7.46 14.64 12.66
12/25/2022 8:45:00 AM -0.05 31.91 0.241 7.46 14.2 12.65
12/25/2022 9:00:00 AM -0.05 31.91 0.241 7.46 14.25 12.66
12/25/2022 9:15:00 AM -0.05 31.91 0.241 7.46 14.09 12.64
12/25/2022 9:30:00 AM -0.05 31.91 0.244 7.43 14.03 12.65
12/25/2022 9:45:00 AM -0.05 31.91 0.24 7.46 15.21 12.61
12/25/2022 10:00:00 AM -0.05 31.91 0.242 7.46 14.19 12.64
12/25/2022 10:15:00 AM -0.05 31.91 0.242 7.46 18.28 12.64
12/25/2022 10:30:00 AM -0.05 31.91 0.242 7.46 18.2 12.63
12/25/2022 10:45:00 AM -0.05 31.91 0.241 7.46 16.34 12.64
12/25/2022 11:00:00 AM -0.05 31.91 0.244 7.43 17.61 12.63
12/25/2022 11:15:00 AM -0.05 31.91 0.241 7.45 18.37 12.62
12/25/2022 11:30:00 AM -0.05 31.91 0.242 7.45 19.46 12.61
12/25/2022 11:45:00 AM -0.05 31.91 0.241 7.45 18.71 12.6
12/25/2022 12:00:00 PM -0.05 31.91 0.244 7.43 19.33 12.59
12/25/2022 12:15:00 PM -0.05 31.91 0.242 7.43 19.29 12.58
12/25/2022 12:30:00 PM -0.05 31.91 0.241 7.45 19.83 12.57
12/25/2022 12:45:00 PM -0.05 31.91 0.243 7.43 21.21 12.55
12/25/2022 1:00:00 PM -0.05 31.91 0.242 7.44 20.5 12.55
12/25/2022 1:15:00 PM -0.05 31.91 0.24 7.44 20.82 12.54
12/25/2022 1:30:00 PM -0.05 31.91 0.241 7.44 20.07 12.53
12/25/2022 1:45:00 PM -0.05 31.91 0.242 7.43 20.1 12.52
12/25/2022 2:00:00 PM -0.05 31.91 0.241 7.44 20.68 12.51
12/25/2022 2:15:00 PM -0.05 31.91 0.242 7.42 20.09 12.51
12/25/2022 2:30:00 PM -0.05 31.91 0.242 7.43 20.07 12.5
12/25/2022 2:45:00 PM -0.05 31.91 0.241 7.43 19.14 12.49
12/25/2022 3:00:00 PM -0.05 31.91 0.241 7.44 20.73 12.49
12/25/2022 3:15:00 PM -0.05 31.91 0.241 7.44 21.86 12.48
12/25/2022 3:30:00 PM -0.05 31.91 0.242 7.43 22.21 12.47
12/25/2022 3:45:00 PM -0.05 31.91 0.242 7.42 20.85 12.46
12/25/2022 4:00:00 PM -0.05 31.91 0.242 7.43 20.07 12.45
12/25/2022 4:15:00 PM -0.05 31.91 0.243 7.43 21.07 12.44
12/25/2022 4:30:00 PM -0.05 31.91 0.242 7.43 19.86 12.44
12/25/2022 4:45:00 PM -0.05 31.91 0.243 7.43 17.35 12.43
12/25/2022 5:00:00 PM -0.06 31.892 0.243 7.43 16.47 12.42
12/25/2022 5:15:00 PM -0.05 31.91 0.243 7.43 17.51 12.41
12/25/2022 5:30:00 PM -0.05 31.91 0.244 7.43 16.96 12.41
12/25/2022 5:45:00 PM -0.05 31.91 0.244 7.42 16.5 12.41
12/25/2022 6:00:00 PM -0.06 31.892 0.245 7.42 17.43 12.4
12/25/2022 6:15:00 PM -0.06 31.892 0.245 7.42 14.62 12.4
12/25/2022 6:30:00 PM -0.06 31.892 0.245 7.42 13.48 12.4
12/25/2022 6:45:00 PM -0.06 31.892 0.245 7.43 13.24 12.4
12/25/2022 7:00:00 PM -0.06 31.892 0.245 7.42 10.61 12.4
12/25/2022 7:15:00 PM -0.06 31.892 0.246 7.42 12.35 12.4
12/25/2022 7:30:00 PM -0.06 31.892 0.246 7.42 12.42 12.4
12/25/2022 7:45:00 PM -0.06 31.892 0.247 7.42 13.06 12.41
12/25/2022 8:00:00 PM -0.06 31.892 0.249 7.4 11.49 12.41
12/25/2022 8:15:00 PM -0.06 31.892 0.246 7.43 12.73 12.41
12/25/2022 8:30:00 PM -0.06 31.892 0.248 7.41 11.63 12.41
12/25/2022 8:45:00 PM -0.06 31.892 0.247 7.42 10.49 12.42
12/25/2022 9:00:00 PM -0.06 31.892 0.247 7.42 14.16 12.42
12/25/2022 9:15:00 PM -0.06 31.892 0.248 7.42 11.82 12.42
12/25/2022 9:30:00 PM -0.06 31.892 0.247 7.43 10.61 12.43
12/25/2022 9:45:00 PM -0.06 31.892 0.249 7.42 9.31 12.43
12/25/2022 10:00:00 PM -0.06 31.892 0.248 7.43 8.93 12.43
12/25/2022 10:15:00 PM -0.06 31.892 0.25 7.41 8.9 12.44
12/25/2022 10:30:00 PM -0.06 31.892 0.247 7.43 10.02 12.44
12/25/2022 10:45:00 PM -0.06 31.892 0.249 7.42 8.87 12.44
12/25/2022 11:00:00 PM -0.06 31.892 0.249 7.42 8.98 12.45
12/25/2022 11:15:00 PM -0.06 31.892 0.251 7.4 8.54 12.45
12/25/2022 11:30:00 PM -0.06 31.892 0.248 7.43 8.6 12.45
12/25/2022 11:45:00 PM -0.06 31.892 0.249 7.42 8.73 12.45
12/26/2022 12:00:00 AM -0.06 31.892 0.248 7.42 8.61 12.45
12/26/2022 12:15:00 AM -0.06 31.892 0.249 7.42 8.59 12.45
12/26/2022 12:30:00 AM -0.06 31.892 0.249 7.42 8.69 12.45
12/26/2022 12:45:00 AM -0.06 31.892 0.249 7.42 9.39 12.45
12/26/2022 1:00:00 AM -0.05 31.91 0.251 7.42 8.98 12.44
12/26/2022 1:15:00 AM -0.06 31.892 0.251 7.42 9.25 12.44
12/26/2022 1:30:00 AM -0.06 31.892 0.251 7.42 9.48 12.44
12/26/2022 1:45:00 AM -0.06 31.892 0.252 7.42 9.57 12.44
12/26/2022 2:00:00 AM -0.06 31.892 0.252 7.42 9.76 12.43
12/26/2022 2:15:00 AM -0.06 31.892 0.252 7.42 9.66 12.43
12/26/2022 2:30:00 AM -0.06 31.892 0.254 7.41 10.05 12.43
12/26/2022 2:45:00 AM -0.06 31.892 0.253 7.42 9.28 12.42
12/26/2022 3:00:00 AM -0.06 31.892 0.253 7.42 9.52 12.42
12/26/2022 3:15:00 AM -0.06 31.892 0.254 7.42 9.49 12.41
12/26/2022 3:30:00 AM -0.06 31.892 0.255 7.41 9.5 12.41
12/26/2022 3:45:00 AM -0.06 31.892 0.254 7.42 9.36 12.41
12/26/2022 4:00:00 AM -0.06 31.892 0.254 7.42 9.38 12.4
12/26/2022 4:15:00 AM -0.06 31.892 0.258 7.39 8.73 12.4
12/26/2022 4:30:00 AM -0.06 31.892 0.254 7.42 9.23 12.4
12/26/2022 4:45:00 AM -0.06 31.892 0.256 7.42 8.67 12.4
12/26/2022 5:00:00 AM -0.06 31.892 0.256 7.42 8.45 12.39
12/26/2022 5:15:00 AM -0.06 31.892 0.258 7.4 8.4 12.39
12/26/2022 5:30:00 AM -0.06 31.892 0.256 7.41 8.57 12.39
12/26/2022 5:45:00 AM -0.06 31.892 0.257 7.4 7.33 12.39
12/26/2022 6:00:00 AM -0.06 31.892 0.257 7.41 7.84 12.39
12/26/2022 6:15:00 AM -0.06 31.892 0.258 7.41 7.61 12.39
12/26/2022 6:30:00 AM -0.06 31.892 0.258 7.41 7.64 12.39
12/26/2022 6:45:00 AM -0.06 31.892 0.258 7.41 7.33 12.39
12/26/2022 7:00:00 AM -0.06 31.892 0.262 7.39 7.44 12.39
12/26/2022 7:15:00 AM -0.06 31.892 0.259 7.41 7.11 12.39
12/26/2022 7:30:00 AM -0.05 31.91 0.259 7.41 8.17 12.39
12/26/2022 7:45:00 AM -0.05 31.91 0.26 7.41 7.55 12.4
12/26/2022 8:00:00 AM -0.06 31.892 0.261 7.41 7.46 12.4
12/26/2022 8:15:00 AM -0.06 31.892 0.261 7.41 8.37 12.39
12/26/2022 8:30:00 AM -0.05 31.91 0.263 7.39 8.15 12.4
12/26/2022 8:45:00 AM -0.05 31.91 0.262 7.4 8.13 12.4
12/26/2022 9:00:00 AM -0.05 31.91 0.261 7.41 7.61 12.4
12/26/2022 9:15:00 AM -0.05 31.91 0.262 7.42 7.49 12.4
12/26/2022 9:30:00 AM -0.05 31.91 0.263 7.41 8.16 12.4
12/26/2022 9:45:00 AM -0.05 31.91 0.262 7.42 8.91 12.39
12/26/2022 10:00:00 AM -0.05 31.91 0.263 7.41 7.71 12.4
12/26/2022 10:15:00 AM -0.05 31.91 0.264 7.42 7.9 12.39
12/26/2022 10:30:00 AM -0.05 31.91 0.264 7.42 8.29 12.38
12/26/2022 10:45:00 AM -0.05 31.91 0.264 7.42 8.2 12.38
12/26/2022 11:00:00 AM -0.05 31.91 0.264 7.41 7.98 12.38
12/26/2022 11:15:00 AM -0.05 31.91 0.264 7.42 8.26 12.37
12/26/2022 11:30:00 AM -0.05 31.91 0.265 7.42 7.7 12.36
12/26/2022 11:45:00 AM -0.05 31.91 0.268 7.39 8.24 12.36
12/26/2022 12:00:00 PM -0.05 31.91 0.265 7.41 10.18 12.35
12/26/2022 12:15:00 PM -0.05 31.91 0.268 7.4 13.31 12.35
12/26/2022 12:30:00 PM -0.05 31.91 0.266 7.41 12.13 12.39
12/26/2022 12:45:00 PM -0.05 31.91 0.268 7.39 11.62 12.35
12/26/2022 1:00:00 PM -0.05 31.91 0.266 7.41 10.55 12.35
12/26/2022 1:15:00 PM -0.05 31.91 0.267 7.41 9.49 12.33
12/26/2022 1:30:00 PM -0.05 31.91 0.267 7.41 10.59 12.32
12/26/2022 1:45:00 PM -0.05 31.91 0.268 7.4 11.26 12.31
12/26/2022 2:00:00 PM -0.05 31.91 0.267 7.41 9.82 12.29
12/26/2022 2:15:00 PM -0.05 31.91 0.27 7.4 10.08 12.29
12/26/2022 2:30:00 PM -0.06 31.892 0.268 7.41 11.61 12.27
12/26/2022 2:45:00 PM -0.05 31.91 0.269 7.41 9.29 12.27
12/26/2022 3:00:00 PM -0.06 31.892 0.269 7.4 10.64 12.25
12/26/2022 3:15:00 PM -0.06 31.892 0.271 7.39 10.41 12.25
12/26/2022 3:30:00 PM -0.06 31.892 0.269 7.4 10.32 12.23
12/26/2022 3:45:00 PM -0.06 31.892 0.27 7.4 10.32 12.22
12/26/2022 4:00:00 PM -0.06 31.892 0.271 7.4 10.61 12.21
12/26/2022 4:15:00 PM -0.06 31.892 0.271 7.4 10.19 12.19
12/26/2022 4:30:00 PM -0.06 31.892 0.272 7.39 12.88 12.19
12/26/2022 4:45:00 PM -0.06 31.892 0.275 7.37 11.53 12.17
12/26/2022 5:00:00 PM -0.06 31.892 0.272 7.39 10.05 12.17
12/26/2022 5:15:00 PM -0.06 31.892 0.273 7.39 10.65 12.15
12/26/2022 5:30:00 PM -0.06 31.892 0.274 7.39 9.69 12.15
12/26/2022 5:45:00 PM -0.06 31.892 0.275 7.39 9.37 12.14
12/26/2022 6:00:00 PM -0.06 31.892 0.276 7.39 10.48 12.12
12/26/2022 6:15:00 PM -0.06 31.892 0.276 7.38 9.04 12.12
12/26/2022 6:30:00 PM -0.06 31.892 0.275 7.39 8.99 12.11
12/26/2022 6:45:00 PM -0.06 31.892 0.277 7.39 9.15 12.11
12/26/2022 7:00:00 PM -0.06 31.892 0.278 7.39 8.99 12.11
12/26/2022 7:15:00 PM -0.06 31.892 0.277 7.39 10.02 12.11
12/26/2022 7:30:00 PM -0.06 31.892 0.278 7.39 7.71 12.12
12/26/2022 7:45:00 PM -0.06 31.892 0.279 7.4 9.18 12.12
12/26/2022 8:00:00 PM -0.06 31.892 0.279 7.39 8.85 12.11
12/26/2022 8:15:00 PM -0.06 31.892 0.28 7.4 9.09 12.11
12/26/2022 8:30:00 PM -0.06 31.892 0.28 7.4 7.81 12.11
12/26/2022 8:45:00 PM -0.06 31.892 0.28 7.4 8.24 12.12
12/26/2022 9:00:00 PM -0.06 31.892 0.28 7.4 7.5 12.12
12/26/2022 9:15:00 PM -0.06 31.892 0.284 7.37 7.65 12.12
12/26/2022 9:30:00 PM -0.06 31.892 0.281 7.41 7.7 12.13
12/26/2022 9:45:00 PM -0.06 31.892 0.281 7.4 7.37 12.13
12/26/2022 10:00:00 PM -0.06 31.892 0.283 7.41 7.11 12.13
12/26/2022 10:15:00 PM -0.06 31.892 0.282 7.41 7.22 12.13
12/26/2022 10:30:00 PM -0.06 31.892 0.284 7.4 7.15 12.14
12/26/2022 10:45:00 PM -0.06 31.892 0.282 7.41 7.39 12.14
12/26/2022 11:00:00 PM -0.06 31.892 0.283 7.41 7.65 12.15
12/26/2022 11:15:00 PM -0.06 31.892 0.284 7.41 7.13 12.16
12/26/2022 11:30:00 PM -0.06 31.892 0.287 7.39 6.69 12.17
12/26/2022 11:45:00 PM -0.06 31.892 0.283 7.42 6.73 12.18
12/27/2022 12:00:00 AM -0.06 31.892 0.288 7.39 6.72 12.18
12/27/2022 12:15:00 AM -0.06 31.892 0.286 7.4 6.57 12.19
12/27/2022 12:30:00 AM -0.06 31.892 0.284 7.42 7.06 12.19
12/27/2022 12:45:00 AM -0.06 31.892 0.285 7.42 6.66 12.2
12/27/2022 1:00:00 AM -0.06 31.892 0.285 7.42 6.57 12.2
12/27/2022 1:15:00 AM -0.06 31.892 0.286 7.42 6.71 12.21
12/27/2022 1:30:00 AM -0.06 31.892 0.286 7.42 6.97 12.22
12/27/2022 1:45:00 AM -0.06 31.892 0.289 7.4 6.41 12.22
12/27/2022 2:00:00 AM -0.06 31.892 0.285 7.43 6.43 12.22
12/27/2022 2:15:00 AM -0.06 31.892 0.287 7.42 6.58 12.23
12/27/2022 2:30:00 AM -0.06 31.892 0.29 7.41 6.23 12.23
12/27/2022 2:45:00 AM -0.06 31.892 0.287 7.43 6.57 12.24
12/27/2022 3:00:00 AM -0.06 31.892 0.287 7.43 6.11 12.24
12/27/2022 3:15:00 AM -0.06 31.892 0.287 7.43 6.1 12.25
12/27/2022 3:30:00 AM -0.06 31.892 0.287 7.42 5.83 12.25
12/27/2022 3:45:00 AM -0.06 31.892 0.289 7.42 6.83 12.26
12/27/2022 4:00:00 AM -0.06 31.892 0.288 7.42 5.74 12.26
12/27/2022 4:15:00 AM -0.06 31.892 0.287 7.42 5.95 12.26
12/27/2022 4:30:00 AM -0.06 31.892 0.288 7.43 6.06 12.27
12/27/2022 4:45:00 AM -0.06 31.892 0.288 7.43 5.78 12.27
12/27/2022 5:00:00 AM -0.06 31.892 0.288 7.44 5.9 12.28
12/27/2022 5:15:00 AM -0.06 31.892 0.288 7.43 5.66 12.29
12/27/2022 5:30:00 AM -0.06 31.892 0.289 7.44 6.12 12.29
12/27/2022 5:45:00 AM -0.06 31.892 0.292 7.41 5.85 12.29
12/27/2022 6:00:00 AM -0.06 31.892 0.288 7.44 5.55 12.3
12/27/2022 6:15:00 AM -0.06 31.892 0.289 7.44 5.41 12.3
12/27/2022 6:30:00 AM -0.06 31.892 0.289 7.44 5.74 12.3
12/27/2022 6:45:00 AM -0.06 31.892 0.29 7.44 5.28 12.31
12/27/2022 7:00:00 AM -0.06 31.892 0.292 7.44 5.78 12.32
12/27/2022 7:15:00 AM -0.06 31.892 0.29 7.44 5.62 12.33
12/27/2022 7:30:00 AM -0.06 31.892 0.292 7.44 5.57 12.34
12/27/2022 7:45:00 AM -0.06 31.892 0.291 7.45 5.68 12.35
12/27/2022 8:00:00 AM -0.06 31.892 0.292 7.45 5.46 12.36
12/27/2022 8:15:00 AM -0.06 31.892 0.292 7.45 5.77 12.37
12/27/2022 8:30:00 AM -0.06 31.892 0.292 7.45 5.19 12.38
12/27/2022 8:45:00 AM -0.06 31.892 0.292 7.45 5.39 12.38
12/27/2022 9:00:00 AM -0.05 31.91 0.292 7.44 5.54 12.39
12/27/2022 9:15:00 AM -0.06 31.892 0.291 7.46 5.38 12.4
12/27/2022 9:30:00 AM -0.05 31.91 0.293 7.44 5.48 12.42
12/27/2022 9:45:00 AM -0.05 31.91 0.291 7.46 5.72 12.43
12/27/2022 10:00:00 AM -0.05 31.91 0.292 7.45 5.31 12.44
12/27/2022 10:15:00 AM -0.05 31.91 0.292 7.44 5.92 12.44
12/27/2022 10:30:00 AM -0.05 31.91 0.29 7.47 6.1 12.45
12/27/2022 10:45:00 AM -0.05 31.91 0.293 7.45 5.73 12.46
12/27/2022 11:00:00 AM -0.05 31.91 0.293 7.45 4.98 12.46
12/27/2022 11:15:00 AM -0.05 31.91 0.291 7.47 5.69 12.46
12/27/2022 11:30:00 AM -0.05 31.91 0.291 7.48 5.24 12.46
12/27/2022 11:45:00 AM -0.05 31.91 0.292 7.47 5.5 12.46
12/27/2022 12:00:00 PM -0.05 31.91 0.292 7.47 5.68 12.47
12/27/2022 12:15:00 PM -0.05 31.91 0.292 7.47 6.38 12.46
12/27/2022 12:30:00 PM -0.05 31.91 0.292 7.47 6.28 12.46
12/27/2022 12:45:00 PM -0.05 31.91 0.292 7.47 6.29 12.46
12/27/2022 1:00:00 PM -0.05 31.91 0.291 7.48 6.3 12.45
12/27/2022 1:15:00 PM -0.05 31.91 0.291 7.47 7.19 12.45
12/27/2022 1:30:00 PM -0.05 31.91 0.291 7.47 7.02 12.44
12/27/2022 1:45:00 PM -0.05 31.91 0.29 7.48 7.43 12.44
12/27/2022 2:00:00 PM -0.05 31.91 0.293 7.46 7.7 12.44
12/27/2022 2:15:00 PM -0.05 31.91 0.29 7.48 7.37 12.44
12/27/2022 2:30:00 PM -0.05 31.91 0.291 7.48 7.66 12.44
12/27/2022 2:45:00 PM -0.05 31.91 0.292 7.47 11.64 12.43
12/27/2022 3:00:00 PM -0.05 31.91 0.29 7.48 11.23 12.41
12/27/2022 3:15:00 PM -0.05 31.91 0.291 7.47 9.33 12.41
12/27/2022 3:30:00 PM -0.05 31.91 0.291 7.47 9.08 12.41
12/27/2022 3:45:00 PM -0.05 31.91 0.29 7.48 10.52 12.4
12/27/2022 4:00:00 PM -0.06 31.892 0.291 7.48 9.24 12.4
12/27/2022 4:15:00 PM -0.05 31.91 0.291 7.48 9.51 12.4
12/27/2022 4:30:00 PM -0.05 31.91 0.291 7.48 8.48 12.41
12/27/2022 4:45:00 PM -0.06 31.892 0.291 7.48 10.05 12.41
12/27/2022 5:00:00 PM -0.06 31.892 0.29 7.49 8.42 12.41
12/27/2022 5:15:00 PM -0.06 31.892 0.291 7.49 8.7 12.42
12/27/2022 5:30:00 PM -0.06 31.892 0.291 7.49 9.12 12.42
12/27/2022 5:45:00 PM -0.06 31.892 0.292 7.49 8.67 12.43
12/27/2022 6:00:00 PM -0.06 31.892 0.292 7.49 8.02 12.45
12/27/2022 6:15:00 PM -0.06 31.892 0.292 7.49 7.77 12.46
12/27/2022 6:30:00 PM -0.05 31.91 0.291 7.5 7.73 12.47
12/27/2022 6:45:00 PM -0.06 31.892 0.293 7.5 7.47 12.48
12/27/2022 7:00:00 PM -0.06 31.892 0.293 7.5 7.6 12.49
12/27/2022 7:15:00 PM -0.06 31.892 0.292 7.5 6.75 12.5
12/27/2022 7:30:00 PM -0.05 31.91 0.293 7.5 6.86 12.51
12/27/2022 7:45:00 PM -0.05 31.91 0.293 7.51 6.74 12.53
12/27/2022 8:00:00 PM -0.06 31.892 0.293 7.51 7.77 12.54
12/27/2022 8:15:00 PM -0.06 31.892 0.293 7.51 6.84 12.55
12/27/2022 8:30:00 PM -0.05 31.91 0.293 7.51 6.33 12.56
12/27/2022 8:45:00 PM -0.05 31.91 0.293 7.52 6.46 12.57
12/27/2022 9:00:00 PM -0.05 31.91 0.293 7.52 5.93 12.59
12/27/2022 9:15:00 PM -0.05 31.91 0.293 7.52 5.98 12.6
12/27/2022 9:30:00 PM -0.05 31.91 0.293 7.52 6.5 12.61
12/27/2022 9:45:00 PM -0.06 31.892 0.293 7.52 6.84 12.62
12/27/2022 10:00:00 PM -0.05 31.91 0.293 7.52 5.95 12.63
12/27/2022 10:15:00 PM -0.05 31.91 0.295 7.5 6.44 12.64
12/27/2022 10:30:00 PM -0.05 31.91 0.293 7.53 5.87 12.64
12/27/2022 10:45:00 PM -0.05 31.91 0.293 7.53 5.7 12.65
12/27/2022 11:00:00 PM -0.05 31.91 0.296 7.51 5.83 12.66
12/27/2022 11:15:00 PM -0.05 31.91 0.293 7.52 5.8 12.67
12/27/2022 11:30:00 PM -0.05 31.91 0.292 7.54 5.96 12.68
12/27/2022 11:45:00 PM -0.05 31.91 0.295 7.52 7.47 12.68
12/28/2022 12:00:00 AM -0.06 31.892 0.293 7.53 5.97 12.69
12/28/2022 12:15:00 AM -0.05 31.91 0.294 7.53 5.59 12.69
12/28/2022 12:30:00 AM -0.05 31.91 0.293 7.53 6.19 12.7
12/28/2022 12:45:00 AM -0.05 31.91 0.295 7.53 5.98 12.7
12/28/2022 1:00:00 AM -0.05 31.91 0.293 7.53 6.12 12.71
12/28/2022 1:15:00 AM -0.05 31.91 0.293 7.55 5.73 12.72
12/28/2022 1:30:00 AM -0.05 31.91 0.295 7.53 5.78 12.72
12/28/2022 1:45:00 AM -0.05 31.91 0.295 7.53 5.79 12.73
12/28/2022 2:00:00 AM -0.05 31.91 0.292 7.55 5.51 12.73
12/28/2022 2:15:00 AM -0.05 31.91 0.296 7.53 5.56 12.73
12/28/2022 2:30:00 AM -0.05 31.91 0.292 7.55 5.7 12.74
12/28/2022 2:45:00 AM -0.05 31.91 0.294 7.54 5.55 12.75
12/28/2022 3:00:00 AM -0.05 31.91 0.293 7.56 5.52 12.75
12/28/2022 3:15:00 AM -0.05 31.91 0.295 7.55 5.48 12.76
12/28/2022 3:30:00 AM -0.05 31.91 0.294 7.55 5.52 12.75
12/28/2022 3:45:00 AM -0.05 31.91 0.293 7.56 5.55 12.77
12/28/2022 4:00:00 AM -0.05 31.91 0.296 7.54 5.62 12.77
12/28/2022 4:15:00 AM -0.05 31.91 0.295 7.55 5.35 12.78
12/28/2022 4:30:00 AM -0.05 31.91 0.293 7.56 7.47 12.78
12/28/2022 4:45:00 AM -0.05 31.91 0.293 7.56 5.74 12.78
12/28/2022 5:00:00 AM -0.05 31.91 0.293 7.56 6.1 12.79
12/28/2022 5:15:00 AM -0.05 31.91 0.294 7.56 7.11 12.79
12/28/2022 5:30:00 AM -0.05 31.91 0.295 7.56 5.71 12.79
12/28/2022 5:45:00 AM -0.05 31.91 0.293 7.57 6.26 12.8
12/28/2022 6:00:00 AM -0.05 31.91 0.294 7.57 5.42 12.79
12/28/2022 6:15:00 AM -0.05 31.91 0.293 7.57 5.81 12.8
12/28/2022 6:30:00 AM -0.05 31.91 0.293 7.57 5.67 12.81
12/28/2022 6:45:00 AM -0.05 31.91 0.294 7.57 5.59 12.81
12/28/2022 7:00:00 AM -0.05 31.91 0.294 7.57 5.85 12.82
12/28/2022 7:15:00 AM -0.05 31.91 0.298 7.55 5.22 12.81
12/28/2022 7:30:00 AM -0.05 31.91 0.293 7.57 6.36 12.82
12/28/2022 7:45:00 AM -0.05 31.91 0.295 7.57 5.7 12.82
12/28/2022 8:00:00 AM -0.05 31.91 0.295 7.58 5.56 12.83
12/28/2022 8:15:00 AM -0.05 31.91 0.295 7.58 5.51 12.83
12/28/2022 8:30:00 AM -0.05 31.91 0.297 7.56 6.9 12.84
12/28/2022 8:45:00 AM -0.05 31.91 0.294 7.58 5.53 12.84
12/28/2022 9:00:00 AM -0.05 31.91 0.294 7.58 5.67 12.85
12/28/2022 9:15:00 AM -0.05 31.91 0.294 7.58 6.21 12.86
12/28/2022 9:30:00 AM -0.05 31.91 0.294 7.58 6.96 12.86
12/28/2022 9:45:00 AM -0.05 31.91 0.298 7.56 6.65 12.87
12/28/2022 10:00:00 AM -0.05 31.91 0.293 7.59 6.27 12.87
12/28/2022 10:15:00 AM -0.05 31.91 0.294 7.59 6.88 12.86
12/28/2022 10:30:00 AM -0.05 31.91 0.294 7.59 8.59 12.87
12/28/2022 10:45:00 AM -0.05 31.91 0.294 7.59 8.46 12.87
12/28/2022 11:00:00 AM -0.05 31.91 0.293 7.59 9.34 12.88
12/28/2022 11:15:00 AM -0.04 31.928 0.293 7.6 11.2 12.89
12/28/2022 11:30:00 AM -0.05 31.91 0.293 7.6 13.05 12.89
12/28/2022 11:45:00 AM -0.05 31.91 0.293 7.6 11.63 12.89
12/28/2022 12:00:00 PM -0.05 31.91 0.292 7.6 14.54 12.88
12/28/2022 12:15:00 PM -0.05 31.91 0.295 7.59 11.79 12.88
12/28/2022 12:30:00 PM -0.05 31.91 0.292 7.6 11.88 12.88
12/28/2022 12:45:00 PM -0.05 31.91 0.295 7.6 13.91 12.88
12/28/2022 1:00:00 PM -0.05 31.91 0.292 7.6 13.67 12.88
12/28/2022 1:15:00 PM -0.05 31.91 0.293 7.6 13.37 12.88
12/28/2022 1:30:00 PM -0.05 31.91 0.292 7.61 14.36 12.88
12/28/2022 1:45:00 PM -0.05 31.91 0.293 7.61 14.13 12.88
12/28/2022 2:00:00 PM -0.05 31.91 0.292 7.61 15.76 12.88
12/28/2022 2:15:00 PM -0.05 31.91 0.292 7.61 15.51 12.87
12/28/2022 2:30:00 PM -0.05 31.91 0.292 7.62 15.22 12.88
12/28/2022 2:45:00 PM -0.05 31.91 0.296 7.58 17.04 12.88
12/28/2022 3:00:00 PM -0.05 31.91 0.294 7.6 18.18 12.89
12/28/2022 3:15:00 PM -0.05 31.91 0.291 7.62 19.35 12.88
12/28/2022 3:30:00 PM -0.05 31.91 0.292 7.61 15.44 12.88
12/28/2022 3:45:00 PM -0.05 31.91 0.292 7.61 17.71 12.9
12/28/2022 4:00:00 PM -0.05 31.91 0.292 7.62 18.38 12.9
12/28/2022 4:15:00 PM -0.05 31.91 0.292 7.62 17.35 12.9
12/28/2022 4:30:00 PM -0.05 31.91 0.293 7.61 16.19 12.92
12/28/2022 4:45:00 PM -0.05 31.91 0.292 7.62 16.22 12.92
12/28/2022 5:00:00 PM -0.05 31.91 0.292 7.62 15.84 12.92
12/28/2022 5:15:00 PM -0.05 31.91 0.292 7.62 15.72 12.95
12/28/2022 5:30:00 PM -0.05 31.91 0.292 7.63 13.94 12.94
12/28/2022 5:45:00 PM -0.05 31.91 0.293 7.62 13.14 12.96
12/28/2022 6:00:00 PM -0.05 31.91 0.293 7.62 14.94 12.97
12/28/2022 6:15:00 PM -0.05 31.91 0.292 7.63 12.96 12.99
12/28/2022 6:30:00 PM -0.05 31.91 0.295 7.61 13.54 13
12/28/2022 6:45:00 PM -0.05 31.91 0.291 7.63 14.41 13.01
12/28/2022 7:00:00 PM -0.05 31.91 0.292 7.63 11.81 13.01
12/28/2022 7:15:00 PM -0.05 31.91 0.293 7.63 11.36 13.01
12/28/2022 7:30:00 PM -0.05 31.91 0.292 7.64 11.82 13.01
12/28/2022 7:45:00 PM -0.05 31.91 0.293 7.63 11.11 13.02
12/28/2022 8:00:00 PM -0.05 31.91 0.292 7.64 12.06 13.04
12/28/2022 8:15:00 PM -0.05 31.91 0.294 7.63 10.93 13.04
12/28/2022 8:30:00 PM -0.05 31.91 0.292 7.64 10.72 13.05
12/28/2022 8:45:00 PM -0.05 31.91 0.294 7.64 11.26 13.06
12/28/2022 9:00:00 PM -0.05 31.91 0.292 7.64 10.45 13.07
12/28/2022 9:15:00 PM -0.05 31.91 0.293 7.64 9.56 13.06
12/28/2022 9:30:00 PM -0.05 31.91 0.293 7.64 10.8 13.08
12/28/2022 9:45:00 PM -0.05 31.91 0.293 7.64 10.18 13.09
12/28/2022 10:00:00 PM -0.05 31.91 0.293 7.65 9.71 13.09
12/28/2022 10:15:00 PM -0.05 31.91 0.293 7.65 9.79 13.1
12/28/2022 10:30:00 PM -0.05 31.91 0.296 7.63 8.76 13.09
12/28/2022 10:45:00 PM -0.05 31.91 0.293 7.65 8.62 13.08
12/28/2022 11:00:00 PM -0.05 31.91 0.293 7.65 8.4 13.07
12/28/2022 11:15:00 PM -0.05 31.91 0.295 7.64 8.8 13.09
12/28/2022 11:30:00 PM -0.05 31.91 0.294 7.65 8.5 13.1
12/28/2022 11:45:00 PM -0.05 31.91 0.294 7.65 8.26 13.11
12/29/2022 12:00:00 AM -0.05 31.91 0.293 7.65 9.33 13.11
12/29/2022 12:15:00 AM -0.05 31.91 0.294 7.65 7.83 13.11
12/29/2022 12:30:00 AM -0.05 31.91 0.294 7.65 8.1 13.13
12/29/2022 12:45:00 AM -0.05 31.91 0.294 7.64 8.29 13.07
12/29/2022 1:00:00 AM -0.05 31.91 0.295 7.66 7.36 13.08
12/29/2022 1:15:00 AM -0.05 31.91 0.294 7.66 8.06 13.08
12/29/2022 1:30:00 AM -0.05 31.91 0.295 7.66 7.27 13.1
12/29/2022 1:45:00 AM -0.05 31.91 0.295 7.66 7.18 13.09
12/29/2022 2:00:00 AM -0.05 31.91 0.298 7.63 7.47 13.11
12/29/2022 2:15:00 AM -0.05 31.91 0.293 7.66 7.39 13.09
12/29/2022 2:30:00 AM -0.05 31.91 0.297 7.65 7.09 13.06
12/29/2022 2:45:00 AM -0.05 31.91 0.294 7.66 6.64 13.13
12/29/2022 3:00:00 AM -0.05 31.91 0.296 7.66 7 13.12
12/29/2022 3:15:00 AM -0.05 31.91 0.294 7.66 7.08 13.15
12/29/2022 3:30:00 AM -0.05 31.91 0.294 7.67 7.21 13.15
12/29/2022 3:45:00 AM -0.05 31.91 0.294 7.66 6.5 13.13
12/29/2022 4:00:00 AM -0.05 31.91 0.295 7.66 6.55 13.09
12/29/2022 4:15:00 AM -0.05 31.91 0.295 7.66 6.75 13.08
12/29/2022 4:30:00 AM -0.06 31.892 0.296 7.67 6.7 13.16
12/29/2022 4:45:00 AM -0.06 31.892 0.297 7.66 6.82 13.19
12/29/2022 5:00:00 AM -0.05 31.91 0.295 7.67 6.54 13.15
12/29/2022 5:15:00 AM -0.05 31.91 0.295 7.66 8.3 13.15
12/29/2022 5:30:00 AM -0.05 31.91 0.296 7.67 7.02 13.11
12/29/2022 5:45:00 AM -0.06 31.892 0.297 7.67 7.27 13.12
12/29/2022 6:00:00 AM -0.05 31.91 0.298 7.65 6.98 13.16
12/29/2022 6:15:00 AM -0.05 31.91 0.295 7.67 6.4 13.17
12/29/2022 6:30:00 AM -0.05 31.91 0.295 7.67 6.58 13.12
12/29/2022 6:45:00 AM -0.05 31.91 0.298 7.66 6.65 13.15
12/29/2022 7:00:00 AM -0.05 31.91 0.296 7.67 6.78 12.98
12/29/2022 7:15:00 AM -0.05 31.91 0.295 7.68 6.8 13.15
12/29/2022 7:30:00 AM -0.05 31.91 0.299 7.66 6.84 13.09
12/29/2022 7:45:00 AM -0.05 31.91 0.295 7.67 6.69 13.14
12/29/2022 8:00:00 AM -0.05 31.91 0.296 7.67 6.53 13.02
12/29/2022 8:15:00 AM -0.05 31.91 0.296 7.68 6.49 13.1
12/29/2022 8:30:00 AM -0.05 31.91 0.299 7.67 7.03 13.26
12/29/2022 8:45:00 AM -0.05 31.91 0.297 7.67 7.22 13.26
12/29/2022 9:00:00 AM -0.05 31.91 0.296 7.68 7.39 13.29
12/29/2022 9:15:00 AM -0.05 31.91 0.296 7.68 7.36 13.3
12/29/2022 9:30:00 AM -0.05 31.91 0.296 7.69 7.48 13.31
12/29/2022 9:45:00 AM -0.04 31.928 0.296 7.69 7.73 13.31
12/29/2022 10:00:00 AM -0.04 31.928 0.296 7.69 8.75 13.32
12/29/2022 10:15:00 AM -0.03 31.946 0.295 7.69 8.46 13.31
12/29/2022 10:30:00 AM -0.03 31.946 0.295 7.69 8.73 13.32
12/29/2022 10:45:00 AM -0.02 31.964 0.295 7.7 10.77 13.3
12/29/2022 11:00:00 AM -0.01 31.982 0.295 7.69 12.53 12.82
12/29/2022 11:15:00 AM -0.01 31.982 0.297 7.68 13.5 13.17
12/29/2022 11:30:00 AM 0 32 0.294 7.7 15.23 13.29
12/29/2022 11:45:00 AM 0.01 32.018 0.298 7.67 14.33 13.29
12/29/2022 12:00:00 PM 0.02 32.036 0.294 7.69 14.76 13.28
12/29/2022 12:15:00 PM 0.03 32.054 0.295 7.68 17.68 13.26
12/29/2022 12:30:00 PM 0.04 32.072 0.293 7.7 18.56 13.22
12/29/2022 12:45:00 PM 0.04 32.072 0.293 7.7 20.44 13.22
12/29/2022 1:00:00 PM 0.05 32.09 0.293 7.7 19.98 13.21
12/29/2022 1:15:00 PM 0.05 32.09 0.293 7.7 22.01 13.22
12/29/2022 1:30:00 PM 0.05 32.09 0.293 7.7 27.1 13.21
12/29/2022 1:45:00 PM 0.06 32.108 0.293 7.69 29.03 13.18
12/29/2022 2:00:00 PM 0.06 32.108 0.292 7.7 26.99 13.11
12/29/2022 2:15:00 PM 0.06 32.108 0.294 7.69 28.85 12.91
12/29/2022 2:30:00 PM 0.05 32.09 0.292 7.7 31.87 13
12/29/2022 2:45:00 PM 0.06 32.108 0.291 7.7 28.9 12.89
12/29/2022 3:00:00 PM 0.06 32.108 0.292 7.7 28.7 12.04
12/29/2022 3:15:00 PM 0.06 32.108 0.292 7.7 30.41 12.71
12/29/2022 3:30:00 PM 0.06 32.108 0.29 7.71 29.53 11.72
12/29/2022 3:45:00 PM 0.05 32.09 0.292 7.71 27.28 13.02
12/29/2022 4:00:00 PM 0.04 32.072 0.29 7.71 28.85 13.02
12/29/2022 4:15:00 PM 0.04 32.072 0.295 7.69 32.45 12.93
12/29/2022 4:30:00 PM 0.03 32.054 0.29 7.72 33.04 13.12
12/29/2022 4:45:00 PM 0.04 32.072 0.293 7.7 28.53 13.17
12/29/2022 5:00:00 PM 0.04 32.072 0.29 7.7 33.46 12.85
12/29/2022 5:15:00 PM 0.05 32.09 0.291 7.7 28.45 12.71
12/29/2022 5:30:00 PM 0.05 32.09 0.291 7.7 30.7 12.68
12/29/2022 5:45:00 PM 0.03 32.054 0.291 7.7 27.54 12.8
12/29/2022 6:00:00 PM 0.05 32.09 0.293 7.67 29.73 12.73
12/29/2022 6:15:00 PM 0.05 32.09 0.291 7.68 25.82 12.98
12/29/2022 6:30:00 PM 0.04 32.072 0.289 7.69 28.85 12.69
12/29/2022 6:45:00 PM 0.03 32.054 0.289 7.69 25.92 13.1
12/29/2022 7:00:00 PM 0.03 32.054 0.291 7.69 24.33 13.07
12/29/2022 7:15:00 PM 0.03 32.054 0.289 7.69 27.81 13.12
12/29/2022 7:30:00 PM 0.04 32.072 0.289 7.69 23.94 13.19
12/29/2022 7:45:00 PM 0.05 32.09 0.289 7.69 22.12 13.23
12/29/2022 8:00:00 PM 0.05 32.09 0.289 7.69 22.2 13.24
12/29/2022 8:15:00 PM 0.06 32.108 0.289 7.69 22.18 13.25
12/29/2022 8:30:00 PM 0.06 32.108 0.289 7.69 21.71 13.26
12/29/2022 8:45:00 PM 0.06 32.108 0.288 7.69 21.02 13.25
12/29/2022 9:00:00 PM 0.06 32.108 0.289 7.68 20.44 13.26
12/29/2022 9:15:00 PM 0.07 32.126 0.288 7.69 21.89 13.27
12/29/2022 9:30:00 PM 0.07 32.126 0.287 7.7 19.55 13.25
12/29/2022 9:45:00 PM 0.07 32.126 0.288 7.69 22.78 13.27
12/29/2022 10:00:00 PM 0.08 32.144 0.286 7.69 22.52 13.27
12/29/2022 10:15:00 PM 0.08 32.144 0.287 7.69 22.16 13.27
12/29/2022 10:30:00 PM 0.09 32.162 0.29 7.66 25.49 13.28
12/29/2022 10:45:00 PM 0.09 32.162 0.287 7.69 22.48 13.28
12/29/2022 11:00:00 PM 0.08 32.144 0.285 7.69 22.81 13.27
12/29/2022 11:15:00 PM 0.09 32.162 0.286 7.68 21.47 13.28
12/29/2022 11:30:00 PM 0.09 32.162 0.284 7.69 20.6 13.28
12/29/2022 11:45:00 PM 0.1 32.18 0.286 7.69 20.43 13.28
12/30/2022 12:00:00 AM 0.11 32.198 0.289 7.67 19.92 13.28
12/30/2022 12:15:00 AM 0.11 32.198 0.285 7.69 21.36 13.28
12/30/2022 12:30:00 AM 0.11 32.198 0.285 7.69 20.06 13.26
12/30/2022 12:45:00 AM 0.12 32.216 0.286 7.69 22.13 13.28
12/30/2022 1:00:00 AM 0.12 32.216 0.286 7.69 20.75 13.26
12/30/2022 1:15:00 AM 0.12 32.216 0.29 7.67 21.1 13.26
12/30/2022 1:30:00 AM 0.12 32.216 0.286 7.69 23.03 13.27
12/30/2022 1:45:00 AM 0.12 32.216 0.285 7.7 21.37 13.29
12/30/2022 2:00:00 AM 0.12 32.216 0.285 7.7 24.28 13.29
12/30/2022 2:15:00 AM 0.12 32.216 0.288 7.69 22.75 13.3
12/30/2022 2:30:00 AM 0.13 32.234 0.286 7.7 23.52 13.3
12/30/2022 2:45:00 AM 0.11 32.198 0.286 7.7 25.08 13.29
12/30/2022 3:00:00 AM 0.12 32.216 0.286 7.71 26.44 13.3
12/30/2022 3:15:00 AM 0.13 32.234 0.289 7.69 22.92 13.25
12/30/2022 3:30:00 AM 0.14 32.252 0.286 7.71 21.78 13.28
12/30/2022 3:45:00 AM 0.13 32.234 0.286 7.7 24.08 13.3
12/30/2022 4:00:00 AM 0.14 32.252 0.289 7.67 24.3 13.3
12/30/2022 4:15:00 AM 0.14 32.252 0.285 7.7 23.37 13.3
12/30/2022 4:30:00 AM 0.15 32.27 0.285 7.7 17.58 13.3
12/30/2022 4:45:00 AM 0.16 32.288 0.285 7.7 24.82 12.93
12/30/2022 5:00:00 AM 0.17 32.306 0.285 7.71 17.21 13.07
12/30/2022 5:15:00 AM 0.18 32.324 0.286 7.7 23.38 12.78
12/30/2022 5:30:00 AM 0.18 32.324 0.285 7.7 22.5 13.3
12/30/2022 5:45:00 AM 0.18 32.324 0.285 7.71 21.36 13.31
12/30/2022 6:00:00 AM 0.2 32.36 0.285 7.71 20.42 13.31
12/30/2022 6:15:00 AM 0.2 32.36 0.285 7.71 19.49 13.31
12/30/2022 6:30:00 AM 0.2 32.36 0.285 7.71 20.37 13.31
12/30/2022 6:45:00 AM 0.21 32.378 0.285 7.71 18.76 13.31
12/30/2022 7:00:00 AM 0.22 32.396 0.285 7.71 18.91 13.31
12/30/2022 7:15:00 AM 0.22 32.396 0.284 7.71 22.7 13.31
12/30/2022 7:30:00 AM 0.22 32.396 0.285 7.71 20.24 13.31
12/30/2022 7:45:00 AM 0.23 32.414 0.282 7.71 22.14 13.32
12/30/2022 8:00:00 AM 0.23 32.414 0.284 7.7 22.85 13.32
12/30/2022 8:15:00 AM 0.24 32.432 0.284 7.71 20.62 13.33
12/30/2022 8:30:00 AM 0.26 32.468 0.284 7.7 18.33 13.31
12/30/2022 8:45:00 AM 0.28 32.504 0.283 7.7 18.54 13.33
12/30/2022 9:00:00 AM 0.3 32.54 0.283 7.7 18.14 13.27
12/30/2022 9:15:00 AM 0.33 32.594 0.284 7.7 16.34 13.31
12/30/2022 9:30:00 AM 0.34 32.612 0.285 7.68 17.23 13.35
12/30/2022 9:45:00 AM 0.37 32.666 0.283 7.69 23.74 13.33
12/30/2022 10:00:00 AM 0.41 32.738 0.282 7.7 18.86 13.32
12/30/2022 10:15:00 AM 0.43 32.774 0.282 7.71 16.96 13.36
12/30/2022 10:30:00 AM 0.45 32.81 0.282 7.71 17.07 13.33
12/30/2022 10:45:00 AM 0.47 32.846 0.285 7.68 18.69 13.36
12/30/2022 11:00:00 AM 0.48 32.864 0.281 7.71 14.06 13.36
12/30/2022 11:15:00 AM 0.51 32.918 0.281 7.71 19.7 13.36
12/30/2022 11:30:00 AM 0.58 33.044 0.281 7.71 18.64 13.35
12/30/2022 11:45:00 AM 0.66 33.188 0.282 7.7 17.99 13.35
12/30/2022 12:00:00 PM 0.7 33.26 0.28 7.71 17.41 13.33
12/30/2022 12:15:00 PM 0.73 33.314 0.281 7.71 18.47 13.03
12/30/2022 12:30:00 PM 0.77 33.386 0.28 7.71 18.82 13.22
12/30/2022 12:45:00 PM 0.82 33.476 0.28 7.71 21.12 13.09
12/30/2022 1:00:00 PM 0.87 33.566 0.28 7.71 21.67 13.11
12/30/2022 1:15:00 PM 0.92 33.656 0.28 7.71 48.76 13.21
12/30/2022 1:30:00 PM 0.94 33.692 0.278 7.71 17.71 13.21
12/30/2022 1:45:00 PM 0.94 33.692 0.278 7.7 20.28 12.95
12/30/2022 2:00:00 PM 0.94 33.692 0.278 7.7 17.2 12.96
12/30/2022 2:15:00 PM 0.95 33.71 0.28 7.7 32.97 13.05
12/30/2022 2:30:00 PM 0.97 33.746 0.278 7.7 22.97 13.14
12/30/2022 2:45:00 PM 0.98 33.764 0.278 7.7 14.54 13.17
12/30/2022 3:00:00 PM 0.97 33.746 0.277 7.71 20.54 13.13
12/30/2022 3:15:00 PM 0.98 33.764 0.276 7.7 18.51 13.14
12/30/2022 3:30:00 PM 0.97 33.746 0.276 7.71 16.78 13.16
12/30/2022 3:45:00 PM 0.95 33.71 0.274 7.71 16.58 13.15
12/30/2022 4:00:00 PM 0.94 33.692 0.275 7.71 18.35 13.17
12/30/2022 4:15:00 PM 0.92 33.656 0.275 7.69 25.01 13.16
12/30/2022 4:30:00 PM 0.89 33.602 0.274 7.68 18.56 13.17
12/30/2022 4:45:00 PM 0.86 33.548 0.272 7.69 22.45 13.15
12/30/2022 5:00:00 PM 0.83 33.494 0.274 7.66 18.6 13.15
12/30/2022 5:15:00 PM 0.8 33.44 0.27 7.67 21.96 13.15
12/30/2022 5:30:00 PM 0.78 33.404 0.271 7.67 23.23 13.14
12/30/2022 5:45:00 PM 0.75 33.35 0.27 7.66 19.83 13.15
12/30/2022 6:00:00 PM 0.73 33.314 0.269 7.66 24.39 13.14
12/30/2022 6:15:00 PM 0.69 33.242 0.269 7.65 23.31 13.15
12/30/2022 6:30:00 PM 0.67 33.206 0.267 7.65 25.51 13.16
12/30/2022 6:45:00 PM 0.65 33.17 0.266 7.65 20.92 13.16
12/30/2022 7:00:00 PM 0.63 33.134 0.266 7.63 24.98 13.16
12/30/2022 7:15:00 PM 0.61 33.098 0.266 7.62 23.55 13.15
12/30/2022 7:30:00 PM 0.6 33.08 0.264 7.62 30.09 13.12
12/30/2022 7:45:00 PM 0.59 33.062 0.264 7.6 21.22 13.13
12/30/2022 8:00:00 PM 0.58 33.044 0.264 7.58 23.76 13.17
12/30/2022 8:15:00 PM 0.57 33.026 0.262 7.61 25.13 13.18
12/30/2022 8:30:00 PM 0.56 33.008 0.262 7.59 28.24 13.18
12/30/2022 8:45:00 PM 0.56 33.008 0.259 7.6 30.12 13.19
12/30/2022 9:00:00 PM 0.56 33.008 0.26 7.58 27.25 13.18
12/30/2022 9:15:00 PM 0.55 32.99 0.257 7.59 23.61 13.19
12/30/2022 9:30:00 PM 0.55 32.99 0.258 7.58 23.21 13.19
12/30/2022 9:45:00 PM 0.55 32.99 0.258 7.58 24.3 13.19
12/30/2022 10:00:00 PM 0.55 32.99 0.257 7.57 34.81 13.18
12/30/2022 10:15:00 PM 0.55 32.99 0.257 7.58 22.17 13.18
12/30/2022 10:30:00 PM 0.55 32.99 0.256 7.58 24.74 13.18
12/30/2022 10:45:00 PM 0.55 32.99 0.256 7.57 25.02 13.18
12/30/2022 11:00:00 PM 0.55 32.99 0.256 7.57 23.65 13.2
12/30/2022 11:15:00 PM 0.55 32.99 0.256 7.57 16.84 13.21
12/30/2022 11:30:00 PM 0.55 32.99 0.256 7.58 25.12 13.14
12/30/2022 11:45:00 PM 0.56 33.008 0.256 7.56 18.98 13.19
12/31/2022 12:00:00 AM 0.56 33.008 0.256 7.57 17.86 13.2
12/31/2022 12:15:00 AM 0.57 33.026 0.256 7.57 16.05 13.2
12/31/2022 12:30:00 AM 0.57 33.026 0.256 7.57 20.63 13.19
12/31/2022 12:45:00 AM 0.58 33.044 0.255 7.58 19.9 13.2
12/31/2022 1:00:00 AM 0.58 33.044 0.256 7.58 16.98 13.2
12/31/2022 1:15:00 AM 0.58 33.044 0.257 7.57 19.48 13.21
12/31/2022 1:30:00 AM 0.58 33.044 0.257 7.57 15.66 13.18
12/31/2022 1:45:00 AM 0.57 33.026 0.259 7.57 19.24 13.2
12/31/2022 2:00:00 AM 0.58 33.044 0.256 7.58 17.22 13.19
12/31/2022 2:15:00 AM 0.58 33.044 0.259 7.56 30.16 13.17
12/31/2022 2:30:00 AM 0.59 33.062 0.257 7.57 21.67 13.17
12/31/2022 2:45:00 AM 0.6 33.08 0.26 7.55 27.93 13.1
12/31/2022 3:00:00 AM 0.6 33.08 0.257 7.56 23.83 13.16
12/31/2022 3:15:00 AM 0.6 33.08 0.26 7.54 23.1 13.18
12/31/2022 3:30:00 AM 0.6 33.08 0.257 7.55 46.54 13.07
12/31/2022 3:45:00 AM 0.6 33.08 0.259 7.55 29.75 13.16
12/31/2022 4:00:00 AM 0.59 33.062 0.257 7.54 16.2 13.14
12/31/2022 4:15:00 AM 0.58 33.044 0.258 7.56 18.19 13.14
12/31/2022 4:30:00 AM 0.58 33.044 0.258 7.55 19.84 13.15
12/31/2022 4:45:00 AM 0.57 33.026 0.258 7.55 19.82 13.17
12/31/2022 5:00:00 AM 0.58 33.044 0.259 7.56 16.53 13.16
12/31/2022 5:15:00 AM 0.59 33.062 0.261 7.54 14.51 13.17
12/31/2022 5:30:00 AM 0.6 33.08 0.259 7.56 16.52 13.16
12/31/2022 5:45:00 AM 0.61 33.098 0.259 7.57 24.18 13.16
12/31/2022 6:00:00 AM 0.62 33.116 0.259 7.57 13.84 13.15
12/31/2022 6:15:00 AM 0.64 33.152 0.26 7.55 15.99 13.12
12/31/2022 6:30:00 AM 0.66 33.188 0.259 7.57 19.42 13.12
12/31/2022 6:45:00 AM 0.68 33.224 0.26 7.56 21.44 13.12
12/31/2022 7:00:00 AM 0.68 33.224 0.259 7.57 16.97 13.11
12/31/2022 7:15:00 AM 0.69 33.242 0.262 7.55 19.18 13.11
12/31/2022 7:30:00 AM 0.69 33.242 0.259 7.58 23.87 13.1
12/31/2022 7:45:00 AM 0.7 33.26 0.26 7.57 15.07 13.09
12/31/2022 8:00:00 AM 0.71 33.278 0.259 7.57 17.75 13.08
12/31/2022 8:15:00 AM 0.72 33.296 0.261 7.55 13.79 13.1
12/31/2022 8:30:00 AM 0.73 33.314 0.26 7.56 16.08 13.09
12/31/2022 8:45:00 AM 0.74 33.332 0.259 7.58 15.6 13.09
12/31/2022 9:00:00 AM 0.76 33.368 0.262 7.56 15.08 13.09
12/31/2022 9:15:00 AM 0.76 33.368 0.26 7.58 15.92 13.1
12/31/2022 9:30:00 AM 0.75 33.35 0.26 7.56 17.49 13.1
12/31/2022 9:45:00 AM 0.77 33.386 0.261 7.57 16.16 13.11
12/31/2022 10:00:00 AM 0.8 33.44 0.26 7.57 15.37 13.11
12/31/2022 10:15:00 AM 0.83 33.494 0.261 7.56 15.7 13.1
12/31/2022 10:30:00 AM 0.86 33.548 0.259 7.58 16.49 13.1
12/31/2022 10:45:00 AM 0.91 33.638 0.261 7.56 15.37 13.09
12/31/2022 11:00:00 AM 0.94 33.692 0.26 7.57 12.55 13.09
12/31/2022 11:15:00 AM 0.99 33.782 0.259 7.58 23.14 13.07
12/31/2022 11:30:00 AM 1.02 33.836 0.261 7.56 15.19 13.05
12/31/2022 11:45:00 AM 1.06 33.908 0.258 7.58 14.87 13.04
12/31/2022 12:00:00 PM 1.08 33.944 0.258 7.58 14.49 13.03
12/31/2022 12:15:00 PM 1.11 33.998 0.259 7.59 15.84 13.01
12/31/2022 12:30:00 PM 1.14 34.052 0.26 7.58 15.48 12.97
12/31/2022 12:45:00 PM 1.16 34.088 0.258 7.58 16.19 12.97
12/31/2022 1:00:00 PM 1.17 34.106 0.258 7.58 16.34 12.96
12/31/2022 1:15:00 PM 1.18 34.124 0.258 7.57 16.5 12.96
12/31/2022 1:30:00 PM 1.21 34.178 0.26 7.56 16.01 12.95
12/31/2022 1:45:00 PM 1.24 34.232 0.258 7.58 18.52 12.94
12/31/2022 2:00:00 PM 1.27 34.286 0.258 7.57 19.27 12.93
12/31/2022 2:15:00 PM 1.29 34.322 0.257 7.58 14.7 12.92
12/31/2022 2:30:00 PM 1.3 34.34 0.257 7.58 16.79 12.91
12/31/2022 2:45:00 PM 1.31 34.358 0.259 7.56 16.8 12.89
12/31/2022 3:00:00 PM 1.31 34.358 0.256 7.57 21.9 12.88
12/31/2022 3:15:00 PM 1.29 34.322 0.256 7.57 31.14 12.87
12/31/2022 3:30:00 PM 1.28 34.304 0.258 7.54 18.77 12.86
12/31/2022 3:45:00 PM 1.28 34.304 0.254 7.57 27.53 12.84
12/31/2022 4:00:00 PM 1.27 34.286 0.254 7.56 29.63 12.83
12/31/2022 4:15:00 PM 1.26 34.268 0.254 7.57 38.78 12.82
12/31/2022 4:30:00 PM 1.25 34.25 0.254 7.56 26.42 12.81
12/31/2022 4:45:00 PM 1.24 34.232 0.256 7.54 63.69 12.8
12/31/2022 5:00:00 PM 1.22 34.196 0.253 7.56 39.28 12.79
12/31/2022 5:15:00 PM 1.21 34.178 0.254 7.54 21.2 12.78
12/31/2022 5:30:00 PM 1.2 34.16 0.252 7.55 24.62 12.77
12/31/2022 5:45:00 PM 1.19 34.142 0.252 7.55 27.47 12.77
12/31/2022 6:00:00 PM 1.18 34.124 0.251 7.54 35.08 12.76
12/31/2022 6:15:00 PM 1.18 34.124 0.249 7.55 20.32 12.76
12/31/2022 6:30:00 PM 1.17 34.106 0.249 7.55 52.04 12.75
12/31/2022 6:45:00 PM 1.17 34.106 0.243 7.54 26.95 12.75
12/31/2022 7:00:00 PM 1.16 34.088 0.249 7.54 243.19 12.75
12/31/2022 7:15:00 PM 1.15 34.07 0.25 7.52 26.49 12.74
12/31/2022 7:30:00 PM 1.15 34.07 0.247 7.54 26.14 12.74
12/31/2022 7:45:00 PM 1.14 34.052 0.247 7.53 32.75 12.74
12/31/2022 8:00:00 PM 1.13 34.034 0.247 7.52 24.27 12.73
12/31/2022 8:15:00 PM 1.14 34.052 0.247 7.52 23.12 12.73
12/31/2022 8:30:00 PM 1.14 34.052 0.245 7.52 26.6 12.73
12/31/2022 8:45:00 PM 1.13 34.034 0.246 7.5 30.83 12.72
12/31/2022 9:00:00 PM 1.13 34.034 0.245 7.5 27.12 12.72
12/31/2022 9:15:00 PM 1.12 34.016 0.243 7.52 23.59 12.72
12/31/2022 9:30:00 PM 1.11 33.998 0.244 7.5 25.85 12.72
12/31/2022 9:45:00 PM 1.1 33.98 0.244 7.49 26.07 12.72
12/31/2022 10:00:00 PM 1.1 33.98 0.241 7.5 27.07 12.72
12/31/2022 10:15:00 PM 1.09 33.962 0.241 7.49 27.38 12.71
12/31/2022 10:30:00 PM 1.09 33.962 0.241 7.49 34.14 12.71
12/31/2022 10:45:00 PM 1.09 33.962 0.24 7.5 41.09 12.7
12/31/2022 11:00:00 PM 1.08 33.944 0.238 7.5 26.09 12.71
12/31/2022 11:15:00 PM 1.08 33.944 0.238 7.5 25.96 12.71
12/31/2022 11:30:00 PM 1.08 33.944 0.239 7.48 39.53 12.71
12/31/2022 11:45:00 PM 1.09 33.962 0.238 7.48 25.9 12.71
1/1/2023 12:00:00 AM 1.11 33.998 0.236 7.49 69.71 12.7
1/1/2023 12:15:00 AM 1.11 33.998 0.237 7.49 26.17 12.7
1/1/2023 12:30:00 AM 1.13 34.034 0.237 7.48 24.23 12.7
1/1/2023 12:45:00 AM 1.15 34.07 0.235 7.5 25.66 12.7
1/1/2023 1:00:00 AM 1.16 34.088 0.235 7.48 22.25 12.7
1/1/2023 1:15:00 AM 1.18 34.124 0.235 7.48 23.53 12.7
1/1/2023 1:30:00 AM 1.19 34.142 0.233 7.5 25.68 12.69
1/1/2023 1:45:00 AM 1.21 34.178 0.235 7.48 25.23 12.69
1/1/2023 2:00:00 AM 1.22 34.196 0.234 7.49 22.77 12.69
1/1/2023 2:15:00 AM 1.23 34.214 0.232 7.51 32.6 12.68
1/1/2023 2:30:00 AM 1.24 34.232 0.233 7.5 23.95 12.68
1/1/2023 2:45:00 AM 1.25 34.25 0.232 7.5 24.34 12.68
1/1/2023 3:00:00 AM 1.26 34.268 0.231 7.51 22.15 12.68
1/1/2023 3:15:00 AM 1.27 34.286 0.232 7.51 21.77 12.68
1/1/2023 3:30:00 AM 1.27 34.286 0.231 7.51 22.04 12.68
1/1/2023 3:45:00 AM 1.28 34.304 0.234 7.48 21.19 12.67
1/1/2023 4:00:00 AM 1.28 34.304 0.231 7.51 24.91 12.67
1/1/2023 4:15:00 AM 1.28 34.304 0.232 7.49 22.75 12.67
1/1/2023 4:30:00 AM 1.28 34.304 0.231 7.51 19.56 12.67
1/1/2023 4:45:00 AM 1.28 34.304 0.232 7.49 20.84 12.67
1/1/2023 5:00:00 AM 1.28 34.304 0.232 7.49 20.45 12.67
1/1/2023 5:15:00 AM 1.27 34.286 0.231 7.5 21.18 12.67
1/1/2023 5:30:00 AM 1.27 34.286 0.23 7.51 20.66 12.67
1/1/2023 5:45:00 AM 1.25 34.25 0.23 7.51 21.19 12.68
1/1/2023 6:00:00 AM 1.25 34.25 0.232 7.49 31.35 12.67
1/1/2023 6:15:00 AM 1.23 34.214 0.229 7.51 20.6 12.68
1/1/2023 6:30:00 AM 1.22 34.196 0.23 7.5 19.19 12.68
1/1/2023 6:45:00 AM 1.21 34.178 0.231 7.49 20.06 12.68
1/1/2023 7:00:00 AM 1.19 34.142 0.228 7.52 20.83 12.69
1/1/2023 7:15:00 AM 1.18 34.124 0.229 7.51 20.51 12.69
1/1/2023 7:30:00 AM 1.16 34.088 0.229 7.51 19.56 12.69
1/1/2023 7:45:00 AM 1.15 34.07 0.228 7.51 27.79 12.7
1/1/2023 8:00:00 AM 1.13 34.034 0.231 7.49 16.39 12.71
1/1/2023 8:15:00 AM 1.12 34.016 0.229 7.49 21.81 12.71
1/1/2023 8:30:00 AM 1.1 33.98 0.228 7.49 20.46 12.72
1/1/2023 8:45:00 AM 1.09 33.962 0.23 7.49 21.24 12.73
1/1/2023 9:00:00 AM 1.08 33.944 0.229 7.49 22.16 12.73
1/1/2023 9:15:00 AM 1.07 33.926 0.229 7.5 19.07 12.74
1/1/2023 9:30:00 AM 1.07 33.926 0.228 7.5 18.84 12.75
1/1/2023 9:45:00 AM 1.06 33.908 0.227 7.51 21.5 12.76
1/1/2023 10:00:00 AM 1.05 33.89 0.227 7.5 20.35 12.76
1/1/2023 10:15:00 AM 1.05 33.89 0.228 7.5 17.41 12.77
1/1/2023 10:30:00 AM 1.05 33.89 0.229 7.5 17.64 12.78
1/1/2023 10:45:00 AM 1.05 33.89 0.229 7.5 24.07 12.78
1/1/2023 11:00:00 AM 1.05 33.89 0.228 7.51 20.55 12.79
1/1/2023 11:15:00 AM 1.05 33.89 0.227 7.5 14.85 12.8
1/1/2023 11:30:00 AM 1.04 33.872 0.225 7.52 21.77 12.8
1/1/2023 11:45:00 AM 1.05 33.89 0.227 7.5 16.98 12.81
1/1/2023 12:00:00 PM 1.08 33.944 0.229 7.49 29.92 12.81
1/1/2023 12:15:00 PM 1.1 33.98 0.228 7.51 19.62 12.82
1/1/2023 12:30:00 PM 1.1 33.98 0.227 7.52 17.1 12.82
1/1/2023 12:45:00 PM 1.12 34.016 0.227 7.53 13.51 12.82
1/1/2023 1:00:00 PM 1.15 34.07 0.227 7.53 20.48 12.83
1/1/2023 1:15:00 PM 1.19 34.142 0.227 7.53 13.4 12.83
1/1/2023 1:30:00 PM 1.2 34.16 0.227 7.53 16.53 12.83
1/1/2023 1:45:00 PM 1.21 34.178 0.227 7.53 14.96 12.82
1/1/2023 2:00:00 PM 1.23 34.214 0.23 7.52 24.72 12.82
1/1/2023 2:15:00 PM 1.25 34.25 0.227 7.54 17.5 12.82
1/1/2023 2:30:00 PM 1.26 34.268 0.227 7.54 12.71 12.82
1/1/2023 2:45:00 PM 1.26 34.268 0.227 7.54 13.77 12.82
1/1/2023 3:00:00 PM 1.25 34.25 0.227 7.54 15.42 12.81
1/1/2023 3:15:00 PM 1.26 34.268 0.227 7.55 16.27 12.81
1/1/2023 3:30:00 PM 1.25 34.25 0.227 7.55 18.87 12.81
1/1/2023 3:45:00 PM 1.25 34.25 0.227 7.54 16.53 12.8
1/1/2023 4:00:00 PM 1.23 34.214 0.23 7.51 18.43 12.8
1/1/2023 4:15:00 PM 1.22 34.196 0.228 7.52 25.33 12.79
1/1/2023 4:30:00 PM 1.2 34.16 0.228 7.52 18.23 12.79
1/1/2023 4:45:00 PM 1.19 34.142 0.226 7.54 32.33 12.78
1/1/2023 5:00:00 PM 1.17 34.106 0.227 7.53 16.21 12.78
1/1/2023 5:15:00 PM 1.16 34.088 0.226 7.54 14.82 12.78
1/1/2023 5:30:00 PM 1.14 34.052 0.228 7.52 17.5 12.78
1/1/2023 5:45:00 PM 1.13 34.034 0.224 7.54 27.15 12.78
1/1/2023 6:00:00 PM 1.11 33.998 0.227 7.52 21.98 12.78
1/1/2023 6:15:00 PM 1.09 33.962 0.226 7.52 14.63 12.78
1/1/2023 6:30:00 PM 1.08 33.944 0.227 7.51 17.17 12.78
1/1/2023 6:45:00 PM 1.06 33.908 0.226 7.53 13.56 12.79
1/1/2023 7:00:00 PM 1.04 33.872 0.227 7.52 15.44 12.79
1/1/2023 7:15:00 PM 1.02 33.836 0.225 7.53 15.22 12.79
1/1/2023 7:30:00 PM 1.01 33.818 0.226 7.53 17.07 12.79
1/1/2023 7:45:00 PM 0.99 33.782 0.225 7.53 15.81 12.8
1/1/2023 8:00:00 PM 0.98 33.764 0.225 7.53 12.15 12.8
1/1/2023 8:15:00 PM 0.97 33.746 0.228 7.5 13.46 12.81
1/1/2023 8:30:00 PM 0.96 33.728 0.224 7.52 16.96 12.81
1/1/2023 8:45:00 PM 0.95 33.71 0.225 7.51 16.09 12.81
1/1/2023 9:00:00 PM 0.93 33.674 0.225 7.51 12.04 12.82
1/1/2023 9:15:00 PM 0.92 33.656 0.224 7.52 16.3 12.82
1/1/2023 9:30:00 PM 0.91 33.638 0.225 7.52 27.44 12.82
1/1/2023 9:45:00 PM 0.91 33.638 0.224 7.51 15.33 12.83
1/1/2023 10:00:00 PM 0.9 33.62 0.224 7.52 13.17 12.83
1/1/2023 10:15:00 PM 0.89 33.602 0.224 7.51 16.06 12.84
1/1/2023 10:30:00 PM 0.88 33.584 0.224 7.51 15.31 12.84
1/1/2023 10:45:00 PM 0.88 33.584 0.225 7.5 13.42 12.84
1/1/2023 11:00:00 PM 0.87 33.566 0.224 7.51 14.03 12.85
1/1/2023 11:15:00 PM 0.87 33.566 0.225 7.5 14.54 12.85
1/1/2023 11:30:00 PM 0.86 33.548 0.223 7.52 12.88 12.86
1/1/2023 11:45:00 PM 0.86 33.548 0.223 7.51 13.6 12.86
1/2/2023 12:00:00 AM 0.85 33.53 0.223 7.51 14.62 12.86
1/2/2023 12:15:00 AM 0.85 33.53 0.223 7.51 15.34 12.86
1/2/2023 12:30:00 AM 0.84 33.512 0.223 7.5 12.3 12.87
1/2/2023 12:45:00 AM 0.84 33.512 0.223 7.5 13.32 12.87
1/2/2023 1:00:00 AM 0.83 33.494 0.226 7.48 13.65 12.87
1/2/2023 1:15:00 AM 0.83 33.494 0.222 7.5 14.11 12.87
1/2/2023 1:30:00 AM 0.83 33.494 0.224 7.49 13.83 12.88
1/2/2023 1:45:00 AM 0.83 33.494 0.222 7.51 14.08 12.88
1/2/2023 2:00:00 AM 0.82 33.476 0.224 7.49 12.89 12.88
1/2/2023 2:15:00 AM 0.82 33.476 0.222 7.51 12.66 12.88
1/2/2023 2:30:00 AM 0.83 33.494 0.222 7.51 12.05 12.89
1/2/2023 2:45:00 AM 0.83 33.494 0.225 7.49 13.37 12.89
1/2/2023 3:00:00 AM 0.83 33.494 0.222 7.51 12.35 12.89
1/2/2023 3:15:00 AM 0.84 33.512 0.222 7.51 11.81 12.89
1/2/2023 3:30:00 AM 0.85 33.53 0.225 7.49 12.14 12.89
1/2/2023 3:45:00 AM 0.85 33.53 0.222 7.51 11.92 12.89
1/2/2023 4:00:00 AM 0.85 33.53 0.223 7.52 13.04 12.89
1/2/2023 4:15:00 AM 0.86 33.548 0.223 7.52 12.03 12.88
1/2/2023 4:30:00 AM 0.86 33.548 0.222 7.52 13.97 12.89
1/2/2023 4:45:00 AM 0.86 33.548 0.222 7.52 12.08 12.89
1/2/2023 5:00:00 AM 0.85 33.53 0.225 7.5 13.38 12.89
1/2/2023 5:15:00 AM 0.85 33.53 0.222 7.52 11.99 12.89
1/2/2023 5:30:00 AM 0.85 33.53 0.225 7.49 12.04 12.89
1/2/2023 5:45:00 AM 0.85 33.53 0.221 7.52 14.78 12.89
1/2/2023 6:00:00 AM 0.85 33.53 0.222 7.51 12.79 12.89
1/2/2023 6:15:00 AM 0.85 33.53 0.222 7.51 12.33 12.89
1/2/2023 6:30:00 AM 0.85 33.53 0.222 7.52 13.03 12.89
1/2/2023 6:45:00 AM 0.85 33.53 0.225 7.49 12.55 12.9
1/2/2023 7:00:00 AM 0.85 33.53 0.222 7.52 14.24 12.9
1/2/2023 7:15:00 AM 0.85 33.53 0.222 7.52 13.39 12.9
1/2/2023 7:30:00 AM 0.85 33.53 0.225 7.49 11.08 12.9
1/2/2023 7:45:00 AM 0.85 33.53 0.222 7.52 11.33 12.91
1/2/2023 8:00:00 AM 0.84 33.512 0.222 7.52 11.47 12.91
1/2/2023 8:15:00 AM 0.85 33.53 0.224 7.5 11.46 12.91
1/2/2023 8:30:00 AM 0.85 33.53 0.222 7.52 12.37 12.92
1/2/2023 8:45:00 AM 0.86 33.548 0.225 7.5 11.13 12.92
1/2/2023 9:00:00 AM 0.87 33.566 0.222 7.52 10.84 12.93
1/2/2023 9:15:00 AM 0.88 33.584 0.225 7.5 11.92 12.94
1/2/2023 9:30:00 AM 0.9 33.62 0.222 7.52 11.64 12.94
1/2/2023 9:45:00 AM 0.93 33.674 0.223 7.53 11.9 12.95
1/2/2023 10:00:00 AM 0.95 33.71 0.223 7.53 11.29 12.95
1/2/2023 10:15:00 AM 0.98 33.764 0.223 7.53 11.19 12.95
1/2/2023 10:30:00 AM 1 33.8 0.223 7.52 11.69 12.95
1/2/2023 10:45:00 AM 1.03 33.854 0.225 7.51 10.46 12.95
1/2/2023 11:00:00 AM 1.06 33.908 0.223 7.52 10.46 12.96
1/2/2023 11:15:00 AM 1.1 33.98 0.223 7.53 11.24 12.96
1/2/2023 11:30:00 AM 1.14 34.052 0.224 7.52 10.25 12.96
1/2/2023 11:45:00 AM 1.18 34.124 0.223 7.54 11.87 12.96
1/2/2023 12:00:00 PM 1.24 34.232 0.223 7.55 10.44 12.96
1/2/2023 12:15:00 PM 1.29 34.322 0.223 7.55 10.22 12.96
1/2/2023 12:30:00 PM 1.32 34.376 0.225 7.53 10.54 12.95
1/2/2023 12:45:00 PM 1.34 34.412 0.223 7.55 11.37 12.95
1/2/2023 1:00:00 PM 1.37 34.466 0.224 7.56 10.36 12.94
1/2/2023 1:15:00 PM 1.4 34.52 0.224 7.56 9.71 12.93
1/2/2023 1:30:00 PM 1.42 34.556 0.224 7.56 10.74 12.93
1/2/2023 1:45:00 PM 1.44 34.592 0.224 7.57 9.89 12.93
1/2/2023 2:00:00 PM 1.47 34.646 0.226 7.54 10.68 12.92
1/2/2023 2:15:00 PM 1.51 34.718 0.223 7.57 10.03 12.92
1/2/2023 2:30:00 PM 1.54 34.772 0.224 7.57 9.91 12.91
1/2/2023 2:45:00 PM 1.56 34.808 0.225 7.57 10.1 12.9
1/2/2023 3:00:00 PM 1.57 34.826 0.225 7.57 10.47 12.9
1/2/2023 3:15:00 PM 1.55 34.79 0.225 7.57 10.18 12.89
1/2/2023 3:30:00 PM 1.54 34.772 0.225 7.58 10.28 12.89
1/2/2023 3:45:00 PM 1.53 34.754 0.225 7.58 10.09 12.88
1/2/2023 4:00:00 PM 1.51 34.718 0.226 7.56 10.59 12.88
1/2/2023 4:15:00 PM 1.48 34.664 0.225 7.58 9.38 12.87
1/2/2023 4:30:00 PM 1.45 34.61 0.226 7.58 9.52 12.87
1/2/2023 4:45:00 PM 1.41 34.538 0.226 7.58 10.19 12.87
1/2/2023 5:00:00 PM 1.37 34.466 0.226 7.58 9.96 12.87
1/2/2023 5:15:00 PM 1.33 34.394 0.226 7.57 9.96 12.87
1/2/2023 5:30:00 PM 1.29 34.322 0.227 7.57 9.79 12.88
1/2/2023 5:45:00 PM 1.25 34.25 0.227 7.57 10.44 12.88
1/2/2023 6:00:00 PM 1.22 34.196 0.227 7.57 10.62 12.89
1/2/2023 6:15:00 PM 1.19 34.142 0.228 7.56 9.82 12.89
1/2/2023 6:30:00 PM 1.17 34.106 0.227 7.57 9.72 12.9
1/2/2023 6:45:00 PM 1.15 34.07 0.228 7.57 9.94 12.9
1/2/2023 7:00:00 PM 1.13 34.034 0.228 7.56 9.58 12.91
1/2/2023 7:15:00 PM 1.12 34.016 0.227 7.57 10.39 12.92
1/2/2023 7:30:00 PM 1.1 33.98 0.228 7.57 9.93 12.92
1/2/2023 7:45:00 PM 1.09 33.962 0.228 7.57 11.57 12.92
1/2/2023 8:00:00 PM 1.07 33.926 0.23 7.55 9.19 12.93
1/2/2023 8:15:00 PM 1.06 33.908 0.227 7.56 9.76 12.93
1/2/2023 8:30:00 PM 1.04 33.872 0.229 7.55 9.5 12.94
1/2/2023 8:45:00 PM 1.03 33.854 0.228 7.56 8.35 12.95
1/2/2023 9:00:00 PM 1.02 33.836 0.229 7.56 8.76 12.95
1/2/2023 9:15:00 PM 1 33.8 0.228 7.56 8.33 12.96
1/2/2023 9:30:00 PM 0.99 33.782 0.229 7.56 9.34 12.96
1/2/2023 9:45:00 PM 0.98 33.764 0.229 7.56 9.44 12.96
1/2/2023 10:00:00 PM 0.98 33.764 0.229 7.56 9.34 12.97
1/2/2023 10:15:00 PM 0.97 33.746 0.229 7.56 8.55 12.98
1/2/2023 10:30:00 PM 0.97 33.746 0.229 7.56 8.59 12.98
1/2/2023 10:45:00 PM 0.97 33.746 0.229 7.56 8.25 12.98
1/2/2023 11:00:00 PM 0.97 33.746 0.229 7.56 9.01 12.99
1/2/2023 11:15:00 PM 0.97 33.746 0.23 7.57 8.28 12.99
1/2/2023 11:30:00 PM 0.96 33.728 0.23 7.57 8.46 12.99
1/2/2023 11:45:00 PM 0.96 33.728 0.23 7.57 7.82 12.99
1/3/2023 12:00:00 AM 0.96 33.728 0.23 7.57 8.25 12.99
1/3/2023 12:15:00 AM 0.96 33.728 0.23 7.57 7.91 13
1/3/2023 12:30:00 AM 0.96 33.728 0.233 7.55 8.15 13
1/3/2023 12:45:00 AM 0.96 33.728 0.231 7.55 7.96 13
1/3/2023 1:00:00 AM 0.96 33.728 0.231 7.56 8.23 13.01
1/3/2023 1:15:00 AM 0.96 33.728 0.232 7.56 8.5 13.01
1/3/2023 1:30:00 AM 0.95 33.71 0.23 7.57 8.21 13.01
1/3/2023 1:45:00 AM 0.95 33.71 0.231 7.57 8.31 13.01
1/3/2023 2:00:00 AM 0.95 33.71 0.231 7.58 8.04 13.01
1/3/2023 2:15:00 AM 0.95 33.71 0.231 7.59 8.55 13.01
1/3/2023 2:30:00 AM 0.95 33.71 0.231 7.59 7.89 13.01
1/3/2023 2:45:00 AM 0.95 33.71 0.234 7.56 9.58 13.01
1/3/2023 3:00:00 AM 0.95 33.71 0.231 7.59 7.86 13.01
1/3/2023 3:15:00 AM 0.95 33.71 0.232 7.59 8.12 13.01
1/3/2023 3:30:00 AM 0.94 33.692 0.232 7.59 8.74 13.01
1/3/2023 3:45:00 AM 0.94 33.692 0.232 7.59 8.78 13.01
1/3/2023 4:00:00 AM 0.94 33.692 0.232 7.6 9.74 13.01
1/3/2023 4:15:00 AM 0.94 33.692 0.232 7.59 8.68 13.01
1/3/2023 4:30:00 AM 0.95 33.71 0.233 7.59 7.96 13.01
1/3/2023 4:45:00 AM 0.95 33.71 0.233 7.59 8.04 13.01
1/3/2023 5:00:00 AM 0.95 33.71 0.233 7.6 8.45 13.01
1/3/2023 5:15:00 AM 0.95 33.71 0.234 7.59 8.1 13.01
1/3/2023 5:30:00 AM 0.95 33.71 0.233 7.6 8.27 13
1/3/2023 5:45:00 AM 0.96 33.728 0.232 7.6 8.91 13
1/3/2023 6:00:00 AM 0.96 33.728 0.233 7.6 7.86 13
1/3/2023 6:15:00 AM 0.97 33.746 0.233 7.6 7.96 13
1/3/2023 6:30:00 AM 0.97 33.746 0.233 7.6 8.21 13
1/3/2023 6:45:00 AM 0.98 33.764 0.233 7.6 8.27 12.99
1/3/2023 7:00:00 AM 0.98 33.764 0.235 7.58 7.79 12.99
1/3/2023 7:15:00 AM 0.98 33.764 0.232 7.6 7.74 12.99
1/3/2023 7:30:00 AM 0.99 33.782 0.233 7.6 7.56 12.99
1/3/2023 7:45:00 AM 0.99 33.782 0.234 7.58 8.22 12.98
1/3/2023 8:00:00 AM 1 33.8 0.233 7.61 7.42 12.98
1/3/2023 8:15:00 AM 1.01 33.818 0.233 7.6 7.38 12.98
1/3/2023 8:30:00 AM 1.02 33.836 0.234 7.6 7.72 12.98
1/3/2023 8:45:00 AM 1.03 33.854 0.236 7.58 7.36 12.98
1/3/2023 9:00:00 AM 1.03 33.854 0.234 7.59 7.22 12.98
1/3/2023 9:15:00 AM 1.04 33.872 0.234 7.6 7.05 12.98
1/3/2023 9:30:00 AM 1.05 33.89 0.236 7.59 8.59 12.99
1/3/2023 9:45:00 AM 1.06 33.908 0.234 7.61 6.81 12.99
1/3/2023 10:00:00 AM 1.08 33.944 0.235 7.61 6.56 12.99
1/3/2023 10:15:00 AM 1.09 33.962 0.235 7.61 6.9 12.99
1/3/2023 10:30:00 AM 1.1 33.98 0.235 7.61 6.65 12.99
1/3/2023 10:45:00 AM 1.12 34.016 0.235 7.61 6.88 12.99
1/3/2023 11:00:00 AM 1.13 34.034 0.235 7.62 8.89 12.99
1/3/2023 11:15:00 AM 1.15 34.07 0.235 7.62 6.43 12.99
1/3/2023 11:30:00 AM 1.17 34.106 0.235 7.61 6.65 12.98
1/3/2023 11:45:00 AM 1.2 34.16 0.234 7.62 6.82 12.98
1/3/2023 12:00:00 PM 1.22 34.196 0.235 7.62 6.79 12.98
1/3/2023 12:15:00 PM 1.25 34.25 0.235 7.62 6.75 12.98
1/3/2023 12:30:00 PM 1.27 34.286 0.234 7.63 6.46 12.97
1/3/2023 12:45:00 PM 1.29 34.322 0.235 7.62 6.51 12.96
1/3/2023 1:00:00 PM 1.32 34.376 0.235 7.63 6.82 12.96
1/3/2023 1:15:00 PM 1.36 34.448 0.235 7.63 6.42 12.95
1/3/2023 1:30:00 PM 1.38 34.484 0.235 7.63 7.43 12.94
1/3/2023 1:45:00 PM 1.41 34.538 0.235 7.64 6.79 12.93
1/3/2023 2:00:00 PM 1.43 34.574 0.236 7.63 7.62 12.91
1/3/2023 2:15:00 PM 1.45 34.61 0.236 7.62 6.39 12.89
1/3/2023 2:30:00 PM 1.47 34.646 0.236 7.62 7.15 12.88
1/3/2023 2:45:00 PM 1.48 34.664 0.235 7.62 6.82 12.86
1/3/2023 3:00:00 PM 1.5 34.7 0.239 7.6 6.67 12.85
1/3/2023 3:15:00 PM 1.51 34.718 0.236 7.61 6.54 12.84
1/3/2023 3:30:00 PM 1.52 34.736 0.235 7.63 6.48 12.82
1/3/2023 3:45:00 PM 1.53 34.754 0.239 7.6 7.04 12.81
1/3/2023 4:00:00 PM 1.54 34.772 0.235 7.62 7.82 12.8
1/3/2023 4:15:00 PM 1.55 34.79 0.235 7.62 7.13 12.79
1/3/2023 4:30:00 PM 1.56 34.808 0.235 7.62 6.84 12.77
1/3/2023 4:45:00 PM 1.58 34.844 0.235 7.62 7.85 12.75
1/3/2023 5:00:00 PM 1.59 34.862 0.235 7.62 7.22 12.74
1/3/2023 5:15:00 PM 1.6 34.88 0.235 7.61 7.82 12.73
1/3/2023 5:30:00 PM 1.6 34.88 0.235 7.61 6.93 12.72
1/3/2023 5:45:00 PM 1.61 34.898 0.235 7.61 7.19 12.71
1/3/2023 6:00:00 PM 1.61 34.898 0.235 7.61 6.96 12.7
1/3/2023 6:15:00 PM 1.62 34.916 0.235 7.61 7.02 12.69
1/3/2023 6:30:00 PM 1.62 34.916 0.234 7.61 6.97 12.69
1/3/2023 6:45:00 PM 1.63 34.934 0.235 7.6 7.18 12.68
1/3/2023 7:00:00 PM 1.64 34.952 0.234 7.61 7.66 12.67
1/3/2023 7:15:00 PM 1.65 34.97 0.235 7.6 7.73 12.66
1/3/2023 7:30:00 PM 1.66 34.988 0.233 7.6 7.72 12.66
1/3/2023 7:45:00 PM 1.67 35.006 0.233 7.6 7.72 12.65
1/3/2023 8:00:00 PM 1.68 35.024 0.232 7.6 7.83 12.65
1/3/2023 8:15:00 PM 1.68 35.024 0.233 7.6 7.95 12.64
1/3/2023 8:30:00 PM 1.69 35.042 0.232 7.59 8.66 12.63
1/3/2023 8:45:00 PM 1.7 35.06 0.232 7.6 9.54 12.63
1/3/2023 9:00:00 PM 1.7 35.06 0.232 7.59 9.16 12.63
1/3/2023 9:15:00 PM 1.71 35.078 0.232 7.59 8.1 12.62
1/3/2023 9:30:00 PM 1.72 35.096 0.234 7.57 7.76 12.62
1/3/2023 9:45:00 PM 1.73 35.114 0.231 7.59 7.88 12.61
1/3/2023 10:00:00 PM 1.74 35.132 0.232 7.59 8.16 12.61
1/3/2023 10:15:00 PM 1.74 35.132 0.232 7.59 8.99 12.6
1/3/2023 10:30:00 PM 1.75 35.15 0.232 7.59 7.6 12.6
1/3/2023 10:45:00 PM 1.76 35.168 0.232 7.58 7.67 12.6
1/3/2023 11:00:00 PM 1.76 35.168 0.235 7.55 7.43 12.59
1/3/2023 11:15:00 PM 1.76 35.168 0.231 7.58 7.22 12.59
1/3/2023 11:30:00 PM 1.77 35.186 0.233 7.55 7.43 12.59
1/3/2023 11:45:00 PM 1.77 35.186 0.231 7.57 7.56 12.59
1/4/2023 12:00:00 AM 1.78 35.204 0.233 7.55 7.57 12.58
1/4/2023 12:15:00 AM 1.79 35.222 0.232 7.57 8.46 12.58
1/4/2023 12:30:00 AM 1.79 35.222 0.232 7.56 7.64 12.58
1/4/2023 12:45:00 AM 1.8 35.24 0.23 7.58 8.25 12.57
1/4/2023 1:00:00 AM 1.81 35.258 0.231 7.58 7.84 12.57
1/4/2023 1:15:00 AM 1.82 35.276 0.231 7.58 7.54 12.57
1/4/2023 1:30:00 AM 1.82 35.276 0.234 7.55 8.02 12.56
1/4/2023 1:45:00 AM 1.83 35.294 0.232 7.56 7.61 12.56
1/4/2023 2:00:00 AM 1.84 35.312 0.23 7.58 8.21 12.56
1/4/2023 2:15:00 AM 1.84 35.312 0.231 7.58 7.99 12.56
1/4/2023 2:30:00 AM 1.85 35.33 0.231 7.58 8.47 12.55
1/4/2023 2:45:00 AM 1.86 35.348 0.231 7.57 8.15 12.55
1/4/2023 3:00:00 AM 1.87 35.366 0.23 7.58 7.83 12.54
1/4/2023 3:15:00 AM 1.88 35.384 0.23 7.58 7.47 12.54
1/4/2023 3:30:00 AM 1.88 35.384 0.23 7.57 7.44 12.54
1/4/2023 3:45:00 AM 1.88 35.384 0.23 7.57 8.02 12.53
1/4/2023 4:00:00 AM 1.89 35.402 0.23 7.58 7.74 12.53
1/4/2023 4:15:00 AM 1.9 35.42 0.23 7.57 7.64 12.52
1/4/2023 4:30:00 AM 1.91 35.438 0.229 7.58 7.5 12.52
1/4/2023 4:45:00 AM 1.93 35.474 0.229 7.58 7.67 12.51
1/4/2023 5:00:00 AM 1.94 35.492 0.229 7.58 8.05 12.51
1/4/2023 5:15:00 AM 1.96 35.528 0.229 7.58 8.24 12.5
1/4/2023 5:30:00 AM 1.98 35.564 0.229 7.58 8.83 12.49
1/4/2023 5:45:00 AM 1.99 35.582 0.229 7.58 8.27 12.49
1/4/2023 6:00:00 AM 2 35.6 0.229 7.58 7.94 12.49
1/4/2023 6:15:00 AM 2.01 35.618 0.229 7.58 7.64 12.49
1/4/2023 6:30:00 AM 2.01 35.618 0.228 7.58 8.73 12.48
1/4/2023 6:45:00 AM 2.02 35.636 0.229 7.58 7.93 12.48
1/4/2023 7:00:00 AM 2.02 35.636 0.229 7.59 7.99 12.48
1/4/2023 7:15:00 AM 2.02 35.636 0.229 7.58 7.7 12.48
1/4/2023 7:30:00 AM 2.01 35.618 0.229 7.59 7.79 12.48
1/4/2023 7:45:00 AM 2.01 35.618 0.229 7.58 7.65 12.49
1/4/2023 8:00:00 AM 2 35.6 0.23 7.57 7.53 12.49
1/4/2023 8:15:00 AM 2 35.6 0.229 7.59 7.64 12.5
1/4/2023 8:30:00 AM 2 35.6 0.228 7.59 7.36 12.51
1/4/2023 8:45:00 AM 2.01 35.618 0.229 7.59 7.2 12.52
1/4/2023 9:00:00 AM 2.01 35.618 0.232 7.56 7 12.53
1/4/2023 9:15:00 AM 2.02 35.636 0.23 7.57 7.15 12.54
1/4/2023 9:30:00 AM 2.04 35.672 0.229 7.59 6.81 12.55
1/4/2023 9:45:00 AM 2.06 35.708 0.232 7.57 7.02 12.55
1/4/2023 10:00:00 AM 2.07 35.726 0.229 7.6 6.75 12.56
1/4/2023 10:15:00 AM 2.09 35.762 0.229 7.6 7.42 12.56
1/4/2023 10:30:00 AM 2.1 35.78 0.229 7.6 6.64 12.56
1/4/2023 10:45:00 AM 2.1 35.78 0.23 7.6 6.5 12.57
1/4/2023 11:00:00 AM 2.11 35.798 0.23 7.6 6.6 12.57
1/4/2023 11:15:00 AM 2.14 35.852 0.232 7.58 6.34 12.57
1/4/2023 11:30:00 AM 2.15 35.87 0.23 7.59 6.26 12.57
1/4/2023 11:45:00 AM 2.16 35.888 0.23 7.6 6.45 12.57
1/4/2023 12:00:00 PM 2.18 35.924 0.23 7.6 6.38 12.57
1/4/2023 12:15:00 PM 2.21 35.978 0.232 7.58 6.48 12.58
1/4/2023 12:30:00 PM 2.24 36.032 0.229 7.61 6.36 12.58
1/4/2023 12:45:00 PM 2.27 36.086 0.23 7.61 6.12 12.58
1/4/2023 1:00:00 PM 2.3 36.14 0.231 7.59 6.52 12.58
1/4/2023 1:15:00 PM 2.32 36.176 0.229 7.61 6.24 12.58
1/4/2023 1:30:00 PM 2.35 36.23 0.232 7.58 6.64 12.57
1/4/2023 1:45:00 PM 2.36 36.248 0.229 7.61 6.51 12.56
1/4/2023 2:00:00 PM 2.37 36.266 0.23 7.61 6.84 12.56
1/4/2023 2:15:00 PM 2.38 36.284 0.23 7.61 6.79 12.55
1/4/2023 2:30:00 PM 2.39 36.302 0.23 7.61 6.55 12.54
1/4/2023 2:45:00 PM 2.39 36.302 0.23 7.61 6.82 12.53
1/4/2023 3:00:00 PM 2.4 36.32 0.23 7.61 6.63 12.52
1/4/2023 3:15:00 PM 2.39 36.302 0.23 7.61 6.43 12.51
1/4/2023 3:30:00 PM 2.39 36.302 0.23 7.61 6.58 12.5
1/4/2023 3:45:00 PM 2.38 36.284 0.23 7.6 8.06 12.48
1/4/2023 4:00:00 PM 2.37 36.266 0.23 7.6 6.71 12.47
1/4/2023 4:15:00 PM 2.37 36.266 0.23 7.59 6.58 12.46
1/4/2023 4:30:00 PM 2.36 36.248 0.229 7.61 6.68 12.45
1/4/2023 4:45:00 PM 2.36 36.248 0.229 7.6 7.23 12.44
1/4/2023 5:00:00 PM 2.35 36.23 0.23 7.59 7.41 12.44
1/4/2023 5:15:00 PM 2.35 36.23 0.229 7.6 7.24 12.43
1/4/2023 5:30:00 PM 2.34 36.212 0.231 7.56 6.39 12.42
1/4/2023 5:45:00 PM 2.34 36.212 0.229 7.6 6.65 12.42
1/4/2023 6:00:00 PM 2.33 36.194 0.23 7.6 7.26 12.41
1/4/2023 6:15:00 PM 2.33 36.194 0.23 7.59 7.4 12.41
1/4/2023 6:30:00 PM 2.33 36.194 0.229 7.6 6.73 12.4
1/4/2023 6:45:00 PM 2.33 36.194 0.231 7.58 8.87 12.4
1/4/2023 7:00:00 PM 2.34 36.212 0.229 7.6 7.23 12.4
1/4/2023 7:15:00 PM 2.33 36.194 0.23 7.6 7.35 12.39
1/4/2023 7:30:00 PM 2.33 36.194 0.23 7.59 7.31 12.39
1/4/2023 7:45:00 PM 2.34 36.212 0.229 7.6 7.29 12.38
1/4/2023 8:00:00 PM 2.33 36.194 0.229 7.6 8.47 12.38
1/4/2023 8:15:00 PM 2.33 36.194 0.231 7.57 6.91 12.37
1/4/2023 8:30:00 PM 2.33 36.194 0.229 7.6 7.42 12.37
1/4/2023 8:45:00 PM 2.33 36.194 0.229 7.59 7 12.36
1/4/2023 9:00:00 PM 2.35 36.23 0.229 7.61 7.19 12.36
1/4/2023 9:15:00 PM 2.34 36.212 0.229 7.6 7.64 12.36
1/4/2023 9:30:00 PM 2.34 36.212 0.23 7.59 6.99 12.35
1/4/2023 9:45:00 PM 2.35 36.23 0.228 7.6 10.9 12.35
1/4/2023 10:00:00 PM 2.36 36.248 0.23 7.58 8.07 12.34
1/4/2023 10:15:00 PM 2.37 36.266 0.227 7.61 7.62 12.34
1/4/2023 10:30:00 PM 2.38 36.284 0.228 7.6 7.65 12.33
1/4/2023 10:45:00 PM 2.39 36.302 0.23 7.58 7.6 12.33
1/4/2023 11:00:00 PM 2.4 36.32 0.227 7.6 7.95 12.32
1/4/2023 11:15:00 PM 2.4 36.32 0.229 7.59 7.65 12.32
1/4/2023 11:30:00 PM 2.4 36.32 0.227 7.6 10.4 12.32
1/4/2023 11:45:00 PM 2.4 36.32 0.226 7.61 7.96 12.32
1/5/2023 12:00:00 AM 2.41 36.338 0.227 7.6 7.96 12.32
1/5/2023 12:15:00 AM 2.41 36.338 0.226 7.61 8.28 12.31
1/5/2023 12:30:00 AM 2.42 36.356 0.226 7.61 9.97 12.31
1/5/2023 12:45:00 AM 2.42 36.356 0.229 7.58 8.3 12.31
1/5/2023 1:00:00 AM 2.42 36.356 0.224 7.6 8.21 12.31
1/5/2023 1:15:00 AM 2.42 36.356 0.225 7.61 7.65 12.31
1/5/2023 1:30:00 AM 2.42 36.356 0.226 7.6 8.15 12.31
1/5/2023 1:45:00 AM 2.44 36.392 0.223 7.61 8.13 12.31
1/5/2023 2:00:00 AM 2.5 36.5 0.223 7.61 7.7 12.3
1/5/2023 2:15:00 AM 2.51 36.518 0.225 7.59 7.94 12.3
1/5/2023 2:30:00 AM 2.5 36.5 0.222 7.61 8.22 12.3
1/5/2023 2:45:00 AM 2.48 36.464 0.225 7.59 8.23 12.3
1/5/2023 3:00:00 AM 2.46 36.428 0.224 7.59 8.28 12.3
1/5/2023 3:15:00 AM 2.45 36.41 0.224 7.59 8.6 12.31
1/5/2023 3:30:00 AM 2.42 36.356 0.222 7.61 9.24 12.31
1/5/2023 3:45:00 AM 2.4 36.32 0.223 7.61 8.28 12.32
1/5/2023 4:00:00 AM 2.39 36.302 0.223 7.61 8.41 12.33
1/5/2023 4:15:00 AM 2.36 36.248 0.224 7.6 7.87 12.33
1/5/2023 4:30:00 AM 2.33 36.194 0.224 7.59 7.84 12.34
1/5/2023 4:45:00 AM 2.3 36.14 0.222 7.6 7.93 12.35
1/5/2023 5:00:00 AM 2.27 36.086 0.224 7.59 8.2 12.36
1/5/2023 5:15:00 AM 2.24 36.032 0.222 7.61 8.07 12.37
1/5/2023 5:30:00 AM 2.21 35.978 0.223 7.6 7.8 12.38
1/5/2023 5:45:00 AM 2.18 35.924 0.222 7.61 7.97 12.39
1/5/2023 6:00:00 AM 2.15 35.87 0.224 7.59 8.22 12.39
1/5/2023 6:15:00 AM 2.12 35.816 0.222 7.6 8.09 12.4
1/5/2023 6:30:00 AM 2.09 35.762 0.222 7.6 8.02 12.41
1/5/2023 6:45:00 AM 2.06 35.708 0.224 7.58 10.26 12.42
1/5/2023 7:00:00 AM 2.03 35.654 0.224 7.58 8.28 12.42
1/5/2023 7:15:00 AM 2 35.6 0.222 7.6 8.12 12.43
1/5/2023 7:30:00 AM 1.97 35.546 0.222 7.61 8.31 12.43
1/5/2023 7:45:00 AM 1.94 35.492 0.222 7.6 8.06 12.44
1/5/2023 8:00:00 AM 1.9 35.42 0.222 7.6 8.28 12.45
1/5/2023 8:15:00 AM 1.87 35.366 0.224 7.57 8.62 12.47
1/5/2023 8:30:00 AM 1.87 35.366 0.221 7.6 8.33 12.49
1/5/2023 8:45:00 AM 1.87 35.366 0.222 7.6 8.64 12.5
1/5/2023 9:00:00 AM 1.87 35.366 0.221 7.61 7.94 12.52
1/5/2023 9:15:00 AM 1.88 35.384 0.221 7.61 7.88 12.53
1/5/2023 9:30:00 AM 1.88 35.384 0.221 7.61 7.92 12.54
1/5/2023 9:45:00 AM 1.89 35.402 0.22 7.61 8.11 12.54
1/5/2023 10:00:00 AM 1.9 35.42 0.221 7.61 8.19 12.55
1/5/2023 10:15:00 AM 1.92 35.456 0.22 7.62 7.72 12.56
1/5/2023 10:30:00 AM 1.97 35.546 0.221 7.62 8.33 12.57
1/5/2023 10:45:00 AM 2.02 35.636 0.221 7.62 7.71 12.58
1/5/2023 11:00:00 AM 2.06 35.708 0.221 7.62 7.86 12.59
1/5/2023 11:15:00 AM 2.1 35.78 0.221 7.62 7.45 12.59
1/5/2023 11:30:00 AM 2.13 35.834 0.221 7.62 7.32 12.59
1/5/2023 11:45:00 AM 2.18 35.924 0.221 7.62 7.19 12.59
1/5/2023 12:00:00 PM 2.24 36.032 0.22 7.63 7.37 12.59
1/5/2023 12:15:00 PM 2.28 36.104 0.221 7.63 7.42 12.58
1/5/2023 12:30:00 PM 2.36 36.248 0.221 7.63 6.92 12.57
1/5/2023 12:45:00 PM 2.43 36.374 0.222 7.63 7.52 12.56
1/5/2023 1:00:00 PM 2.47 36.446 0.222 7.62 7.02 12.55
1/5/2023 1:15:00 PM 2.55 36.59 0.221 7.64 6.97 12.54
1/5/2023 1:30:00 PM 2.58 36.644 0.221 7.64 7.2 12.53
1/5/2023 1:45:00 PM 2.63 36.734 0.224 7.62 6.92 12.52
1/5/2023 2:00:00 PM 2.63 36.734 0.221 7.65 6.93 12.51
1/5/2023 2:15:00 PM 2.63 36.734 0.222 7.65 6.73 12.5
1/5/2023 2:30:00 PM 2.64 36.752 0.222 7.65 6.4 12.49
1/5/2023 2:45:00 PM 2.65 36.77 0.223 7.64 6.44 12.48
1/5/2023 3:00:00 PM 2.65 36.77 0.221 7.65 6.46 12.47
1/5/2023 3:15:00 PM 2.64 36.752 0.222 7.65 6.25 12.47
1/5/2023 3:30:00 PM 2.63 36.734 0.223 7.65 6.4 12.46
1/5/2023 3:45:00 PM 2.61 36.698 0.223 7.65 6.3 12.45
1/5/2023 4:00:00 PM 2.6 36.68 0.224 7.63 6.76 12.44
1/5/2023 4:15:00 PM 2.59 36.662 0.223 7.63 6.72 12.43
1/5/2023 4:30:00 PM 2.57 36.626 0.223 7.65 6.58 12.42
1/5/2023 4:45:00 PM 2.54 36.572 0.223 7.65 6.52 12.41
1/5/2023 5:00:00 PM 2.52 36.536 0.224 7.63 7.31 12.4
1/5/2023 5:15:00 PM 2.49 36.482 0.224 7.65 6.7 12.4
1/5/2023 5:30:00 PM 2.47 36.446 0.224 7.64 6.61 12.39
1/5/2023 5:45:00 PM 2.44 36.392 0.224 7.64 7.12 12.39
1/5/2023 6:00:00 PM 2.41 36.338 0.227 7.61 7.16 12.4
1/5/2023 6:15:00 PM 2.39 36.302 0.224 7.64 6.86 12.4
1/5/2023 6:30:00 PM 2.37 36.266 0.225 7.64 6.6 12.4
1/5/2023 6:45:00 PM 2.34 36.212 0.225 7.63 6.94 12.4
1/5/2023 7:00:00 PM 2.33 36.194 0.226 7.62 6.66 12.41
1/5/2023 7:15:00 PM 2.31 36.158 0.224 7.63 6.88 12.41
1/5/2023 7:30:00 PM 2.3 36.14 0.225 7.64 6.99 12.41
1/5/2023 7:45:00 PM 2.28 36.104 0.225 7.63 6.91 12.42
1/5/2023 8:00:00 PM 2.27 36.086 0.226 7.63 7.65 12.42
1/5/2023 8:15:00 PM 2.25 36.05 0.226 7.63 7.66 12.43
1/5/2023 8:30:00 PM 2.22 35.996 0.226 7.63 7.06 12.43
1/5/2023 8:45:00 PM 2.21 35.978 0.226 7.63 7.01 12.44
1/5/2023 9:00:00 PM 2.19 35.942 0.226 7.63 8.92 12.44
1/5/2023 9:15:00 PM 2.17 35.906 0.226 7.63 6.58 12.45
1/5/2023 9:30:00 PM 2.16 35.888 0.226 7.63 7.16 12.45
1/5/2023 9:45:00 PM 2.15 35.87 0.226 7.63 7.17 12.46
1/5/2023 10:00:00 PM 2.14 35.852 0.226 7.63 6.69 12.46
1/5/2023 10:15:00 PM 2.13 35.834 0.226 7.63 6.75 12.46
1/5/2023 10:30:00 PM 2.12 35.816 0.226 7.63 6.53 12.47
1/5/2023 10:45:00 PM 2.11 35.798 0.227 7.63 6.49 12.47
1/5/2023 11:00:00 PM 2.1 35.78 0.227 7.63 7.28 12.47
1/5/2023 11:15:00 PM 2.09 35.762 0.227 7.63 6.63 12.48
1/5/2023 11:30:00 PM 2.08 35.744 0.227 7.63 6.63 12.48
1/5/2023 11:45:00 PM 2.07 35.726 0.227 7.63 7.49 12.49
1/6/2023 12:00:00 AM 2.05 35.69 0.227 7.63 6.4 12.49
1/6/2023 12:15:00 AM 2.03 35.654 0.227 7.63 6.17 12.49
1/6/2023 12:30:00 AM 2.01 35.618 0.227 7.63 6.54 12.5
1/6/2023 12:45:00 AM 1.99 35.582 0.227 7.63 6.38 12.5
1/6/2023 1:00:00 AM 1.97 35.546 0.227 7.63 6.49 12.5
1/6/2023 1:15:00 AM 1.95 35.51 0.228 7.63 6.27 12.5
1/6/2023 1:30:00 AM 1.94 35.492 0.228 7.63 6.46 12.51
1/6/2023 1:45:00 AM 1.93 35.474 0.228 7.63 6.24 12.51
1/6/2023 2:00:00 AM 1.92 35.456 0.228 7.63 10.07 12.51
1/6/2023 2:15:00 AM 1.92 35.456 0.228 7.63 6.66 12.52
1/6/2023 2:30:00 AM 1.91 35.438 0.228 7.63 6.6 12.52
1/6/2023 2:45:00 AM 1.91 35.438 0.228 7.63 6.62 12.52
1/6/2023 3:00:00 AM 1.91 35.438 0.228 7.64 6.22 12.52
1/6/2023 3:15:00 AM 1.9 35.42 0.228 7.63 6.56 12.52
1/6/2023 3:30:00 AM 1.9 35.42 0.23 7.61 6.35 12.52
1/6/2023 3:45:00 AM 1.89 35.402 0.228 7.63 7.62 12.53
1/6/2023 4:00:00 AM 1.88 35.384 0.231 7.6 6.48 12.53
1/6/2023 4:15:00 AM 1.88 35.384 0.229 7.62 6.26 12.53
1/6/2023 4:30:00 AM 1.87 35.366 0.228 7.63 6.34 12.53
1/6/2023 4:45:00 AM 1.86 35.348 0.231 7.6 6.29 12.53
1/6/2023 5:00:00 AM 1.86 35.348 0.229 7.62 6.05 12.53
1/6/2023 5:15:00 AM 1.85 35.33 0.23 7.61 6.36 12.53
1/6/2023 5:30:00 AM 1.84 35.312 0.228 7.63 6.76 12.53
1/6/2023 5:45:00 AM 1.84 35.312 0.229 7.63 10.57 12.53
1/6/2023 6:00:00 AM 1.84 35.312 0.23 7.63 6.21 12.53
1/6/2023 6:15:00 AM 1.84 35.312 0.229 7.63 7.12 12.53
1/6/2023 6:30:00 AM 1.84 35.312 0.229 7.63 6.69 12.53
1/6/2023 6:45:00 AM 1.84 35.312 0.23 7.63 6.54 12.53
1/6/2023 7:00:00 AM 1.84 35.312 0.23 7.63 6.89 12.53
1/6/2023 7:15:00 AM 1.85 35.33 0.23 7.63 6.77 12.53
1/6/2023 7:30:00 AM 1.85 35.33 0.23 7.63 7.08 12.53
1/6/2023 7:45:00 AM 1.85 35.33 0.23 7.63 6.64 12.53
1/6/2023 8:00:00 AM 1.85 35.33 0.23 7.63 6.98 12.54
1/6/2023 8:15:00 AM 1.86 35.348 0.23 7.64 6.63 12.54
1/6/2023 8:30:00 AM 1.87 35.366 0.23 7.63 6.57 12.55
1/6/2023 8:45:00 AM 1.88 35.384 0.23 7.64 6.52 12.56
1/6/2023 9:00:00 AM 1.9 35.42 0.23 7.64 6.63 12.57
1/6/2023 9:15:00 AM 1.91 35.438 0.231 7.64 6.5 12.57
1/6/2023 9:30:00 AM 1.92 35.456 0.23 7.64 6.68 12.57
1/6/2023 9:45:00 AM 1.94 35.492 0.23 7.64 6.16 12.57
1/6/2023 10:00:00 AM 1.96 35.528 0.23 7.64 6.89 12.58
1/6/2023 10:15:00 AM 1.98 35.564 0.231 7.64 6.41 12.58
1/6/2023 10:30:00 AM 2 35.6 0.231 7.64 7.03 12.59
1/6/2023 10:45:00 AM 2.02 35.636 0.231 7.65 6.23 12.59
1/6/2023 11:00:00 AM 2.05 35.69 0.231 7.65 6.19 12.6
1/6/2023 11:15:00 AM 2.07 35.726 0.231 7.65 6.01 12.6
1/6/2023 11:30:00 AM 2.09 35.762 0.23 7.65 5.58 12.6
1/6/2023 11:45:00 AM 2.12 35.816 0.231 7.65 5.72 12.6
1/6/2023 12:00:00 PM 2.15 35.87 0.231 7.66 5.52 12.6
1/6/2023 12:15:00 PM 2.19 35.942 0.231 7.66 5.52 12.61
1/6/2023 12:30:00 PM 2.21 35.978 0.231 7.66 5.55 12.61
1/6/2023 12:45:00 PM 2.23 36.014 0.233 7.64 6.12 12.6
1/6/2023 1:00:00 PM 2.24 36.032 0.231 7.67 5.41 12.59
1/6/2023 1:15:00 PM 2.26 36.068 0.231 7.66 5.63 12.58
1/6/2023 1:30:00 PM 2.27 36.086 0.232 7.67 5.29 12.57
1/6/2023 1:45:00 PM 2.29 36.122 0.232 7.67 5.31 12.57
1/6/2023 2:00:00 PM 2.32 36.176 0.232 7.67 5.37 12.57
1/6/2023 2:15:00 PM 2.34 36.212 0.232 7.67 5.61 12.57
1/6/2023 2:30:00 PM 2.34 36.212 0.233 7.66 5.7 12.56
1/6/2023 2:45:00 PM 2.35 36.23 0.231 7.67 5.43 12.55
1/6/2023 3:00:00 PM 2.35 36.23 0.233 7.66 5.45 12.54
1/6/2023 3:15:00 PM 2.35 36.23 0.232 7.67 5.65 12.53
1/6/2023 3:30:00 PM 2.36 36.248 0.232 7.67 6.21 12.53
1/6/2023 3:45:00 PM 2.36 36.248 0.232 7.66 5.31 12.52
1/6/2023 4:00:00 PM 2.36 36.248 0.233 7.67 5.57 12.51
1/6/2023 4:15:00 PM 2.36 36.248 0.233 7.67 5.7 12.51
1/6/2023 4:30:00 PM 2.36 36.248 0.235 7.64 5.81 12.51
1/6/2023 4:45:00 PM 2.36 36.248 0.232 7.67 5.66 12.5
1/6/2023 5:00:00 PM 2.36 36.248 0.233 7.67 5.91 12.49
1/6/2023 5:15:00 PM 2.35 36.23 0.233 7.67 5.69 12.49
1/6/2023 5:30:00 PM 2.33 36.194 0.233 7.67 5.69 12.49
1/6/2023 5:45:00 PM 2.31 36.158 0.233 7.66 5.54 12.49
1/6/2023 6:00:00 PM 2.3 36.14 0.233 7.67 5.63 12.49
1/6/2023 6:15:00 PM 2.3 36.14 0.236 7.63 5.58 12.49
1/6/2023 6:30:00 PM 2.29 36.122 0.232 7.67 6.61 12.49
1/6/2023 6:45:00 PM 2.27 36.086 0.233 7.66 6.4 12.49
1/6/2023 7:00:00 PM 2.26 36.068 0.233 7.66 5.88 12.49
1/6/2023 7:15:00 PM 2.26 36.068 0.233 7.66 5.96 12.5
1/6/2023 7:30:00 PM 2.25 36.05 0.233 7.66 5.78 12.5
1/6/2023 7:45:00 PM 2.24 36.032 0.234 7.66 5.83 12.51
1/6/2023 8:00:00 PM 2.23 36.014 0.233 7.67 5.68 12.51
1/6/2023 8:15:00 PM 2.22 35.996 0.233 7.67 5.85 12.52
1/6/2023 8:30:00 PM 2.22 35.996 0.234 7.66 5.91 12.52
1/6/2023 8:45:00 PM 2.21 35.978 0.234 7.66 6.27 12.53
1/6/2023 9:00:00 PM 2.2 35.96 0.234 7.66 6.35 12.53
1/6/2023 9:15:00 PM 2.2 35.96 0.234 7.66 6.5 12.53
1/6/2023 9:30:00 PM 2.19 35.942 0.234 7.66 6.29 12.53
1/6/2023 9:45:00 PM 2.19 35.942 0.234 7.66 6.31 12.54
1/6/2023 10:00:00 PM 2.19 35.942 0.234 7.67 6.49 12.54
1/6/2023 10:15:00 PM 2.19 35.942 0.234 7.66 6.22 12.55
1/6/2023 10:30:00 PM 2.19 35.942 0.234 7.66 6.33 12.55
1/6/2023 10:45:00 PM 2.18 35.924 0.234 7.66 6.34 12.55
1/6/2023 11:00:00 PM 2.18 35.924 0.235 7.66 6.55 12.55
1/6/2023 11:15:00 PM 2.19 35.942 0.235 7.66 6.48 12.55
1/6/2023 11:30:00 PM 2.19 35.942 0.236 7.66 6.84 12.55
1/6/2023 11:45:00 PM 2.19 35.942 0.235 7.67 12.39 12.56
1/7/2023 12:00:00 AM 2.19 35.942 0.235 7.67 6.67 12.56
1/7/2023 12:15:00 AM 2.19 35.942 0.235 7.67 6.38 12.56
1/7/2023 12:30:00 AM 2.18 35.924 0.236 7.66 6.29 12.57
1/7/2023 12:45:00 AM 2.18 35.924 0.236 7.67 6.26 12.57
1/7/2023 1:00:00 AM 2.18 35.924 0.236 7.67 6.34 12.57
1/7/2023 1:15:00 AM 2.18 35.924 0.236 7.67 6.18 12.58
1/7/2023 1:30:00 AM 2.18 35.924 0.237 7.67 6 12.58
1/7/2023 1:45:00 AM 2.18 35.924 0.235 7.68 6.51 12.58
1/7/2023 2:00:00 AM 2.17 35.906 0.236 7.67 5.99 12.58
1/7/2023 2:15:00 AM 2.17 35.906 0.236 7.67 6.13 12.58
1/7/2023 2:30:00 AM 2.17 35.906 0.236 7.67 6.78 12.59
1/7/2023 2:45:00 AM 2.17 35.906 0.237 7.67 6.31 12.59
1/7/2023 3:00:00 AM 2.16 35.888 0.237 7.67 6.18 12.59
1/7/2023 3:15:00 AM 2.16 35.888 0.237 7.68 6.2 12.6
1/7/2023 3:30:00 AM 2.15 35.87 0.237 7.67 6.03 12.6
1/7/2023 3:45:00 AM 2.15 35.87 0.237 7.67 5.98 12.6
1/7/2023 4:00:00 AM 2.15 35.87 0.237 7.68 5.94 12.6
1/7/2023 4:15:00 AM 2.14 35.852 0.238 7.68 6.14 12.6
1/7/2023 4:30:00 AM 2.14 35.852 0.239 7.66 6.26 12.61
1/7/2023 4:45:00 AM 2.13 35.834 0.239 7.66 7.18 12.61
1/7/2023 5:00:00 AM 2.13 35.834 0.237 7.68 7.05 12.61
1/7/2023 5:15:00 AM 2.13 35.834 0.238 7.68 6.5 12.61
1/7/2023 5:30:00 AM 2.12 35.816 0.238 7.68 8.3 12.62
1/7/2023 5:45:00 AM 2.12 35.816 0.239 7.68 6.58 12.62
1/7/2023 6:00:00 AM 2.12 35.816 0.239 7.68 6.52 12.62
1/7/2023 6:15:00 AM 2.11 35.798 0.239 7.68 6.66 12.62
1/7/2023 6:30:00 AM 2.11 35.798 0.24 7.67 6.16 12.63
1/7/2023 6:45:00 AM 2.1 35.78 0.238 7.68 6.42 12.63
1/7/2023 7:00:00 AM 2.1 35.78 0.239 7.68 6.26 12.63
1/7/2023 7:15:00 AM 2.09 35.762 0.239 7.68 6.37 12.64
1/7/2023 7:30:00 AM 2.09 35.762 0.239 7.68 6.59 12.64
1/7/2023 7:45:00 AM 2.09 35.762 0.239 7.68 6.71 12.64
1/7/2023 8:00:00 AM 2.09 35.762 0.24 7.68 6.41 12.65
1/7/2023 8:15:00 AM 2.09 35.762 0.239 7.69 6.18 12.66
1/7/2023 8:30:00 AM 2.09 35.762 0.243 7.65 6.05 12.67
1/7/2023 8:45:00 AM 2.09 35.762 0.239 7.69 5.98 12.69
1/7/2023 9:00:00 AM 2.1 35.78 0.239 7.69 6.42 12.69
1/7/2023 9:15:00 AM 2.09 35.762 0.24 7.69 5.89 12.7
1/7/2023 9:30:00 AM 2.09 35.762 0.24 7.69 5.73 12.7
1/7/2023 9:45:00 AM 2.08 35.744 0.24 7.69 7.38 12.71
1/7/2023 10:00:00 AM 2.09 35.762 0.239 7.7 5.82 12.72
1/7/2023 10:15:00 AM 2.09 35.762 0.24 7.7 5.91 12.72
1/7/2023 10:30:00 AM 2.1 35.78 0.24 7.7 5.32 12.73
1/7/2023 10:45:00 AM 2.11 35.798 0.24 7.7 5.36 12.75
1/7/2023 11:00:00 AM 2.09 35.762 0.24 7.7 5.26 12.75
1/7/2023 11:15:00 AM 2.1 35.78 0.24 7.7 5.15 12.76
1/7/2023 11:30:00 AM 2.08 35.744 0.24 7.71 5.21 12.76
1/7/2023 11:45:00 AM 2.06 35.708 0.24 7.71 5.39 12.77
1/7/2023 12:00:00 PM 2.06 35.708 0.24 7.71 5.15 12.79
1/7/2023 12:15:00 PM 2.1 35.78 0.24 7.71 5.18 12.8
1/7/2023 12:30:00 PM 2.17 35.906 0.241 7.71 5.13 12.81
1/7/2023 12:45:00 PM 2.21 35.978 0.24 7.72 5.18 12.81
1/7/2023 1:00:00 PM 2.23 36.014 0.241 7.72 5.01 12.81
1/7/2023 1:15:00 PM 2.24 36.032 0.241 7.72 5.14 12.81
1/7/2023 1:30:00 PM 2.26 36.068 0.241 7.72 5.11 12.81
1/7/2023 1:45:00 PM 2.28 36.104 0.241 7.73 4.77 12.82
1/7/2023 2:00:00 PM 2.29 36.122 0.241 7.73 4.89 12.82
1/7/2023 2:15:00 PM 2.29 36.122 0.241 7.73 4.92 12.81
1/7/2023 2:30:00 PM 2.3 36.14 0.241 7.73 5.07 12.81
1/7/2023 2:45:00 PM 2.31 36.158 0.241 7.73 5.11 12.81
1/7/2023 3:00:00 PM 2.32 36.176 0.241 7.73 4.91 12.81
1/7/2023 3:15:00 PM 2.31 36.158 0.242 7.73 5.04 12.8
1/7/2023 3:30:00 PM 2.32 36.176 0.242 7.73 4.9 12.79
1/7/2023 3:45:00 PM 2.32 36.176 0.242 7.73 4.92 12.78
1/7/2023 4:00:00 PM 2.32 36.176 0.242 7.73 5.04 12.77
1/7/2023 4:15:00 PM 2.31 36.158 0.242 7.73 4.98 12.77
1/7/2023 4:30:00 PM 2.3 36.14 0.242 7.73 5.15 12.77
1/7/2023 4:45:00 PM 2.29 36.122 0.242 7.73 5.36 12.76
1/7/2023 5:00:00 PM 2.28 36.104 0.242 7.73 5.3 12.75
1/7/2023 5:15:00 PM 2.26 36.068 0.242 7.73 5.21 12.75
1/7/2023 5:30:00 PM 2.25 36.05 0.243 7.73 5.19 12.75
1/7/2023 5:45:00 PM 2.23 36.014 0.243 7.73 5.2 12.75
1/7/2023 6:00:00 PM 2.22 35.996 0.243 7.73 5.97 12.75
1/7/2023 6:15:00 PM 2.2 35.96 0.243 7.73 5.4 12.76
1/7/2023 6:30:00 PM 2.18 35.924 0.243 7.73 5.34 12.76
1/7/2023 6:45:00 PM 2.17 35.906 0.243 7.73 5.71 12.76
1/7/2023 7:00:00 PM 2.15 35.87 0.243 7.72 5.65 12.77
1/7/2023 7:15:00 PM 2.13 35.834 0.243 7.73 5.78 12.78
1/7/2023 7:30:00 PM 2.11 35.798 0.243 7.72 5.45 12.78
1/7/2023 7:45:00 PM 2.09 35.762 0.244 7.73 5.47 12.79
1/7/2023 8:00:00 PM 2.07 35.726 0.244 7.73 5.54 12.8
1/7/2023 8:15:00 PM 2.05 35.69 0.244 7.72 5.55 12.8
1/7/2023 8:30:00 PM 2.03 35.654 0.244 7.72 5.54 12.81
1/7/2023 8:45:00 PM 2 35.6 0.244 7.72 5.55 12.81
1/7/2023 9:00:00 PM 1.98 35.564 0.243 7.73 5.57 12.82
1/7/2023 9:15:00 PM 1.96 35.528 0.244 7.73 5.75 12.83
1/7/2023 9:30:00 PM 1.94 35.492 0.244 7.73 6.11 12.83
1/7/2023 9:45:00 PM 1.92 35.456 0.244 7.73 5.6 12.84
1/7/2023 10:00:00 PM 1.9 35.42 0.244 7.72 5.97 12.85
1/7/2023 10:15:00 PM 1.87 35.366 0.244 7.72 5.63 12.85
1/7/2023 10:30:00 PM 1.85 35.33 0.244 7.72 5.67 12.86
1/7/2023 10:45:00 PM 1.81 35.258 0.245 7.71 5.71 12.87
1/7/2023 11:00:00 PM 1.78 35.204 0.244 7.73 5.59 12.88
1/7/2023 11:15:00 PM 1.74 35.132 0.245 7.72 5.67 12.89
1/7/2023 11:30:00 PM 1.71 35.078 0.245 7.72 5.59 12.9
1/7/2023 11:45:00 PM 1.7 35.06 0.245 7.72 5.65 12.91
1/8/2023 12:00:00 AM 1.67 35.006 0.245 7.72 5.79 12.92
1/8/2023 12:15:00 AM 1.65 34.97 0.245 7.7 5.53 12.94
1/8/2023 12:30:00 AM 1.63 34.934 0.245 7.7 5.66 12.95
1/8/2023 12:45:00 AM 1.6 34.88 0.245 7.71 5.57 12.96
1/8/2023 1:00:00 AM 1.58 34.844 0.245 7.71 5.55 12.97
1/8/2023 1:15:00 AM 1.56 34.808 0.246 7.72 6.3 12.99
1/8/2023 1:30:00 AM 1.54 34.772 0.246 7.72 5.79 12.99
1/8/2023 1:45:00 AM 1.52 34.736 0.246 7.72 5.92 13.01
1/8/2023 2:00:00 AM 1.51 34.718 0.249 7.69 5.28 13.02
1/8/2023 2:15:00 AM 1.49 34.682 0.245 7.72 5.58 13.03
1/8/2023 2:30:00 AM 1.47 34.646 0.246 7.72 5.45 13.04
1/8/2023 2:45:00 AM 1.45 34.61 0.246 7.72 6.06 13.05
1/8/2023 3:00:00 AM 1.43 34.574 0.246 7.72 5.63 13.06
1/8/2023 3:15:00 AM 1.41 34.538 0.246 7.72 5.11 13.07
1/8/2023 3:30:00 AM 1.4 34.52 0.247 7.72 5.35 13.08
1/8/2023 3:45:00 AM 1.38 34.484 0.246 7.73 5.14 13.09
1/8/2023 4:00:00 AM 1.36 34.448 0.246 7.73 5.62 13.1
1/8/2023 4:15:00 AM 1.34 34.412 0.247 7.73 5.59 13.11
1/8/2023 4:30:00 AM 1.32 34.376 0.247 7.73 5.66 13.12
1/8/2023 4:45:00 AM 1.3 34.34 0.247 7.73 5.44 13.13
1/8/2023 5:00:00 AM 1.29 34.322 0.247 7.73 5.32 13.13
1/8/2023 5:15:00 AM 1.27 34.286 0.248 7.73 6.15 13.14
1/8/2023 5:30:00 AM 1.25 34.25 0.247 7.74 5.27 13.15
1/8/2023 5:45:00 AM 1.23 34.214 0.248 7.73 5.34 13.15
1/8/2023 6:00:00 AM 1.22 34.196 0.248 7.74 5.27 13.16
1/8/2023 6:15:00 AM 1.2 34.16 0.248 7.74 5.56 13.17
1/8/2023 6:30:00 AM 1.18 34.124 0.248 7.73 5.42 13.17
1/8/2023 6:45:00 AM 1.17 34.106 0.248 7.73 5.44 13.18
1/8/2023 7:00:00 AM 1.15 34.07 0.248 7.74 5.53 13.18
1/8/2023 7:15:00 AM 1.14 34.052 0.249 7.74 5.36 13.19
1/8/2023 7:30:00 AM 1.13 34.034 0.249 7.73 5.31 13.19
1/8/2023 7:45:00 AM 1.11 33.998 0.248 7.74 5.35 13.2
1/8/2023 8:00:00 AM 1.1 33.98 0.249 7.74 5.29 13.21
1/8/2023 8:15:00 AM 1.09 33.962 0.251 7.72 5.68 13.23
1/8/2023 8:30:00 AM 1.08 33.944 0.248 7.74 5.31 13.24
1/8/2023 8:45:00 AM 1.08 33.944 0.248 7.75 5.13 13.26
1/8/2023 9:00:00 AM 1.08 33.944 0.249 7.75 5.25 13.28
1/8/2023 9:15:00 AM 1.09 33.962 0.249 7.76 5.15 13.29
1/8/2023 9:30:00 AM 1.11 33.998 0.249 7.76 5.01 13.31
1/8/2023 9:45:00 AM 1.13 34.034 0.249 7.76 4.88 13.33
1/8/2023 10:00:00 AM 1.15 34.07 0.249 7.77 4.83 13.34
1/8/2023 10:15:00 AM 1.16 34.088 0.249 7.77 4.92 13.35
1/8/2023 10:30:00 AM 1.17 34.106 0.249 7.78 4.86 13.36
1/8/2023 10:45:00 AM 1.19 34.142 0.25 7.77 4.91 13.36
1/8/2023 11:00:00 AM 1.24 34.232 0.249 7.78 4.93 13.37
1/8/2023 11:15:00 AM 1.29 34.322 0.249 7.78 4.83 13.38
1/8/2023 11:30:00 AM 1.35 34.43 0.249 7.79 4.96 13.38
1/8/2023 11:45:00 AM 1.41 34.538 0.249 7.79 5 13.38
1/8/2023 12:00:00 PM 1.46 34.628 0.25 7.79 4.99 13.38
1/8/2023 12:15:00 PM 1.54 34.772 0.25 7.79 4.93 13.37
1/8/2023 12:30:00 PM 1.57 34.826 0.25 7.79 5.38 13.36
1/8/2023 12:45:00 PM 1.59 34.862 0.249 7.8 4.92 13.35
1/8/2023 1:00:00 PM 1.6 34.88 0.25 7.8 4.88 13.34
1/8/2023 1:15:00 PM 1.61 34.898 0.252 7.79 4.8 13.34
1/8/2023 1:30:00 PM 1.65 34.97 0.25 7.8 4.9 13.33
1/8/2023 1:45:00 PM 1.67 35.006 0.25 7.8 4.67 13.31
1/8/2023 2:00:00 PM 1.69 35.042 0.251 7.81 4.79 13.3
1/8/2023 2:15:00 PM 1.71 35.078 0.251 7.81 4.68 13.29
1/8/2023 2:30:00 PM 1.72 35.096 0.251 7.81 4.81 13.28
1/8/2023 2:45:00 PM 1.73 35.114 0.254 7.78 4.85 13.26
1/8/2023 3:00:00 PM 1.73 35.114 0.251 7.81 4.85 13.26
1/8/2023 3:15:00 PM 1.74 35.132 0.251 7.81 4.88 13.24
1/8/2023 3:30:00 PM 1.75 35.15 0.252 7.81 4.85 13.23
1/8/2023 3:45:00 PM 1.75 35.15 0.252 7.81 4.91 13.21
1/8/2023 4:00:00 PM 1.74 35.132 0.252 7.8 4.9 13.2
1/8/2023 4:15:00 PM 1.71 35.078 0.251 7.81 4.68 13.2
1/8/2023 4:30:00 PM 1.68 35.024 0.252 7.81 6.07 13.19
1/8/2023 4:45:00 PM 1.64 34.952 0.252 7.8 5.11 13.18
1/8/2023 5:00:00 PM 1.59 34.862 0.252 7.79 4.83 13.18
1/8/2023 5:15:00 PM 1.54 34.772 0.252 7.8 5.02 13.18
1/8/2023 5:30:00 PM 1.49 34.682 0.252 7.8 4.64 13.18
1/8/2023 5:45:00 PM 1.44 34.592 0.252 7.79 5 13.19
1/8/2023 6:00:00 PM 1.4 34.52 0.253 7.79 5.14 13.19
1/8/2023 6:15:00 PM 1.36 34.448 0.252 7.8 5.09 13.2
1/8/2023 6:30:00 PM 1.31 34.358 0.252 7.79 5.1 13.2
1/8/2023 6:45:00 PM 1.27 34.286 0.254 7.77 5.14 13.2
1/8/2023 7:00:00 PM 1.22 34.196 0.252 7.79 5.18 13.21
1/8/2023 7:15:00 PM 1.18 34.124 0.253 7.79 5.29 13.21
1/8/2023 7:30:00 PM 1.14 34.052 0.253 7.79 5.32 13.22
1/8/2023 7:45:00 PM 1.09 33.962 0.253 7.78 5.25 13.23
1/8/2023 8:00:00 PM 1.05 33.89 0.253 7.78 5.26 13.23
1/8/2023 8:15:00 PM 1 33.8 0.253 7.78 5.47 13.24
1/8/2023 8:30:00 PM 0.96 33.728 0.254 7.77 6.26 13.25
1/8/2023 8:45:00 PM 0.91 33.638 0.254 7.77 5.64 13.27
1/8/2023 9:00:00 PM 0.87 33.566 0.253 7.78 5.36 13.28
1/8/2023 9:15:00 PM 0.83 33.494 0.254 7.77 5.26 13.29
1/8/2023 9:30:00 PM 0.79 33.422 0.254 7.77 5.55 13.3
1/8/2023 9:45:00 PM 0.76 33.368 0.254 7.75 5.54 13.32
1/8/2023 10:00:00 PM 0.72 33.296 0.253 7.77 5.31 13.33
1/8/2023 10:15:00 PM 0.69 33.242 0.254 7.76 5.71 13.34
1/8/2023 10:30:00 PM 0.66 33.188 0.254 7.77 5.06 13.35
1/8/2023 10:45:00 PM 0.64 33.152 0.254 7.77 5.71 13.36
1/8/2023 11:00:00 PM 0.62 33.116 0.254 7.77 5.38 13.37
1/8/2023 11:15:00 PM 0.6 33.08 0.257 7.74 5.28 13.37
1/8/2023 11:30:00 PM 0.57 33.026 0.254 7.77 5.39 13.38
1/8/2023 11:45:00 PM 0.55 32.99 0.255 7.77 5.28 13.39
1/9/2023 12:00:00 AM 0.53 32.954 0.255 7.77 5.34 13.4
1/9/2023 12:15:00 AM 0.52 32.936 0.255 7.77 5.5 13.4
1/9/2023 12:30:00 AM 0.51 32.918 0.257 7.75 5.44 13.41
1/9/2023 12:45:00 AM 0.51 32.918 0.254 7.78 5.44 13.42
1/9/2023 1:00:00 AM 0.51 32.918 0.255 7.78 5.36 13.42
1/9/2023 1:15:00 AM 0.51 32.918 0.255 7.78 5.49 13.43
1/9/2023 1:30:00 AM 0.51 32.918 0.256 7.78 5.21 13.43
1/9/2023 1:45:00 AM 0.52 32.936 0.255 7.78 5.22 13.43
1/9/2023 2:00:00 AM 0.52 32.936 0.255 7.78 5.43 13.43
1/9/2023 2:15:00 AM 0.52 32.936 0.256 7.78 5.14 13.43
1/9/2023 2:30:00 AM 0.53 32.954 0.256 7.79 5.06 13.44
1/9/2023 2:45:00 AM 0.53 32.954 0.256 7.79 5.14 13.44
1/9/2023 3:00:00 AM 0.54 32.972 0.256 7.79 5.17 13.44
1/9/2023 3:15:00 AM 0.54 32.972 0.256 7.79 5.34 13.44
1/9/2023 3:30:00 AM 0.55 32.99 0.256 7.79 5.42 13.44
1/9/2023 3:45:00 AM 0.56 33.008 0.256 7.79 5.52 13.44
1/9/2023 4:00:00 AM 0.57 33.026 0.257 7.79 5.58 13.44
1/9/2023 4:15:00 AM 0.58 33.044 0.256 7.8 5.1 13.44
1/9/2023 4:30:00 AM 0.59 33.062 0.257 7.79 5.19 13.44
1/9/2023 4:45:00 AM 0.6 33.08 0.257 7.8 5.53 13.43
1/9/2023 5:00:00 AM 0.6 33.08 0.257 7.8 8.15 13.43
1/9/2023 5:15:00 AM 0.61 33.098 0.257 7.79 5.14 13.43
1/9/2023 5:30:00 AM 0.63 33.134 0.257 7.8 5.27 13.43
1/9/2023 5:45:00 AM 0.63 33.134 0.258 7.8 5.27 13.42
1/9/2023 6:00:00 AM 0.64 33.152 0.258 7.8 5.29 13.42
1/9/2023 6:15:00 AM 0.65 33.17 0.258 7.8 5.21 13.42
1/9/2023 6:30:00 AM 0.66 33.188 0.261 7.77 5.49 13.42
1/9/2023 6:45:00 AM 0.66 33.188 0.258 7.8 5.69 13.41
1/9/2023 7:00:00 AM 0.67 33.206 0.258 7.8 5.26 13.41
1/9/2023 7:15:00 AM 0.67 33.206 0.258 7.8 5.09 13.41
1/9/2023 7:30:00 AM 0.68 33.224 0.259 7.8 5.06 13.41
1/9/2023 7:45:00 AM 0.68 33.224 0.259 7.8 5.05 13.41
1/9/2023 8:00:00 AM 0.68 33.224 0.259 7.8 4.94 13.41
1/9/2023 8:15:00 AM 0.68 33.224 0.259 7.81 5.1 13.42
1/9/2023 8:30:00 AM 0.68 33.224 0.259 7.81 5.63 13.42
1/9/2023 8:45:00 AM 0.67 33.206 0.26 7.81 4.98 13.44
1/9/2023 9:00:00 AM 0.67 33.206 0.26 7.81 4.95 13.45
1/9/2023 9:15:00 AM 0.67 33.206 0.26 7.81 4.91 13.46
1/9/2023 9:30:00 AM 0.68 33.224 0.26 7.82 4.81 13.47
1/9/2023 9:45:00 AM 0.69 33.242 0.26 7.82 4.79 13.48
1/9/2023 10:00:00 AM 0.69 33.242 0.26 7.82 4.99 13.49
1/9/2023 10:15:00 AM 0.7 33.26 0.26 7.82 4.64 13.5
1/9/2023 10:30:00 AM 0.71 33.278 0.26 7.83 4.57 13.51
1/9/2023 10:45:00 AM 0.73 33.314 0.26 7.83 4.69 13.52
1/9/2023 11:00:00 AM 0.75 33.35 0.26 7.83 4.66 13.53
1/9/2023 11:15:00 AM 0.77 33.386 0.26 7.83 4.57 13.54
1/9/2023 11:30:00 AM 0.82 33.476 0.26 7.84 4.48 13.54
1/9/2023 11:45:00 AM 0.85 33.53 0.26 7.84 4.52 13.55
1/9/2023 12:00:00 PM 0.87 33.566 0.26 7.85 4.64 13.54
1/9/2023 12:15:00 PM 0.89 33.602 0.261 7.84 4.44 13.54
1/9/2023 12:30:00 PM 0.91 33.638 0.26 7.85 4.59 13.54
1/9/2023 12:45:00 PM 0.95 33.71 0.263 7.83 4.45 13.53
1/9/2023 1:00:00 PM 0.98 33.764 0.26 7.85 4.49 13.53
1/9/2023 1:15:00 PM 1.02 33.836 0.261 7.86 4.43 13.52
1/9/2023 1:30:00 PM 1.05 33.89 0.26 7.86 4.51 13.52
1/9/2023 1:45:00 PM 1.11 33.998 0.262 7.85 4.44 13.51
1/9/2023 2:00:00 PM 1.15 34.07 0.26 7.86 4.57 13.51
1/9/2023 2:15:00 PM 1.18 34.124 0.261 7.86 4.59 13.5
1/9/2023 2:30:00 PM 1.18 34.124 0.261 7.86 4.38 13.49
1/9/2023 2:45:00 PM 1.19 34.142 0.261 7.86 4.42 13.49
1/9/2023 3:00:00 PM 1.2 34.16 0.261 7.87 4.54 13.48
1/9/2023 3:15:00 PM 1.2 34.16 0.261 7.87 4.58 13.47
1/9/2023 3:30:00 PM 1.22 34.196 0.262 7.86 4.55 13.46
1/9/2023 3:45:00 PM 1.23 34.214 0.262 7.86 4.44 13.46
1/9/2023 4:00:00 PM 1.25 34.25 0.264 7.85 4.55 13.44
1/9/2023 4:15:00 PM 1.26 34.268 0.262 7.87 4.54 13.42
1/9/2023 4:30:00 PM 1.26 34.268 0.263 7.86 4.72 13.4
1/9/2023 4:45:00 PM 1.26 34.268 0.263 7.86 4.59 13.38
1/9/2023 5:00:00 PM 1.25 34.25 0.263 7.86 4.54 13.37
1/9/2023 5:15:00 PM 1.24 34.232 0.263 7.85 4.71 13.35
1/9/2023 5:30:00 PM 1.24 34.232 0.263 7.85 4.66 13.34
1/9/2023 5:45:00 PM 1.23 34.214 0.263 7.85 4.71 13.33
1/9/2023 6:00:00 PM 1.22 34.196 0.262 7.85 4.91 13.32
1/9/2023 6:15:00 PM 1.22 34.196 0.263 7.85 6.9 13.32
1/9/2023 6:30:00 PM 1.2 34.16 0.263 7.84 5.34 13.31
1/9/2023 6:45:00 PM 1.19 34.142 0.263 7.84 4.92 13.31
1/9/2023 7:00:00 PM 1.18 34.124 0.263 7.85 5.21 13.31
1/9/2023 7:15:00 PM 1.17 34.106 0.263 7.84 4.95 13.31
1/9/2023 7:30:00 PM 1.15 34.07 0.263 7.84 5.08 13.31
1/9/2023 7:45:00 PM 1.14 34.052 0.264 7.84 5.69 13.3
1/9/2023 8:00:00 PM 1.14 34.052 0.264 7.84 5.04 13.3
1/9/2023 8:15:00 PM 1.13 34.034 0.264 7.84 5.24 13.3
1/9/2023 8:30:00 PM 1.12 34.016 0.265 7.84 5.35 13.3
1/9/2023 8:45:00 PM 1.12 34.016 0.264 7.84 5.01 13.3
1/9/2023 9:00:00 PM 1.11 33.998 0.264 7.84 5 13.3
1/9/2023 9:15:00 PM 1.1 33.98 0.264 7.84 4.9 13.3
1/9/2023 9:30:00 PM 1.09 33.962 0.265 7.84 4.94 13.3
1/9/2023 9:45:00 PM 1.09 33.962 0.265 7.84 5.23 13.3
1/9/2023 10:00:00 PM 1.08 33.944 0.265 7.84 5.13 13.29
1/9/2023 10:15:00 PM 1.07 33.926 0.265 7.84 4.96 13.3
1/9/2023 10:30:00 PM 1.07 33.926 0.265 7.83 5.03 13.3
1/9/2023 10:45:00 PM 1.06 33.908 0.265 7.84 4.87 13.3
1/9/2023 11:00:00 PM 1.05 33.89 0.265 7.84 5.06 13.3
1/9/2023 11:15:00 PM 1.05 33.89 0.265 7.83 5.08 13.3
1/9/2023 11:30:00 PM 1.04 33.872 0.265 7.83 5.28 13.3
1/9/2023 11:45:00 PM 1.04 33.872 0.265 7.83 5.82 13.3
1/10/2023 12:00:00 AM 1.04 33.872 0.266 7.83 5.11 13.3
1/10/2023 12:15:00 AM 1.03 33.854 0.266 7.83 5.11 13.3
1/10/2023 12:30:00 AM 1.03 33.854 0.266 7.83 4.94 13.3
1/10/2023 12:45:00 AM 1.03 33.854 0.266 7.83 4.93 13.3
1/10/2023 1:00:00 AM 1.02 33.836 0.266 7.83 4.99 13.3
1/10/2023 1:15:00 AM 1.02 33.836 0.266 7.83 5.16 13.3
1/10/2023 1:30:00 AM 1.02 33.836 0.266 7.84 5.15 13.3
1/10/2023 1:45:00 AM 1.02 33.836 0.266 7.84 5.52 13.3
1/10/2023 2:00:00 AM 1.02 33.836 0.266 7.84 5.08 13.31
1/10/2023 2:15:00 AM 1.02 33.836 0.266 7.84 4.95 13.31
1/10/2023 2:30:00 AM 1.01 33.818 0.266 7.84 5.04 13.31
1/10/2023 2:45:00 AM 1.01 33.818 0.267 7.84 5.08 13.31
1/10/2023 3:00:00 AM 1.01 33.818 0.267 7.84 4.95 13.31
1/10/2023 3:15:00 AM 1.01 33.818 0.267 7.84 4.97 13.32
1/10/2023 3:30:00 AM 1.01 33.818 0.267 7.84 4.98 13.32
1/10/2023 3:45:00 AM 1.01 33.818 0.267 7.84 4.8 13.32
1/10/2023 4:00:00 AM 1 33.8 0.267 7.84 4.8 13.32
1/10/2023 4:15:00 AM 1 33.8 0.267 7.84 4.99 13.32
1/10/2023 4:30:00 AM 1 33.8 0.267 7.84 4.88 13.33
1/10/2023 4:45:00 AM 1 33.8 0.267 7.84 4.73 13.33
1/10/2023 5:00:00 AM 1 33.8 0.267 7.84 4.86 13.33
1/10/2023 5:15:00 AM 1 33.8 0.268 7.83 4.92 13.33
1/10/2023 5:30:00 AM 1 33.8 0.267 7.84 4.86 13.33
1/10/2023 5:45:00 AM 1 33.8 0.268 7.84 4.84 13.33
1/10/2023 6:00:00 AM 1 33.8 0.268 7.84 4.81 13.33
1/10/2023 6:15:00 AM 1 33.8 0.268 7.84 4.77 13.33
1/10/2023 6:30:00 AM 1 33.8 0.267 7.84 4.78 13.34
1/10/2023 6:45:00 AM 1 33.8 0.268 7.85 4.75 13.34
1/10/2023 7:00:00 AM 0.98 33.764 0.268 7.84 4.81 13.34
1/10/2023 7:15:00 AM 0.98 33.764 0.268 7.84 4.8 13.35
1/10/2023 7:30:00 AM 0.97 33.746 0.268 7.84 4.9 13.35
1/10/2023 7:45:00 AM 0.96 33.728 0.268 7.84 4.88 13.35
1/10/2023 8:00:00 AM 0.96 33.728 0.268 7.84 4.99 13.36
1/10/2023 8:15:00 AM 0.96 33.728 0.268 7.84 4.76 13.37
1/10/2023 8:30:00 AM 0.95 33.71 0.268 7.85 4.72 13.38
1/10/2023 8:45:00 AM 0.95 33.71 0.269 7.85 4.68 13.39
1/10/2023 9:00:00 AM 0.96 33.728 0.269 7.85 4.65 13.4
1/10/2023 9:15:00 AM 0.96 33.728 0.268 7.85 4.79 13.41
1/10/2023 9:30:00 AM 0.96 33.728 0.268 7.85 4.86 13.43
1/10/2023 9:45:00 AM 0.97 33.746 0.269 7.86 4.78 13.44
1/10/2023 10:00:00 AM 0.97 33.746 0.269 7.86 5.12 13.45
1/10/2023 10:15:00 AM 0.97 33.746 0.269 7.86 4.89 13.45
1/10/2023 10:30:00 AM 0.98 33.764 0.269 7.86 4.68 13.46
1/10/2023 10:45:00 AM 0.99 33.782 0.269 7.86 4.54 13.47
1/10/2023 11:00:00 AM 1 33.8 0.269 7.87 4.65 13.48
1/10/2023 11:15:00 AM 1.02 33.836 0.269 7.87 4.62 13.49
1/10/2023 11:30:00 AM 1.03 33.854 0.269 7.87 4.59 13.49
1/10/2023 11:45:00 AM 1.04 33.872 0.269 7.87 4.66 13.5
1/10/2023 12:00:00 PM 1.06 33.908 0.269 7.87 4.49 13.5
1/10/2023 12:15:00 PM 1.08 33.944 0.269 7.88 4.48 13.51
1/10/2023 12:30:00 PM 1.1 33.98 0.269 7.88 4.55 13.51
1/10/2023 12:45:00 PM 1.12 34.016 0.269 7.88 4.61 13.51
1/10/2023 1:00:00 PM 1.14 34.052 0.27 7.88 4.59 13.51
1/10/2023 1:15:00 PM 1.16 34.088 0.269 7.88 4.47 13.51
1/10/2023 1:30:00 PM 1.17 34.106 0.269 7.89 4.41 13.52
1/10/2023 1:45:00 PM 1.2 34.16 0.27 7.89 4.48 13.52
1/10/2023 2:00:00 PM 1.23 34.214 0.27 7.89 4.46 13.52
1/10/2023 2:15:00 PM 1.26 34.268 0.27 7.89 4.39 13.52
1/10/2023 2:30:00 PM 1.29 34.322 0.27 7.9 4.35 13.52
1/10/2023 2:45:00 PM 1.3 34.34 0.27 7.89 4.41 13.51
1/10/2023 3:00:00 PM 1.32 34.376 0.27 7.89 4.37 13.51
1/10/2023 3:15:00 PM 1.32 34.376 0.27 7.9 4.38 13.5
1/10/2023 3:30:00 PM 1.31 34.358 0.27 7.89 4.39 13.49
1/10/2023 3:45:00 PM 1.3 34.34 0.27 7.9 4.38 13.47
1/10/2023 4:00:00 PM 1.29 34.322 0.27 7.9 4.89 13.46
1/10/2023 4:15:00 PM 1.28 34.304 0.271 7.88 4.53 13.45
1/10/2023 4:30:00 PM 1.27 34.286 0.27 7.89 4.56 13.43
1/10/2023 4:45:00 PM 1.25 34.25 0.271 7.89 4.49 13.42
1/10/2023 5:00:00 PM 1.23 34.214 0.271 7.88 4.56 13.41
1/10/2023 5:15:00 PM 1.21 34.178 0.271 7.88 4.7 13.41
1/10/2023 5:30:00 PM 1.19 34.142 0.271 7.88 5.04 13.4
1/10/2023 5:45:00 PM 1.17 34.106 0.271 7.88 4.78 13.4
1/10/2023 6:00:00 PM 1.16 34.088 0.272 7.88 4.7 13.39
1/10/2023 6:15:00 PM 1.14 34.052 0.271 7.87 4.7 13.39
1/10/2023 6:30:00 PM 1.12 34.016 0.271 7.87 5.06 13.4
1/10/2023 6:45:00 PM 1.1 33.98 0.271 7.87 4.69 13.4
1/10/2023 7:00:00 PM 1.08 33.944 0.272 7.87 5.28 13.39
1/10/2023 7:15:00 PM 1.07 33.926 0.271 7.87 4.95 13.4
1/10/2023 7:30:00 PM 1.06 33.908 0.272 7.87 4.81 13.4
1/10/2023 7:45:00 PM 1.04 33.872 0.272 7.87 4.76 13.4
1/10/2023 8:00:00 PM 1.02 33.836 0.272 7.87 4.85 13.4
1/10/2023 8:15:00 PM 1.01 33.818 0.273 7.87 4.83 13.41
1/10/2023 8:30:00 PM 0.99 33.782 0.272 7.87 4.92 13.41
1/10/2023 8:45:00 PM 0.98 33.764 0.272 7.87 4.91 13.42
1/10/2023 9:00:00 PM 0.96 33.728 0.272 7.86 4.95 13.42
1/10/2023 9:15:00 PM 0.94 33.692 0.272 7.86 5.1 13.43
1/10/2023 9:30:00 PM 0.92 33.656 0.272 7.86 4.98 13.43
1/10/2023 9:45:00 PM 0.91 33.638 0.272 7.87 4.83 13.44
1/10/2023 10:00:00 PM 0.88 33.584 0.272 7.87 4.67 13.45
1/10/2023 10:15:00 PM 0.86 33.548 0.272 7.87 4.76 13.45
1/10/2023 10:30:00 PM 0.84 33.512 0.273 7.86 4.61 13.46
1/10/2023 10:45:00 PM 0.81 33.458 0.273 7.86 4.58 13.47
1/10/2023 11:00:00 PM 0.77 33.386 0.273 7.86 4.43 13.48
1/10/2023 11:15:00 PM 0.74 33.332 0.273 7.85 4.88 13.49
1/10/2023 11:30:00 PM 0.71 33.278 0.273 7.86 4.8 13.5
1/10/2023 11:45:00 PM 0.69 33.242 0.273 7.85 4.86 13.51
1/11/2023 12:00:00 AM 0.67 33.206 0.274 7.85 4.72 13.52
1/11/2023 12:15:00 AM 0.63 33.134 0.273 7.85 4.85 13.53
1/11/2023 12:30:00 AM 0.59 33.062 0.273 7.85 4.92 13.54
1/11/2023 12:45:00 AM 0.55 32.99 0.275 7.84 5.01 13.55
1/11/2023 1:00:00 AM 0.51 32.918 0.273 7.85 5.08 13.56
1/11/2023 1:15:00 AM 0.47 32.846 0.274 7.84 4.77 13.57
1/11/2023 1:30:00 AM 0.43 32.774 0.274 7.85 4.81 13.58
1/11/2023 1:45:00 AM 0.39 32.702 0.274 7.85 4.64 13.58
1/11/2023 2:00:00 AM 0.35 32.63 0.274 7.84 4.82 13.59
1/11/2023 2:15:00 AM 0.31 32.558 0.275 7.84 4.98 13.61
1/11/2023 2:30:00 AM 0.27 32.486 0.275 7.84 4.88 13.62
1/11/2023 2:45:00 AM 0.23 32.414 0.275 7.84 4.7 13.64
1/11/2023 3:00:00 AM 0.19 32.342 0.275 7.84 4.69 13.65
1/11/2023 3:15:00 AM 0.15 32.27 0.275 7.84 4.69 13.67
1/11/2023 3:30:00 AM 0.12 32.216 0.275 7.84 4.83 13.69
1/11/2023 3:45:00 AM 0.08 32.144 0.275 7.84 4.78 13.7
1/11/2023 4:00:00 AM 0.04 32.072 0.275 7.84 4.98 13.72
1/11/2023 4:15:00 AM 0 32 0.275 7.84 4.95 13.73
1/11/2023 4:30:00 AM -0.04 31.928 0.275 7.85 5.57 13.75
1/11/2023 4:45:00 AM -0.07 31.874 0.275 7.85 4.7 13.77
1/11/2023 5:00:00 AM -0.1 31.82 0.276 7.84 4.69 13.79
1/11/2023 5:15:00 AM -0.08 31.856 0.275 7.85 13.14 13.8
1/11/2023 5:30:00 AM -0.07 31.874 0.276 7.86 4.66 13.82
1/11/2023 5:45:00 AM -0.07 31.874 0.276 7.86 4.62 13.83
1/11/2023 6:00:00 AM -0.07 31.874 0.277 7.85 4.72 13.84
1/11/2023 6:15:00 AM -0.07 31.874 0.277 7.87 4.77 13.85
1/11/2023 6:30:00 AM -0.07 31.874 0.277 7.86 4.76 13.87
1/11/2023 6:45:00 AM -0.07 31.874 0.276 7.88 4.72 13.88
1/11/2023 7:00:00 AM -0.07 31.874 0.277 7.88 4.54 13.89
1/11/2023 7:15:00 AM -0.07 31.874 0.277 7.88 4.68 13.9
1/11/2023 7:30:00 AM -0.07 31.874 0.277 7.89 5.65 13.92
1/11/2023 7:45:00 AM -0.07 31.874 0.28 7.86 4.31 13.93
1/11/2023 8:00:00 AM -0.06 31.892 0.278 7.89 4.23 13.95
1/11/2023 8:15:00 AM -0.06 31.892 0.279 7.89 4.31 13.96
1/11/2023 8:30:00 AM -0.06 31.892 0.279 7.89 4.05 13.98
1/11/2023 8:45:00 AM -0.06 31.892 0.28 7.9 4.05 14
1/11/2023 9:00:00 AM -0.06 31.892 0.282 7.87 4.01 14.01
1/11/2023 9:15:00 AM -0.06 31.892 0.28 7.9 4.98 14.02
1/11/2023 9:30:00 AM -0.05 31.91 0.281 7.91 3.92 14.03
1/11/2023 9:45:00 AM -0.05 31.91 0.281 7.91 3.94 14.04
1/11/2023 10:00:00 AM -0.05 31.91 0.283 7.89 3.98 14.04
1/11/2023 10:15:00 AM -0.05 31.91 0.28 7.92 3.96 14.04
1/11/2023 10:30:00 AM -0.04 31.928 0.283 7.89 3.81 14.03
1/11/2023 10:45:00 AM -0.04 31.928 0.28 7.92 4.36 14.03
1/11/2023 11:00:00 AM -0.03 31.946 0.28 7.91 5.03 14.01
1/11/2023 11:15:00 AM -0.02 31.964 0.28 7.9 4.91 14
1/11/2023 11:30:00 AM 0.01 32.018 0.28 7.89 4.8 13.99
1/11/2023 11:45:00 AM 0.02 32.036 0.279 7.89 5.13 13.98
1/11/2023 12:00:00 PM 0.03 32.054 0.278 7.89 6.07 13.96
1/11/2023 12:15:00 PM 0.03 32.054 0.278 7.89 5.49 13.95
1/11/2023 12:30:00 PM 0.02 32.036 0.278 7.88 5.8 13.93
1/11/2023 12:45:00 PM 0.02 32.036 0.277 7.89 6.5 13.91
1/11/2023 1:00:00 PM 0.05 32.09 0.277 7.9 9.22 13.89
1/11/2023 1:15:00 PM 0.19 32.342 0.277 7.9 6.25 13.88
1/11/2023 1:30:00 PM 0.32 32.576 0.277 7.9 6.04 13.87
1/11/2023 1:45:00 PM 0.43 32.774 0.277 7.9 5.82 13.85
1/11/2023 2:00:00 PM 0.51 32.918 0.277 7.9 5.67 13.85
1/11/2023 2:15:00 PM 0.56 33.008 0.276 7.92 5.79 13.85
1/11/2023 2:30:00 PM 0.6 33.08 0.276 7.92 5.31 13.85
1/11/2023 2:45:00 PM 0.63 33.134 0.277 7.92 5.35 13.84
1/11/2023 3:00:00 PM 0.67 33.206 0.278 7.92 5.19 13.84
1/11/2023 3:15:00 PM 0.7 33.26 0.279 7.93 5.08 13.83
1/11/2023 3:30:00 PM 0.72 33.296 0.279 7.93 5.48 13.81
1/11/2023 3:45:00 PM 0.74 33.332 0.28 7.93 5.04 13.8
1/11/2023 4:00:00 PM 0.75 33.35 0.28 7.92 4.93 13.78
1/11/2023 4:15:00 PM 0.75 33.35 0.28 7.92 4.96 13.76
1/11/2023 4:30:00 PM 0.75 33.35 0.28 7.92 5.03 13.74
1/11/2023 4:45:00 PM 0.75 33.35 0.281 7.91 5.02 13.72
1/11/2023 5:00:00 PM 0.75 33.35 0.28 7.91 4.83 13.7
1/11/2023 5:15:00 PM 0.76 33.368 0.281 7.92 5.08 13.68
1/11/2023 5:30:00 PM 0.77 33.386 0.281 7.92 5.1 13.66
1/11/2023 5:45:00 PM 0.79 33.422 0.281 7.91 5.18 13.65
1/11/2023 6:00:00 PM 0.81 33.458 0.281 7.91 4.84 13.63
1/11/2023 6:15:00 PM 0.84 33.512 0.281 7.91 4.99 13.61
1/11/2023 6:30:00 PM 0.87 33.566 0.281 7.92 4.97 13.6
1/11/2023 6:45:00 PM 0.9 33.62 0.281 7.91 5.04 13.58
1/11/2023 7:00:00 PM 0.92 33.656 0.281 7.91 4.98 13.56
1/11/2023 7:15:00 PM 0.94 33.692 0.281 7.91 5.44 13.55
1/11/2023 7:30:00 PM 0.95 33.71 0.282 7.9 5.33 13.54
1/11/2023 7:45:00 PM 0.97 33.746 0.281 7.91 4.94 13.53
1/11/2023 8:00:00 PM 0.98 33.764 0.28 7.91 4.8 13.52
1/11/2023 8:15:00 PM 0.99 33.782 0.281 7.91 5.1 13.51
1/11/2023 8:30:00 PM 1 33.8 0.28 7.92 5.05 13.51
1/11/2023 8:45:00 PM 1 33.8 0.281 7.91 4.87 13.5
1/11/2023 9:00:00 PM 1 33.8 0.281 7.91 4.83 13.5
1/11/2023 9:15:00 PM 1 33.8 0.281 7.92 4.51 13.5
1/11/2023 9:30:00 PM 0.99 33.782 0.282 7.91 4.85 13.5
1/11/2023 9:45:00 PM 0.99 33.782 0.282 7.91 4.72 13.5
1/11/2023 10:00:00 PM 0.98 33.764 0.282 7.91 4.61 13.5
1/11/2023 10:15:00 PM 0.98 33.764 0.282 7.91 4.6 13.5
1/11/2023 10:30:00 PM 0.97 33.746 0.282 7.91 4.83 13.5
1/11/2023 10:45:00 PM 0.96 33.728 0.282 7.91 4.72 13.49
1/11/2023 11:00:00 PM 0.95 33.71 0.282 7.91 4.64 13.5
1/11/2023 11:15:00 PM 0.93 33.674 0.282 7.91 4.64 13.5
1/11/2023 11:30:00 PM 0.92 33.656 0.282 7.91 4.82 13.5
1/11/2023 11:45:00 PM 0.91 33.638 0.282 7.91 5.05 13.5
1/12/2023 12:00:00 AM 0.9 33.62 0.282 7.91 4.8 13.5
1/12/2023 12:15:00 AM 0.89 33.602 0.282 7.9 4.77 13.5
1/12/2023 12:30:00 AM 0.88 33.584 0.283 7.89 4.74 13.5
1/12/2023 12:45:00 AM 0.88 33.584 0.282 7.9 5.05 13.51
1/12/2023 1:00:00 AM 0.87 33.566 0.283 7.9 4.82 13.5
1/12/2023 1:15:00 AM 0.87 33.566 0.283 7.9 4.73 13.51
1/12/2023 1:30:00 AM 0.86 33.548 0.283 7.9 4.7 13.51
1/12/2023 1:45:00 AM 0.86 33.548 0.283 7.9 4.53 13.51
1/12/2023 2:00:00 AM 0.87 33.566 0.283 7.9 4.81 13.51
1/12/2023 2:15:00 AM 0.87 33.566 0.282 7.9 4.69 13.51
1/12/2023 2:30:00 AM 0.87 33.566 0.283 7.9 4.85 13.5
1/12/2023 2:45:00 AM 0.88 33.584 0.282 7.9 4.69 13.5
1/12/2023 3:00:00 AM 0.88 33.584 0.283 7.9 4.81 13.5
1/12/2023 3:15:00 AM 0.88 33.584 0.282 7.9 4.6 13.5
1/12/2023 3:30:00 AM 0.88 33.584 0.283 7.9 4.61 13.5
1/12/2023 3:45:00 AM 0.88 33.584 0.282 7.9 4.76 13.5
1/12/2023 4:00:00 AM 0.89 33.602 0.283 7.9 4.67 13.5
1/12/2023 4:15:00 AM 0.89 33.602 0.283 7.9 4.77 13.5
1/12/2023 4:30:00 AM 0.89 33.602 0.282 7.9 4.77 13.5
1/12/2023 4:45:00 AM 0.89 33.602 0.283 7.9 4.58 13.49
1/12/2023 5:00:00 AM 0.89 33.602 0.283 7.9 4.44 13.49
1/12/2023 5:15:00 AM 0.89 33.602 0.283 7.9 4.55 13.5
1/12/2023 5:30:00 AM 0.89 33.602 0.283 7.9 4.83 13.49
1/12/2023 5:45:00 AM 0.9 33.62 0.284 7.9 4.6 13.49
1/12/2023 6:00:00 AM 0.9 33.62 0.283 7.9 4.74 13.49
1/12/2023 6:15:00 AM 0.9 33.62 0.284 7.89 4.94 13.49
1/12/2023 6:30:00 AM 0.91 33.638 0.283 7.91 4.88 13.49
1/12/2023 6:45:00 AM 0.92 33.656 0.283 7.9 4.84 13.49
1/12/2023 7:00:00 AM 0.93 33.674 0.283 7.91 4.8 13.48
1/12/2023 7:15:00 AM 0.94 33.692 0.285 7.9 4.7 13.48
1/12/2023 7:30:00 AM 0.94 33.692 0.283 7.9 4.75 13.48
1/12/2023 7:45:00 AM 0.95 33.71 0.285 7.9 4.46 13.47
1/12/2023 8:00:00 AM 0.95 33.71 0.283 7.91 4.48 13.47
1/12/2023 8:15:00 AM 0.96 33.728 0.284 7.91 4.46 13.48
1/12/2023 8:30:00 AM 0.96 33.728 0.285 7.9 4.35 13.48
1/12/2023 8:45:00 AM 0.96 33.728 0.284 7.9 4.64 13.49
1/12/2023 9:00:00 AM 0.95 33.71 0.283 7.91 4.38 13.49
1/12/2023 9:15:00 AM 0.97 33.746 0.284 7.91 4.51 13.5
1/12/2023 9:30:00 AM 0.97 33.746 0.283 7.92 4.58 13.5
1/12/2023 9:45:00 AM 0.98 33.764 0.283 7.91 4.53 13.5
1/12/2023 10:00:00 AM 1 33.8 0.283 7.92 5.03 13.51
1/12/2023 10:15:00 AM 1.02 33.836 0.283 7.92 4.35 13.51
1/12/2023 10:30:00 AM 1.04 33.872 0.283 7.92 4.47 13.51
1/12/2023 10:45:00 AM 1.07 33.926 0.283 7.92 4.47 13.52
1/12/2023 11:00:00 AM 1.11 33.998 0.283 7.92 4.42 13.52
1/12/2023 11:15:00 AM 1.14 34.052 0.284 7.92 4.11 13.52
1/12/2023 11:30:00 AM 1.17 34.106 0.283 7.93 4.13 13.53
1/12/2023 11:45:00 AM 1.2 34.16 0.284 7.94 4.25 13.53
1/12/2023 12:00:00 PM 1.24 34.232 0.283 7.94 4.49 13.53
1/12/2023 12:15:00 PM 1.27 34.286 0.285 7.93 4.1 13.53
1/12/2023 12:30:00 PM 1.33 34.394 0.283 7.94 4.09 13.53
1/12/2023 12:45:00 PM 1.36 34.448 0.283 7.94 4.36 13.53
1/12/2023 1:00:00 PM 1.4 34.52 0.283 7.94 4.31 13.52
1/12/2023 1:15:00 PM 1.43 34.574 0.283 7.95 4.32 13.51
1/12/2023 1:30:00 PM 1.45 34.61 0.284 7.95 4.23 13.5
1/12/2023 1:45:00 PM 1.47 34.646 0.283 7.95 4.16 13.48
1/12/2023 2:00:00 PM 1.49 34.682 0.283 7.95 4.33 13.46
1/12/2023 2:15:00 PM 1.51 34.718 0.283 7.95 4.27 13.44
1/12/2023 2:30:00 PM 1.53 34.754 0.283 7.95 4.17 13.42
1/12/2023 2:45:00 PM 1.54 34.772 0.283 7.94 4.34 13.4
1/12/2023 3:00:00 PM 1.56 34.808 0.283 7.94 4.16 13.38
1/12/2023 3:15:00 PM 1.58 34.844 0.283 7.94 4.2 13.36
1/12/2023 3:30:00 PM 1.59 34.862 0.284 7.94 4.29 13.35
1/12/2023 3:45:00 PM 1.61 34.898 0.283 7.94 4.53 13.33
1/12/2023 4:00:00 PM 1.63 34.934 0.283 7.94 4.27 13.31
1/12/2023 4:15:00 PM 1.65 34.97 0.284 7.94 4.2 13.29
1/12/2023 4:30:00 PM 1.66 34.988 0.284 7.94 4.31 13.27
1/12/2023 4:45:00 PM 1.68 35.024 0.284 7.94 4.32 13.25
1/12/2023 5:00:00 PM 1.69 35.042 0.284 7.93 4.32 13.23
1/12/2023 5:15:00 PM 1.72 35.096 0.284 7.92 4.54 13.22
1/12/2023 5:30:00 PM 1.74 35.132 0.284 7.93 4.48 13.2
1/12/2023 5:45:00 PM 1.76 35.168 0.283 7.94 5.22 13.19
1/12/2023 6:00:00 PM 1.78 35.204 0.283 7.93 4.9 13.17
1/12/2023 6:15:00 PM 1.8 35.24 0.283 7.93 5 13.16
1/12/2023 6:30:00 PM 1.83 35.294 0.283 7.93 5.3 13.14
1/12/2023 6:45:00 PM 1.86 35.348 0.283 7.93 4.97 13.13
1/12/2023 7:00:00 PM 1.88 35.384 0.283 7.93 5.14 13.12
1/12/2023 7:15:00 PM 1.9 35.42 0.283 7.93 4.94 13.1
1/12/2023 7:30:00 PM 1.92 35.456 0.283 7.93 4.99 13.09
1/12/2023 7:45:00 PM 1.93 35.474 0.284 7.93 4.82 13.08
1/12/2023 8:00:00 PM 1.94 35.492 0.284 7.92 4.96 13.07
1/12/2023 8:15:00 PM 1.96 35.528 0.282 7.93 4.91 13.07
1/12/2023 8:30:00 PM 1.97 35.546 0.283 7.92 5.25 13.05
1/12/2023 8:45:00 PM 1.98 35.564 0.282 7.92 5.22 13.05
1/12/2023 9:00:00 PM 2 35.6 0.282 7.92 5.31 13.03
1/12/2023 9:15:00 PM 2.01 35.618 0.282 7.92 5.83 13.02
1/12/2023 9:30:00 PM 2.02 35.636 0.282 7.92 5.78 13.01
1/12/2023 9:45:00 PM 2.03 35.654 0.282 7.91 6.16 13
1/12/2023 10:00:00 PM 2.03 35.654 0.281 7.92 6.43 12.99
1/12/2023 10:15:00 PM 2.04 35.672 0.281 7.91 6.51 12.99
1/12/2023 10:30:00 PM 2.05 35.69 0.281 7.91 6.7 12.97
1/12/2023 10:45:00 PM 2.06 35.708 0.284 7.89 6.59 12.96
1/12/2023 11:00:00 PM 2.06 35.708 0.283 7.9 6.86 12.95
1/12/2023 11:15:00 PM 2.06 35.708 0.284 7.89 6.91 12.94
1/12/2023 11:30:00 PM 2.06 35.708 0.284 7.9 7.33 12.93
1/12/2023 11:45:00 PM 2.06 35.708 0.284 7.9 7.1 12.93
1/13/2023 12:00:00 AM 2.07 35.726 0.286 7.87 6.98 12.92
1/13/2023 12:15:00 AM 2.07 35.726 0.282 7.89 7.12 12.91
1/13/2023 12:30:00 AM 2.08 35.744 0.282 7.89 7.58 12.89
1/13/2023 12:45:00 AM 2.09 35.762 0.281 7.88 7.75 12.88
1/13/2023 1:00:00 AM 2.1 35.78 0.281 7.87 8.31 12.87
1/13/2023 1:15:00 AM 2.1 35.78 0.279 7.88 8.27 12.86
1/13/2023 1:30:00 AM 2.1 35.78 0.279 7.87 9.36 12.85
1/13/2023 1:45:00 AM 2.11 35.798 0.278 7.87 8.47 12.85
1/13/2023 2:00:00 AM 2.11 35.798 0.277 7.86 8.88 12.84
1/13/2023 2:15:00 AM 2.12 35.816 0.277 7.86 9.32 12.83
1/13/2023 2:30:00 AM 2.13 35.834 0.274 7.86 9.4 12.82
1/13/2023 2:45:00 AM 2.14 35.852 0.274 7.86 9.48 12.82
1/13/2023 3:00:00 AM 2.14 35.852 0.273 7.84 9.84 12.81
1/13/2023 3:15:00 AM 2.15 35.87 0.272 7.84 10.32 12.8
1/13/2023 3:30:00 AM 2.15 35.87 0.27 7.84 10.28 12.79
1/13/2023 3:45:00 AM 2.16 35.888 0.27 7.84 11.31 12.79
1/13/2023 4:00:00 AM 2.16 35.888 0.269 7.84 10.71 12.78
1/13/2023 4:15:00 AM 2.17 35.906 0.268 7.83 10.79 12.77
1/13/2023 4:30:00 AM 2.18 35.924 0.267 7.82 10.89 12.77
1/13/2023 4:45:00 AM 2.19 35.942 0.266 7.82 11.5 12.76
1/13/2023 5:00:00 AM 2.19 35.942 0.265 7.82 12.7 12.75
1/13/2023 5:15:00 AM 2.2 35.96 0.265 7.82 11.27 12.75
1/13/2023 5:30:00 AM 2.2 35.96 0.263 7.81 11.56 12.74
1/13/2023 5:45:00 AM 2.2 35.96 0.262 7.81 12.01 12.74
1/13/2023 6:00:00 AM 2.21 35.978 0.261 7.8 12.84 12.73
1/13/2023 6:15:00 AM 2.22 35.996 0.26 7.8 12.2 12.72
1/13/2023 6:30:00 AM 2.24 36.032 0.258 7.8 13.94 12.72
1/13/2023 6:45:00 AM 2.25 36.05 0.257 7.79 13.44 12.71
1/13/2023 7:00:00 AM 2.26 36.068 0.255 7.79 13.37 12.7
1/13/2023 7:15:00 AM 2.27 36.086 0.254 7.79 13.83 12.7
1/13/2023 7:30:00 AM 2.28 36.104 0.253 7.78 21.64 12.69
1/13/2023 7:45:00 AM 2.27 36.086 0.252 7.78 13.41 12.69
1/13/2023 8:00:00 AM 2.27 36.086 0.251 7.78 15.53 12.69
1/13/2023 8:15:00 AM 2.26 36.068 0.25 7.78 15.79 12.69
1/13/2023 8:30:00 AM 2.25 36.05 0.249 7.77 15.57 12.69
1/13/2023 8:45:00 AM 2.23 36.014 0.248 7.77 17.52 12.69
1/13/2023 9:00:00 AM 2.22 35.996 0.248 7.77 17.47 12.7
1/13/2023 9:15:00 AM 2.19 35.942 0.247 7.77 19.23 12.7
1/13/2023 9:30:00 AM 2.17 35.906 0.246 7.77 18.84 12.71
1/13/2023 9:45:00 AM 2.16 35.888 0.246 7.75 18.64 12.72
1/13/2023 10:00:00 AM 2.15 35.87 0.243 7.76 19.88 12.74
1/13/2023 10:15:00 AM 2.15 35.87 0.242 7.77 20.1 12.75
1/13/2023 10:30:00 AM 2.16 35.888 0.241 7.76 20.24 12.76
1/13/2023 10:45:00 AM 2.17 35.906 0.239 7.76 19.32 12.77
1/13/2023 11:00:00 AM 2.18 35.924 0.239 7.76 17.87 12.78
1/13/2023 11:15:00 AM 2.17 35.906 0.237 7.76 19.64 12.78
1/13/2023 11:30:00 AM 2.16 35.888 0.236 7.76 18.82 12.79
1/13/2023 11:45:00 AM 2.16 35.888 0.234 7.76 18.98 12.79
1/13/2023 12:00:00 PM 2.16 35.888 0.233 7.76 16.98 12.79
1/13/2023 12:15:00 PM 2.16 35.888 0.232 7.75 20.05 12.8
1/13/2023 12:30:00 PM 2.17 35.906 0.231 7.75 18.35 12.8
1/13/2023 12:45:00 PM 2.16 35.888 0.23 7.75 17.62 12.8
1/13/2023 1:00:00 PM 2.15 35.87 0.23 7.74 17.77 12.81
1/13/2023 1:15:00 PM 2.16 35.888 0.229 7.75 16.27 12.81
1/13/2023 1:30:00 PM 2.16 35.888 0.229 7.75 16.48 12.82
1/13/2023 1:45:00 PM 2.17 35.906 0.229 7.76 15.76 12.83
1/13/2023 2:00:00 PM 2.17 35.906 0.229 7.76 15.82 12.83
1/13/2023 2:15:00 PM 2.16 35.888 0.229 7.76 15.25 12.84
1/13/2023 2:30:00 PM 2.15 35.87 0.228 7.75 14.82 12.84
1/13/2023 2:45:00 PM 2.15 35.87 0.228 7.76 14.65 12.84
1/13/2023 3:00:00 PM 2.13 35.834 0.228 7.76 14.31 12.85
1/13/2023 3:15:00 PM 2.1 35.78 0.228 7.75 13.55 12.86
1/13/2023 3:30:00 PM 2.08 35.744 0.228 7.76 13.49 12.87
1/13/2023 3:45:00 PM 2.04 35.672 0.229 7.76 12.48 12.88
1/13/2023 4:00:00 PM 2.01 35.618 0.229 7.76 12.3 12.89
1/13/2023 4:15:00 PM 1.97 35.546 0.23 7.76 11.64 12.9
1/13/2023 4:30:00 PM 1.93 35.474 0.23 7.76 11.78 12.91
1/13/2023 4:45:00 PM 1.9 35.42 0.232 7.74 11.89 12.92
1/13/2023 5:00:00 PM 1.87 35.366 0.231 7.76 10.68 12.92
1/13/2023 5:15:00 PM 1.84 35.312 0.233 7.75 10.78 12.93
1/13/2023 5:30:00 PM 1.8 35.24 0.233 7.76 10.24 12.93
1/13/2023 5:45:00 PM 1.78 35.204 0.233 7.76 10.08 12.94
1/13/2023 6:00:00 PM 1.75 35.15 0.234 7.76 10.05 12.94
1/13/2023 6:15:00 PM 1.72 35.096 0.235 7.76 10.36 12.95
1/13/2023 6:30:00 PM 1.69 35.042 0.235 7.76 9.9 12.96
1/13/2023 6:45:00 PM 1.66 34.988 0.236 7.75 9.68 12.96
1/13/2023 7:00:00 PM 1.63 34.934 0.237 7.76 9.91 12.96
1/13/2023 7:15:00 PM 1.59 34.862 0.237 7.76 9.55 12.97
1/13/2023 7:30:00 PM 1.56 34.808 0.238 7.76 8.74 12.97
1/13/2023 7:45:00 PM 1.53 34.754 0.239 7.76 8.77 12.98
1/13/2023 8:00:00 PM 1.5 34.7 0.239 7.76 8.61 12.99
1/13/2023 8:15:00 PM 1.47 34.646 0.24 7.76 8.44 13
1/13/2023 8:30:00 PM 1.44 34.592 0.241 7.75 8.79 13
1/13/2023 8:45:00 PM 1.41 34.538 0.241 7.76 8.14 13.01
1/13/2023 9:00:00 PM 1.39 34.502 0.242 7.76 8.28 13.02
1/13/2023 9:15:00 PM 1.36 34.448 0.242 7.76 7.9 13.03
1/13/2023 9:30:00 PM 1.33 34.394 0.243 7.76 8.15 13.04
1/13/2023 9:45:00 PM 1.3 34.34 0.243 7.76 7.85 13.05
1/13/2023 10:00:00 PM 1.28 34.304 0.244 7.76 8.18 13.06
1/13/2023 10:15:00 PM 1.25 34.25 0.244 7.75 7.92 13.07
1/13/2023 10:30:00 PM 1.23 34.214 0.244 7.76 7.68 13.08
1/13/2023 10:45:00 PM 1.2 34.16 0.245 7.76 7.71 13.09
1/13/2023 11:00:00 PM 1.17 34.106 0.245 7.75 7.79 13.09
1/13/2023 11:15:00 PM 1.15 34.07 0.245 7.75 8.08 13.1
1/13/2023 11:30:00 PM 1.13 34.034 0.247 7.72 7.71 13.11
1/13/2023 11:45:00 PM 1.11 33.998 0.246 7.74 7.62 13.12
1/14/2023 12:00:00 AM 1.08 33.944 0.246 7.74 7.57 13.12
1/14/2023 12:15:00 AM 1.05 33.89 0.246 7.75 7.29 13.13
1/14/2023 12:30:00 AM 1.03 33.854 0.247 7.75 8.14 13.13
1/14/2023 12:45:00 AM 1 33.8 0.247 7.75 7.77 13.14
1/14/2023 1:00:00 AM 0.98 33.764 0.247 7.75 7.73 13.14
1/14/2023 1:15:00 AM 0.95 33.71 0.248 7.75 7.92 13.15
1/14/2023 1:30:00 AM 0.92 33.656 0.248 7.75 7.5 13.15
1/14/2023 1:45:00 AM 0.91 33.638 0.249 7.73 7.44 13.16
1/14/2023 2:00:00 AM 0.88 33.584 0.248 7.74 7.45 13.16
1/14/2023 2:15:00 AM 0.85 33.53 0.248 7.74 7.42 13.17
1/14/2023 2:30:00 AM 0.83 33.494 0.248 7.74 7.43 13.18
1/14/2023 2:45:00 AM 0.81 33.458 0.248 7.74 7.52 13.18
1/14/2023 3:00:00 AM 0.79 33.422 0.248 7.75 7.56 13.19
1/14/2023 3:15:00 AM 0.77 33.386 0.248 7.74 7.54 13.2
1/14/2023 3:30:00 AM 0.75 33.35 0.248 7.74 7.37 13.2
1/14/2023 3:45:00 AM 0.72 33.296 0.248 7.74 7.93 13.21
1/14/2023 4:00:00 AM 0.69 33.242 0.248 7.74 7.74 13.22
1/14/2023 4:15:00 AM 0.66 33.188 0.248 7.74 7.42 13.23
1/14/2023 4:30:00 AM 0.63 33.134 0.249 7.72 7.62 13.24
1/14/2023 4:45:00 AM 0.61 33.098 0.248 7.74 7.33 13.25
1/14/2023 5:00:00 AM 0.58 33.044 0.248 7.74 7.63 13.25
1/14/2023 5:15:00 AM 0.56 33.008 0.248 7.74 7.51 13.26
1/14/2023 5:30:00 AM 0.53 32.954 0.248 7.74 7.35 13.27
1/14/2023 5:45:00 AM 0.51 32.918 0.248 7.73 7.6 13.28
1/14/2023 6:00:00 AM 0.49 32.882 0.248 7.73 7.64 13.28
1/14/2023 6:15:00 AM 0.46 32.828 0.25 7.71 7.67 13.29
1/14/2023 6:30:00 AM 0.44 32.792 0.247 7.73 7.77 13.29
1/14/2023 6:45:00 AM 0.42 32.756 0.25 7.71 7.63 13.3
1/14/2023 7:00:00 AM 0.39 32.702 0.247 7.73 8.85 13.3
1/14/2023 7:15:00 AM 0.37 32.666 0.248 7.73 7.54 13.31
1/14/2023 7:30:00 AM 0.34 32.612 0.248 7.72 7.8 13.31
1/14/2023 7:45:00 AM 0.32 32.576 0.248 7.72 7.8 13.31
1/14/2023 8:00:00 AM 0.3 32.54 0.25 7.69 7.84 13.32
1/14/2023 8:15:00 AM 0.27 32.486 0.249 7.7 7.79 13.33
1/14/2023 8:30:00 AM 0.25 32.45 0.247 7.72 7.81 13.34
1/14/2023 8:45:00 AM 0.23 32.414 0.247 7.72 8.3 13.35
1/14/2023 9:00:00 AM 0.22 32.396 0.248 7.71 10.02 13.37
1/14/2023 9:15:00 AM 0.2 32.36 0.247 7.73 7.68 13.38
1/14/2023 9:30:00 AM 0.19 32.342 0.247 7.72 7.62 13.39
1/14/2023 9:45:00 AM 0.19 32.342 0.247 7.73 7.8 13.41
1/14/2023 10:00:00 AM 0.19 32.342 0.247 7.72 7.42 13.42
1/14/2023 10:15:00 AM 0.19 32.342 0.246 7.73 7.63 13.43
1/14/2023 10:30:00 AM 0.2 32.36 0.248 7.71 7.62 13.44
1/14/2023 10:45:00 AM 0.21 32.378 0.246 7.73 7.78 13.45
1/14/2023 11:00:00 AM 0.22 32.396 0.246 7.73 8.12 13.46
1/14/2023 11:15:00 AM 0.24 32.432 0.246 7.73 7.68 13.46
1/14/2023 11:30:00 AM 0.24 32.432 0.249 7.71 8.02 13.46
1/14/2023 11:45:00 AM 0.27 32.486 0.245 7.74 7.5 13.47
1/14/2023 12:00:00 PM 0.3 32.54 0.249 7.71 7.5 13.47
1/14/2023 12:15:00 PM 0.31 32.558 0.245 7.74 8.14 13.47
1/14/2023 12:30:00 PM 0.33 32.594 0.245 7.74 7.72 13.47
1/14/2023 12:45:00 PM 0.35 32.63 0.245 7.74 8.16 13.47
1/14/2023 1:00:00 PM 0.37 32.666 0.245 7.74 7.57 13.47
1/14/2023 1:15:00 PM 0.41 32.738 0.245 7.74 7.6 13.47
1/14/2023 1:30:00 PM 0.43 32.774 0.245 7.74 7.72 13.47
1/14/2023 1:45:00 PM 0.45 32.81 0.245 7.74 7.94 13.47
1/14/2023 2:00:00 PM 0.47 32.846 0.245 7.74 7.55 13.47
1/14/2023 2:15:00 PM 0.5 32.9 0.245 7.74 7.44 13.46
1/14/2023 2:30:00 PM 0.5 32.9 0.245 7.74 7.36 13.46
1/14/2023 2:45:00 PM 0.49 32.882 0.246 7.73 7.44 13.46
1/14/2023 3:00:00 PM 0.48 32.864 0.245 7.73 7.69 13.46
1/14/2023 3:15:00 PM 0.47 32.846 0.244 7.74 8.36 13.46
1/14/2023 3:30:00 PM 0.46 32.828 0.245 7.74 7.72 13.45
1/14/2023 3:45:00 PM 0.44 32.792 0.247 7.71 7.81 13.45
1/14/2023 4:00:00 PM 0.42 32.756 0.244 7.73 7.63 13.45
1/14/2023 4:15:00 PM 0.4 32.72 0.244 7.72 7.9 13.44
1/14/2023 4:30:00 PM 0.37 32.666 0.244 7.73 7.5 13.43
1/14/2023 4:45:00 PM 0.34 32.612 0.244 7.72 7.5 13.43
1/14/2023 5:00:00 PM 0.32 32.576 0.245 7.72 7.92 13.42
1/14/2023 5:15:00 PM 0.28 32.504 0.244 7.71 7.68 13.42
1/14/2023 5:30:00 PM 0.26 32.468 0.244 7.71 7.91 13.42
1/14/2023 5:45:00 PM 0.24 32.432 0.244 7.71 7.92 13.42
1/14/2023 6:00:00 PM 0.21 32.378 0.244 7.71 7.7 13.43
1/14/2023 6:15:00 PM 0.19 32.342 0.244 7.71 7.67 13.43
1/14/2023 6:30:00 PM 0.18 32.324 0.244 7.71 8.12 13.44
1/14/2023 6:45:00 PM 0.16 32.288 0.245 7.71 7.61 13.44
1/14/2023 7:00:00 PM 0.14 32.252 0.244 7.7 7.62 13.45
1/14/2023 7:15:00 PM 0.13 32.234 0.244 7.7 7.81 13.45
1/14/2023 7:30:00 PM 0.11 32.198 0.245 7.7 7.74 13.46
1/14/2023 7:45:00 PM 0.08 32.144 0.244 7.7 7.8 13.46
1/14/2023 8:00:00 PM 0.07 32.126 0.245 7.7 7.8 13.47
1/14/2023 8:15:00 PM 0.05 32.09 0.245 7.7 7.78 13.48
1/14/2023 8:30:00 PM 0.04 32.072 0.245 7.7 7.59 13.48
1/14/2023 8:45:00 PM 0.03 32.054 0.244 7.7 7.47 13.49
1/14/2023 9:00:00 PM 0.01 32.018 0.245 7.7 7.42 13.49
1/14/2023 9:15:00 PM -0.01 31.982 0.245 7.7 7.55 13.5
1/14/2023 9:30:00 PM -0.03 31.946 0.245 7.7 7.63 13.52
1/14/2023 9:45:00 PM -0.05 31.91 0.245 7.7 7.56 13.52
1/14/2023 10:00:00 PM -0.06 31.892 0.245 7.7 7.72 13.53
1/14/2023 10:15:00 PM -0.07 31.874 0.245 7.7 7.34 13.54
1/14/2023 10:30:00 PM -0.07 31.874 0.245 7.71 7.31 13.54
1/14/2023 10:45:00 PM -0.07 31.874 0.245 7.7 7.51 13.55
1/14/2023 11:00:00 PM -0.07 31.874 0.245 7.7 7.36 13.56
1/14/2023 11:15:00 PM -0.06 31.892 0.246 7.71 7.24 13.57
1/14/2023 11:30:00 PM -0.06 31.892 0.246 7.71 7.26 13.57
1/14/2023 11:45:00 PM -0.06 31.892 0.246 7.7 7.34 13.58
1/15/2023 12:00:00 AM -0.06 31.892 0.246 7.71 7.09 13.58
1/15/2023 12:15:00 AM -0.06 31.892 0.247 7.71 7.13 13.59
1/15/2023 12:30:00 AM -0.06 31.892 0.247 7.71 7.17 13.6
1/15/2023 12:45:00 AM -0.06 31.892 0.247 7.72 7.56 13.6
1/15/2023 1:00:00 AM -0.06 31.892 0.247 7.72 7.58 13.61
1/15/2023 1:15:00 AM -0.06 31.892 0.248 7.72 7.49 13.61
1/15/2023 1:30:00 AM -0.06 31.892 0.247 7.73 7.11 13.62
1/15/2023 1:45:00 AM -0.06 31.892 0.248 7.73 7.21 13.62
1/15/2023 2:00:00 AM -0.06 31.892 0.242 7.73 6.85 13.63
1/15/2023 2:15:00 AM -0.06 31.892 0.248 7.73 7 13.63
1/15/2023 2:30:00 AM -0.06 31.892 0.249 7.73 7.08 13.64
1/15/2023 2:45:00 AM -0.06 31.892 0.249 7.73 6.72 13.64
1/15/2023 3:00:00 AM -0.06 31.892 0.249 7.74 7.29 13.65
1/15/2023 3:15:00 AM -0.06 31.892 0.249 7.74 7.27 13.65
1/15/2023 3:30:00 AM -0.06 31.892 0.25 7.74 6.22 13.65
1/15/2023 3:45:00 AM -0.06 31.892 0.25 7.74 6.47 13.65
1/15/2023 4:00:00 AM -0.06 31.892 0.249 7.74 6.18 13.66
1/15/2023 4:15:00 AM -0.06 31.892 0.25 7.74 6.25 13.66
1/15/2023 4:30:00 AM -0.06 31.892 0.25 7.74 6.38 13.66
1/15/2023 4:45:00 AM -0.06 31.892 0.25 7.74 6.42 13.66
1/15/2023 5:00:00 AM -0.06 31.892 0.25 7.74 6.16 13.66
1/15/2023 5:15:00 AM -0.06 31.892 0.25 7.74 6.37 13.67
1/15/2023 5:30:00 AM -0.06 31.892 0.251 7.74 6.22 13.67
1/15/2023 5:45:00 AM -0.06 31.892 0.251 7.74 6.2 13.67
1/15/2023 6:00:00 AM -0.06 31.892 0.252 7.74 6.17 13.67
1/15/2023 6:15:00 AM -0.06 31.892 0.252 7.74 5.91 13.68
1/15/2023 6:30:00 AM -0.06 31.892 0.252 7.74 5.95 13.68
1/15/2023 6:45:00 AM -0.06 31.892 0.252 7.74 6.12 13.68
1/15/2023 7:00:00 AM -0.06 31.892 0.252 7.74 5.91 13.68
1/15/2023 7:15:00 AM -0.06 31.892 0.252 7.74 5.92 13.68
1/15/2023 7:30:00 AM -0.06 31.892 0.254 7.72 5.97 13.68
1/15/2023 7:45:00 AM -0.06 31.892 0.252 7.74 5.95 13.69
1/15/2023 8:00:00 AM -0.06 31.892 0.252 7.74 6.48 13.69
1/15/2023 8:15:00 AM -0.06 31.892 0.253 7.74 5.49 13.7
1/15/2023 8:30:00 AM -0.06 31.892 0.253 7.74 5.82 13.71
1/15/2023 8:45:00 AM -0.06 31.892 0.254 7.75 5.99 13.71
1/15/2023 9:00:00 AM -0.06 31.892 0.254 7.74 5.56 13.72
1/15/2023 9:15:00 AM -0.06 31.892 0.254 7.75 6.27 13.73
1/15/2023 9:30:00 AM -0.06 31.892 0.254 7.75 6.34 13.74
1/15/2023 9:45:00 AM -0.06 31.892 0.254 7.75 6.36 13.74
1/15/2023 10:00:00 AM -0.05 31.91 0.254 7.75 5.65 13.75
1/15/2023 10:15:00 AM -0.05 31.91 0.254 7.75 6.37 13.75
1/15/2023 10:30:00 AM -0.05 31.91 0.255 7.76 6.04 13.76
1/15/2023 10:45:00 AM -0.05 31.91 0.255 7.75 5.96 13.76
1/15/2023 11:00:00 AM -0.05 31.91 0.255 7.76 6.02 13.76
1/15/2023 11:15:00 AM -0.05 31.91 0.255 7.76 6.11 13.76
1/15/2023 11:30:00 AM -0.05 31.91 0.255 7.76 6.09 13.75
1/15/2023 11:45:00 AM -0.05 31.91 0.255 7.76 6.25 13.75
1/15/2023 12:00:00 PM -0.05 31.91 0.255 7.76 6.73 13.74
1/15/2023 12:15:00 PM -0.04 31.928 0.255 7.76 7.49 13.74
1/15/2023 12:30:00 PM -0.04 31.928 0.255 7.76 8.05 13.73
1/15/2023 12:45:00 PM -0.04 31.928 0.255 7.75 7.01 13.72
1/15/2023 1:00:00 PM -0.04 31.928 0.254 7.76 6.91 13.72
1/15/2023 1:15:00 PM -0.04 31.928 0.254 7.76 7.56 13.71
1/15/2023 1:30:00 PM -0.04 31.928 0.253 7.74 7.01 13.7
1/15/2023 1:45:00 PM -0.05 31.91 0.255 7.74 7.74 13.7
1/15/2023 2:00:00 PM -0.04 31.928 0.255 7.73 7.56 13.7
1/15/2023 2:15:00 PM -0.05 31.91 0.255 7.73 7.81 13.7
1/15/2023 2:30:00 PM -0.04 31.928 0.256 7.74 9.95 13.69
1/15/2023 2:45:00 PM -0.05 31.91 0.255 7.74 8.39 13.69
1/15/2023 3:00:00 PM -0.04 31.928 0.255 7.74 8.82 13.69
1/15/2023 3:15:00 PM -0.04 31.928 0.255 7.74 8.56 13.69
1/15/2023 3:30:00 PM -0.04 31.928 0.256 7.73 8.76 13.69
1/15/2023 3:45:00 PM -0.05 31.91 0.255 7.74 8.61 13.69
1/15/2023 4:00:00 PM -0.05 31.91 0.256 7.73 8.82 13.69
1/15/2023 4:15:00 PM -0.05 31.91 0.255 7.74 9.02 13.69
1/15/2023 4:30:00 PM -0.04 31.928 0.256 7.74 8.73 13.69
1/15/2023 4:45:00 PM -0.04 31.928 0.257 7.74 7.85 13.69
1/15/2023 5:00:00 PM -0.04 31.928 0.257 7.74 7.86 13.69
1/15/2023 5:15:00 PM -0.05 31.91 0.258 7.74 7.25 13.69
1/15/2023 5:30:00 PM -0.06 31.892 0.258 7.74 6.84 13.69
1/15/2023 5:45:00 PM -0.06 31.892 0.258 7.75 6.76 13.7
1/15/2023 6:00:00 PM -0.08 31.856 0.259 7.74 7.32 13.71
1/15/2023 6:15:00 PM -0.07 31.874 0.259 7.74 8.01 13.71
1/15/2023 6:30:00 PM -0.07 31.874 0.259 7.75 7.4 13.72
1/15/2023 6:45:00 PM -0.07 31.874 0.259 7.75 6.46 13.72
1/15/2023 7:00:00 PM -0.07 31.874 0.258 7.75 6.51 13.72
1/15/2023 7:15:00 PM -0.06 31.892 0.261 7.74 7.5 13.72
1/15/2023 7:30:00 PM -0.07 31.874 0.259 7.76 5.82 13.72
1/15/2023 7:45:00 PM -0.06 31.892 0.261 7.75 5.95 13.72
1/15/2023 8:00:00 PM -0.06 31.892 0.26 7.76 6.13 13.72
1/15/2023 8:15:00 PM -0.06 31.892 0.26 7.76 5.96 13.72
1/15/2023 8:30:00 PM -0.07 31.874 0.261 7.76 5.82 13.72
1/15/2023 8:45:00 PM -0.06 31.892 0.261 7.76 5.76 13.72
1/15/2023 9:00:00 PM -0.07 31.874 0.261 7.76 5.63 13.72
1/15/2023 9:15:00 PM -0.07 31.874 0.262 7.76 5.61 13.72
1/15/2023 9:30:00 PM -0.07 31.874 0.262 7.76 5.44 13.72
1/15/2023 9:45:00 PM -0.07 31.874 0.264 7.75 5.53 13.73
1/15/2023 10:00:00 PM -0.07 31.874 0.262 7.77 5.16 13.73
1/15/2023 10:15:00 PM -0.07 31.874 0.264 7.77 5.03 13.73
1/15/2023 10:30:00 PM -0.07 31.874 0.263 7.77 5.1 13.74
1/15/2023 10:45:00 PM -0.07 31.874 0.264 7.77 4.88 13.74
1/15/2023 11:00:00 PM -0.07 31.874 0.264 7.78 4.86 13.75
1/15/2023 11:15:00 PM -0.07 31.874 0.264 7.78 5.11 13.75
1/15/2023 11:30:00 PM -0.07 31.874 0.264 7.78 5.99 13.76
1/15/2023 11:45:00 PM -0.07 31.874 0.265 7.79 5.07 13.76
1/16/2023 12:00:00 AM -0.07 31.874 0.265 7.79 5.28 13.76
1/16/2023 12:15:00 AM -0.07 31.874 0.265 7.79 4.78 13.77
1/16/2023 12:30:00 AM -0.07 31.874 0.266 7.79 5.16 13.78
1/16/2023 12:45:00 AM -0.07 31.874 0.266 7.79 5.09 13.78
1/16/2023 1:00:00 AM -0.07 31.874 0.266 7.79 5.1 13.78
1/16/2023 1:15:00 AM -0.07 31.874 0.266 7.79 4.97 13.79
1/16/2023 1:30:00 AM -0.07 31.874 0.266 7.8 5.09 13.79
1/16/2023 1:45:00 AM -0.06 31.892 0.267 7.8 4.74 13.8
1/16/2023 2:00:00 AM -0.06 31.892 0.267 7.8 5.68 13.8
1/16/2023 2:15:00 AM -0.07 31.874 0.267 7.8 4.8 13.8
1/16/2023 2:30:00 AM -0.06 31.892 0.267 7.8 4.59 13.8
1/16/2023 2:45:00 AM -0.07 31.874 0.267 7.8 4.44 13.8
1/16/2023 3:00:00 AM -0.06 31.892 0.268 7.8 4.51 13.81
1/16/2023 3:15:00 AM -0.07 31.874 0.268 7.8 4.51 13.81
1/16/2023 3:30:00 AM -0.06 31.892 0.268 7.8 4.43 13.82
1/16/2023 3:45:00 AM -0.06 31.892 0.269 7.8 4.43 13.82
1/16/2023 4:00:00 AM -0.06 31.892 0.269 7.8 4.15 13.82
1/16/2023 4:15:00 AM -0.06 31.892 0.271 7.79 4.24 13.83
1/16/2023 4:30:00 AM -0.06 31.892 0.268 7.81 4.26 13.83
1/16/2023 4:45:00 AM -0.06 31.892 0.27 7.8 4.43 13.84
1/16/2023 5:00:00 AM -0.06 31.892 0.27 7.8 4.14 13.84
1/16/2023 5:15:00 AM -0.06 31.892 0.27 7.8 4.22 13.84
1/16/2023 5:30:00 AM -0.06 31.892 0.27 7.81 9.15 13.85
1/16/2023 5:45:00 AM -0.06 31.892 0.27 7.81 4.35 13.85
1/16/2023 6:00:00 AM -0.06 31.892 0.27 7.81 4.23 13.85
1/16/2023 6:15:00 AM -0.06 31.892 0.271 7.81 4.36 13.86
1/16/2023 6:30:00 AM -0.06 31.892 0.271 7.81 4.14 13.86
1/16/2023 6:45:00 AM -0.06 31.892 0.271 7.81 4.57 13.86
1/16/2023 7:00:00 AM -0.06 31.892 0.271 7.81 3.94 13.87
1/16/2023 7:15:00 AM -0.06 31.892 0.272 7.81 3.99 13.87
1/16/2023 7:30:00 AM -0.06 31.892 0.272 7.81 4.76 13.87
1/16/2023 7:45:00 AM -0.06 31.892 0.272 7.81 3.95 13.88
1/16/2023 8:00:00 AM -0.06 31.892 0.273 7.81 3.86 13.89
1/16/2023 8:15:00 AM -0.06 31.892 0.273 7.81 3.99 13.89
1/16/2023 8:30:00 AM -0.06